Darstellungsparameter: Aktuell verwendete Einstellungen:
Skalierung der Graphiken ... ?
xyx+y,   Skalierungsfaktor:      Skalierung: Modus: x, Faktor: 1
Darstellungszeitraum ... ?
Vom - - bis: - -   Zeitraum: 28.06.2021 - 04.07.2021
Min/Max/Avg-Anzeige ... ?
Zeige MMA aktuell
Zeige MMA Monat
Zeige MMA alles
Zeige --A aktuell
Zeige --A Monat
Zeige --A alles
Keine MMA-Anzeige
MMA:
Keine MMA-Graphiken
MMA-Basis: 28.06.2021 - 04.07.2021
Quicknavigation für Darstellung... ?
Tage:      1T, 2T, 3T, 5T -1T -2T -3T -5T +1T +2T +3T +5T
Wochen: 1W, 2W, 3W -1W -2W -3W +1W +2W +3W
Monate: 1M, 3M, 6M -1M -3M -6M +1M +3M +6M
Jahre:    1J, 3J, 5J, 10J -1J -3J -5J -10J +1J +3J +5J +10J
Nutze für die Darstellung ... ?
Originaldaten oder Mittelwerte auf ...
Stundenbasis Tagesbasis Wochenbasis
Monatsbasis Jahresbasis      Datenbasis: Original-Daten
Darstellen als:
Statistik (Auto) Statistik J:M      Darstellung:
Zur Graphik,    zurück zur Übersicht aller Sensoren.
 
Tabellarische Datenbersicht: ?
 
Sensor: Nr:Datum:Temp:Abs-Feuchte:Windchill:Wind:
Aussen-T/F 1 28-06-2021 00:00:00 19.3 C 14.6 g/m*3 19.3 C 0 km/h
2 28-06-2021 00:05:00 19.3 C 14.6 g/m*3 19.3 C 0 km/h
3 28-06-2021 00:10:00 19.3 C 14.6 g/m*3 19.3 C 0 km/h
4 28-06-2021 00:15:00 19.2 C 14.51 g/m*3 19.2 C 0 km/h
5 28-06-2021 00:20:00 19.2 C 14.51 g/m*3 19.2 C 0 km/h
6 28-06-2021 00:25:00 19.1 C 14.43 g/m*3 19.1 C 0 km/h
7 28-06-2021 00:30:00 19.1 C 14.59 g/m*3 19.1 C 0 km/h
8 28-06-2021 00:35:00 19 C 14.5 g/m*3 19 C 0 km/h
9 28-06-2021 00:40:00 18.9 C 14.42 g/m*3 18.9 C 0 km/h
10 28-06-2021 00:45:00 18.9 C 14.42 g/m*3 18.9 C 0 km/h
11 28-06-2021 00:50:00 18.8 C 14.17 g/m*3 18.8 C 0 km/h
12 28-06-2021 00:55:00 18.7 C 14.25 g/m*3 18.7 C 1.6 km/h
13 28-06-2021 01:00:00 18.6 C 14.17 g/m*3 18.6 C 0 km/h
14 28-06-2021 01:05:00 18.5 C 14.08 g/m*3 18.5 C 0 km/h
15 28-06-2021 01:10:00 18.4 C 14 g/m*3 18.4 C 0 km/h
16 28-06-2021 01:15:00 18.3 C 13.92 g/m*3 18.3 C 0 km/h
17 28-06-2021 01:20:00 18.2 C 13.83 g/m*3 18.2 C 0 km/h
18 28-06-2021 01:25:00 18.1 C 13.75 g/m*3 18.1 C 0 km/h
19 28-06-2021 01:30:00 18.1 C 13.75 g/m*3 18.1 C 0 km/h
20 28-06-2021 01:35:00 17.9 C 13.74 g/m*3 17.9 C 0 km/h
21 28-06-2021 01:40:00 17.8 C 13.66 g/m*3 17.8 C 0 km/h
22 28-06-2021 01:45:00 17.7 C 13.58 g/m*3 17.7 C 3.2 km/h
23 28-06-2021 01:50:00 17.6 C 13.5 g/m*3 17.6 C 3.2 km/h
24 28-06-2021 01:55:00 17.6 C 13.65 g/m*3 17.6 C 1.6 km/h
25 28-06-2021 02:00:00 17.4 C 13.49 g/m*3 17.4 C 0 km/h
Sensor: Nr:Datum:Temp:Abs-Feuchte:Windchill:Wind:
Aussen-T/F 26 28-06-2021 02:05:00 17.4 C 13.49 g/m*3 17.4 C 0 km/h
27 28-06-2021 02:10:00 17.4 C 13.49 g/m*3 17.4 C 0 km/h
28 28-06-2021 02:15:00 17.3 C 13.41 g/m*3 17.3 C 0 km/h
29 28-06-2021 02:20:00 17.3 C 13.41 g/m*3 17.3 C 0 km/h
30 28-06-2021 02:25:00 17.2 C 13.47 g/m*3 17.2 C 0 km/h
31 28-06-2021 02:30:00 17.2 C 13.47 g/m*3 17.2 C 0 km/h
32 28-06-2021 02:35:00 17.1 C 13.39 g/m*3 17.1 C 0 km/h
33 28-06-2021 02:40:00 17.1 C 13.39 g/m*3 17.1 C 0 km/h
34 28-06-2021 02:45:00 17.1 C 13.39 g/m*3 17.1 C 0 km/h
35 28-06-2021 02:50:00 17 C 13.46 g/m*3 17 C 0 km/h
36 28-06-2021 02:55:00 16.9 C 13.38 g/m*3 16.9 C 0 km/h
37 28-06-2021 03:00:00 16.9 C 13.38 g/m*3 16.9 C 0 km/h
38 28-06-2021 03:05:00 16.8 C 13.3 g/m*3 16.8 C 0 km/h
39 28-06-2021 03:10:00 16.8 C 13.3 g/m*3 16.8 C 0 km/h
40 28-06-2021 03:15:00 16.7 C 13.22 g/m*3 16.7 C 0 km/h
41 28-06-2021 03:20:00 16.6 C 13.14 g/m*3 16.6 C 0 km/h
42 28-06-2021 03:25:00 16.6 C 13.14 g/m*3 16.6 C 0 km/h
43 28-06-2021 03:30:00 16.5 C 13.06 g/m*3 16.5 C 0 km/h
44 28-06-2021 03:35:00 16.4 C 12.98 g/m*3 16.4 C 0 km/h
45 28-06-2021 03:40:00 16.4 C 12.98 g/m*3 16.4 C 0 km/h
46 28-06-2021 03:45:00 16.4 C 12.98 g/m*3 16.4 C 0 km/h
47 28-06-2021 03:50:00 16.3 C 13.04 g/m*3 16.3 C 0 km/h
48 28-06-2021 03:55:00 16.3 C 13.04 g/m*3 16.3 C 0 km/h
49 28-06-2021 04:00:00 16.3 C 13.04 g/m*3 16.3 C 0 km/h
50 28-06-2021 04:05:00 16.3 C 13.04 g/m*3 16.3 C 0 km/h
Sensor: Nr:Datum:Temp:Abs-Feuchte:Windchill:Wind:
Aussen-T/F 51 28-06-2021 04:10:00 16.2 C 12.96 g/m*3 16.2 C 0 km/h
52 28-06-2021 04:15:00 16.2 C 12.96 g/m*3 16.2 C 0 km/h
53 28-06-2021 04:20:00 16.2 C 12.96 g/m*3 16.2 C 0 km/h
54 28-06-2021 04:25:00 16.3 C 13.04 g/m*3 16.3 C 0 km/h
55 28-06-2021 04:30:00 16.3 C 13.18 g/m*3 16.3 C 0 km/h
56 28-06-2021 04:35:00 16.3 C 13.18 g/m*3 16.3 C 0 km/h
57 28-06-2021 04:40:00 16.3 C 13.18 g/m*3 16.3 C 0 km/h
58 28-06-2021 04:45:00 16.4 C 13.26 g/m*3 16.4 C 0 km/h
59 28-06-2021 04:50:00 16.4 C 13.26 g/m*3 16.4 C 0 km/h
60 28-06-2021 04:55:00 16.4 C 13.26 g/m*3 16.4 C 0 km/h
61 28-06-2021 05:00:00 16.4 C 13.26 g/m*3 16.4 C 0 km/h
62 28-06-2021 05:05:00 16.3 C 13.18 g/m*3 16.3 C 0 km/h
63 28-06-2021 05:10:00 16.3 C 13.04 g/m*3 16.3 C 0 km/h
64 28-06-2021 05:15:00 16.2 C 13.1 g/m*3 16.2 C 0 km/h
65 28-06-2021 05:20:00 16.2 C 13.1 g/m*3 16.2 C 0 km/h
66 28-06-2021 05:25:00 16.1 C 13.02 g/m*3 16.1 C 0 km/h
67 28-06-2021 05:30:00 16.1 C 13.02 g/m*3 16.1 C 0 km/h
68 28-06-2021 05:35:00 16.1 C 13.02 g/m*3 16.1 C 0 km/h
69 28-06-2021 05:40:00 16.1 C 13.02 g/m*3 16.1 C 0 km/h
70 28-06-2021 05:45:00 16.1 C 13.02 g/m*3 16.1 C 0 km/h
71 28-06-2021 05:50:00 16.1 C 13.02 g/m*3 16.1 C 0 km/h
72 28-06-2021 05:55:00 16.1 C 13.02 g/m*3 16.1 C 0 km/h
73 28-06-2021 06:00:00 16.2 C 13.1 g/m*3 16.2 C 0 km/h
74 28-06-2021 06:05:00 16.2 C 13.1 g/m*3 16.2 C 0 km/h
75 28-06-2021 06:10:00 16.2 C 13.1 g/m*3 16.2 C 0 km/h
Sensor: Nr:Datum:Temp:Abs-Feuchte:Windchill:Wind:
Aussen-T/F 76 28-06-2021 06:15:00 16.2 C 13.1 g/m*3 16.2 C 0 km/h
77 28-06-2021 06:20:00 16.2 C 13.1 g/m*3 16.2 C 0 km/h
78 28-06-2021 06:25:00 16.2 C 13.1 g/m*3 16.2 C 0 km/h
79 28-06-2021 06:30:00 16.2 C 13.1 g/m*3 16.2 C 0 km/h
80 28-06-2021 06:35:00 16.2 C 13.24 g/m*3 16.2 C 0 km/h
81 28-06-2021 06:40:00 16.3 C 13.32 g/m*3 16.3 C 0 km/h
82 28-06-2021 06:45:00 16.4 C 13.4 g/m*3 16.4 C 0 km/h
83 28-06-2021 06:50:00 16.6 C 13.56 g/m*3 16.6 C 0 km/h
84 28-06-2021 06:55:00 16.8 C 13.73 g/m*3 16.8 C 0 km/h
85 28-06-2021 07:00:00 16.9 C 13.81 g/m*3 16.9 C 0 km/h
86 28-06-2021 07:05:00 17 C 13.89 g/m*3 17 C 1.6 km/h
87 28-06-2021 07:10:00 17.1 C 13.97 g/m*3 17.1 C 1.6 km/h
88 28-06-2021 07:15:00 17.2 C 14.06 g/m*3 17.2 C 9.7 km/h
89 28-06-2021 07:20:00 17.3 C 14.14 g/m*3 17.3 C 9.7 km/h
90 28-06-2021 07:25:00 17.4 C 14.23 g/m*3 17.4 C 4.8 km/h
91 28-06-2021 07:30:00 17.6 C 14.4 g/m*3 17.6 C 1.6 km/h
92 28-06-2021 07:35:00 17.8 C 14.57 g/m*3 17.8 C 3.2 km/h
93 28-06-2021 07:40:00 17.8 C 14.42 g/m*3 17.8 C 1.6 km/h
94 28-06-2021 07:45:00 17.8 C 14.42 g/m*3 17.8 C 0 km/h
95 28-06-2021 07:50:00 17.9 C 14.5 g/m*3 17.9 C 0 km/h
96 28-06-2021 07:55:00 17.9 C 14.5 g/m*3 17.9 C 6.4 km/h
97 28-06-2021 08:00:00 18 C 14.44 g/m*3 18 C 3.2 km/h
98 28-06-2021 08:05:00 18.1 C 14.52 g/m*3 18.1 C 3.2 km/h
99 28-06-2021 08:10:00 18.2 C 14.61 g/m*3 18.2 C 1.6 km/h
100 28-06-2021 08:15:00 18.3 C 14.54 g/m*3 18.3 C 1.6 km/h
Sensor: Nr:Datum:Temp:Abs-Feuchte:Windchill:Wind:
Aussen-T/F 101 28-06-2021 08:20:00 18.4 C 14.63 g/m*3 18.4 C 0 km/h
102 28-06-2021 08:25:00 18.4 C 14.63 g/m*3 18.4 C 1.6 km/h
103 28-06-2021 08:30:00 18.4 C 14.63 g/m*3 18.4 C 0 km/h
104 28-06-2021 08:35:00 18.5 C 14.71 g/m*3 18.5 C 0 km/h
105 28-06-2021 08:40:00 18.5 C 14.71 g/m*3 18.5 C 0 km/h
106 28-06-2021 08:45:00 18.6 C 14.8 g/m*3 18.6 C 0 km/h
107 28-06-2021 08:50:00 18.6 C 14.8 g/m*3 18.6 C 0 km/h
108 28-06-2021 08:55:00 18.6 C 14.8 g/m*3 18.6 C 0 km/h
109 28-06-2021 09:00:00 18.7 C 14.89 g/m*3 18.7 C 0 km/h
110 28-06-2021 09:05:00 18.8 C 14.98 g/m*3 18.8 C 0 km/h
111 28-06-2021 09:10:00 18.9 C 14.9 g/m*3 18.9 C 0 km/h
112 28-06-2021 09:15:00 19.1 C 15.08 g/m*3 19.1 C 0 km/h
113 28-06-2021 09:20:00 19.3 C 15.09 g/m*3 19.3 C 4.8 km/h
114 28-06-2021 09:25:00 19.5 C 15.44 g/m*3 19.5 C 0 km/h
115 28-06-2021 09:30:00 19.6 C 15.19 g/m*3 19.6 C 1.6 km/h
116 28-06-2021 09:35:00 19.8 C 15.37 g/m*3 19.8 C 0 km/h
117 28-06-2021 09:40:00 20.1 C 15.47 g/m*3 20.1 C 3.2 km/h
118 28-06-2021 09:45:00 20.3 C 15.48 g/m*3 20.3 C 4.8 km/h
119 28-06-2021 09:50:00 20.5 C 15.84 g/m*3 20.5 C 0 km/h
120 28-06-2021 09:55:00 20.7 C 16.02 g/m*3 20.7 C 0 km/h
121 28-06-2021 10:00:00 20.8 C 15.93 g/m*3 20.8 C 0 km/h
122 28-06-2021 10:05:00 21 C 15.75 g/m*3 21 C 0 km/h
123 28-06-2021 10:10:00 21.3 C 16.22 g/m*3 21.3 C 0 km/h
124 28-06-2021 10:15:00 21.7 C 16.79 g/m*3 21.7 C 0 km/h
125 28-06-2021 10:20:00 21.9 C 16.98 g/m*3 21.9 C 0 km/h
Sensor: Nr:Datum:Temp:Abs-Feuchte:Windchill:Wind:
Aussen-T/F 126 28-06-2021 10:25:00 22.1 C 16.98 g/m*3 22.1 C 0 km/h
127 28-06-2021 10:30:00 22.3 C 17.18 g/m*3 22.3 C 0 km/h
128 28-06-2021 10:35:00 22.7 C 17.17 g/m*3 22.7 C 1.6 km/h
129 28-06-2021 10:40:00 22.9 C 16.76 g/m*3 22.9 C 0 km/h
130 28-06-2021 10:45:00 23.2 C 17.05 g/m*3 23.2 C 1.6 km/h
131 28-06-2021 10:50:00 23.4 C 16.82 g/m*3 23.4 C 4.8 km/h
132 28-06-2021 10:55:00 23.8 C 17.42 g/m*3 23.8 C 1.6 km/h
133 28-06-2021 11:00:00 24.1 C 17.94 g/m*3 24.1 C 0 km/h
134 28-06-2021 11:05:00 24.3 C 17.92 g/m*3 24.3 C 0 km/h
135 28-06-2021 11:10:00 24.4 C 18.03 g/m*3 24.4 C 0 km/h
136 28-06-2021 11:15:00 24.3 C 18.15 g/m*3 24.3 C 0 km/h
137 28-06-2021 11:20:00 24.3 C 17.92 g/m*3 24.3 C 1.6 km/h
138 28-06-2021 11:25:00 24.2 C 18.04 g/m*3 24.2 C 0 km/h
139 28-06-2021 11:30:00 24.2 C 17.38 g/m*3 24.2 C 6.4 km/h
140 28-06-2021 11:35:00 24.3 C 17.04 g/m*3 24.3 C 4.8 km/h
141 28-06-2021 11:40:00 24.4 C 17.36 g/m*3 24.4 C 3.2 km/h
142 28-06-2021 11:45:00 24.5 C 17.23 g/m*3 24.5 C 4.8 km/h
143 28-06-2021 11:50:00 24.7 C 16.98 g/m*3 24.7 C 6.4 km/h
144 28-06-2021 11:55:00 24.8 C 17.53 g/m*3 24.8 C 6.4 km/h
145 28-06-2021 12:00:00 24.9 C 17.63 g/m*3 24.9 C 4.8 km/h
146 28-06-2021 12:05:00 24.9 C 16.71 g/m*3 24.9 C 3.2 km/h
147 28-06-2021 12:10:00 25.1 C 17.13 g/m*3 25.1 C 6.4 km/h
148 28-06-2021 12:15:00 25.2 C 16.99 g/m*3 25.2 C 3.2 km/h
149 28-06-2021 12:20:00 25.3 C 15.92 g/m*3 25.3 C 6.4 km/h
150 28-06-2021 12:25:00 25.5 C 16.81 g/m*3 25.5 C 1.6 km/h
Sensor: Nr:Datum:Temp:Abs-Feuchte:Windchill:Wind:
Aussen-T/F 151 28-06-2021 12:30:00 25.7 C 16.04 g/m*3 25.7 C 3.2 km/h
152 28-06-2021 12:35:00 25.8 C 16.13 g/m*3 25.8 C 6.4 km/h
153 28-06-2021 12:40:00 25.9 C 15.98 g/m*3 25.9 C 3.2 km/h
154 28-06-2021 12:45:00 26.1 C 16.89 g/m*3 26.1 C 6.4 km/h
155 28-06-2021 12:50:00 26.3 C 16.09 g/m*3 26.3 C 9.7 km/h
156 28-06-2021 12:55:00 26.4 C 16.18 g/m*3 26.4 C 3.2 km/h
157 28-06-2021 13:00:00 26.6 C 16.36 g/m*3 26.6 C 4.8 km/h
158 28-06-2021 13:05:00 26.8 C 16.54 g/m*3 26.8 C 6.4 km/h
159 28-06-2021 13:10:00 26.9 C 17.15 g/m*3 26.9 C 9.7 km/h
160 28-06-2021 13:15:00 27.1 C 17.6 g/m*3 27.1 C 6.4 km/h
161 28-06-2021 13:20:00 27.1 C 15.79 g/m*3 27.1 C 12.9 km/h
162 28-06-2021 13:25:00 27.1 C 17.08 g/m*3 27.1 C 12.9 km/h
163 28-06-2021 13:30:00 27.1 C 16.56 g/m*3 27.1 C 6.4 km/h
164 28-06-2021 13:35:00 27.2 C 15.87 g/m*3 27.2 C 6.4 km/h
165 28-06-2021 13:40:00 27.2 C 16.91 g/m*3 27.2 C 6.4 km/h
166 28-06-2021 13:45:00 27.3 C 16.22 g/m*3 27.3 C 1.6 km/h
167 28-06-2021 13:50:00 27.3 C 16.48 g/m*3 27.3 C 4.8 km/h
168 28-06-2021 13:55:00 27.4 C 16.31 g/m*3 27.4 C 8.1 km/h
169 28-06-2021 14:00:00 27.3 C 15.96 g/m*3 27.3 C 6.4 km/h
170 28-06-2021 14:05:00 27.4 C 18.15 g/m*3 27.4 C 4.8 km/h
171 28-06-2021 14:10:00 27.4 C 18.15 g/m*3 27.4 C 6.4 km/h
172 28-06-2021 14:15:00 27.4 C 16.58 g/m*3 27.4 C 0 km/h
173 28-06-2021 14:20:00 27.5 C 16.14 g/m*3 27.5 C 9.7 km/h
174 28-06-2021 14:25:00 27.6 C 16.76 g/m*3 27.6 C 1.6 km/h
175 28-06-2021 14:30:00 27.7 C 17.92 g/m*3 27.7 C 3.2 km/h
Sensor: Nr:Datum:Temp:Abs-Feuchte:Windchill:Wind:
Aussen-T/F 176 28-06-2021 14:35:00 27.7 C 17.92 g/m*3 27.7 C 3.2 km/h
177 28-06-2021 14:40:00 27.6 C 18.62 g/m*3 27.6 C 3.2 km/h
178 28-06-2021 14:45:00 27.4 C 19.21 g/m*3 27.4 C 0 km/h
179 28-06-2021 14:50:00 27.2 C 19.26 g/m*3 27.2 C 3.2 km/h
180 28-06-2021 14:55:00 26.7 C 18.73 g/m*3 26.7 C 4.8 km/h
181 28-06-2021 15:00:00 26.2 C 18.46 g/m*3 26.2 C 4.8 km/h
182 28-06-2021 15:05:00 25.6 C 18.09 g/m*3 25.6 C 8.1 km/h
183 28-06-2021 15:10:00 24.8 C 17.53 g/m*3 24.8 C 11.3 km/h
184 28-06-2021 15:15:00 23.9 C 17.31 g/m*3 23.9 C 1.6 km/h
185 28-06-2021 15:20:00 23.3 C 17.14 g/m*3 23.3 C 9.7 km/h
186 28-06-2021 15:25:00 22.8 C 16.87 g/m*3 22.8 C 3.2 km/h
187 28-06-2021 15:30:00 22.4 C 17.08 g/m*3 22.4 C 1.6 km/h
188 28-06-2021 15:35:00 22.2 C 17.28 g/m*3 22.2 C 4.8 km/h
189 28-06-2021 15:40:00 22.2 C 17.67 g/m*3 22.2 C 1.6 km/h
190 28-06-2021 15:45:00 22.2 C 17.67 g/m*3 22.2 C 6.4 km/h
191 28-06-2021 15:50:00 22.1 C 17.57 g/m*3 22.1 C 4.8 km/h
192 28-06-2021 15:55:00 21.9 C 17.56 g/m*3 21.9 C 1.6 km/h
193 28-06-2021 16:00:00 21.8 C 17.46 g/m*3 21.8 C 0 km/h
194 28-06-2021 16:05:00 22 C 18.05 g/m*3 22 C 0 km/h
195 28-06-2021 16:10:00 22.2 C 18.26 g/m*3 22.2 C 0 km/h
196 28-06-2021 16:15:00 22.3 C 18.36 g/m*3 22.3 C 1.6 km/h
197 28-06-2021 16:20:00 22.3 C 17.97 g/m*3 22.3 C 4.8 km/h
198 28-06-2021 16:25:00 22.3 C 17.97 g/m*3 22.3 C 9.7 km/h
199 28-06-2021 16:30:00 22.8 C 19.1 g/m*3 22.8 C 6.4 km/h
200 28-06-2021 16:35:00 23.6 C 19.78 g/m*3 23.6 C 9.7 km/h
Sensor: Nr:Datum:Temp:Abs-Feuchte:Windchill:Wind:
Aussen-T/F 201 28-06-2021 16:40:00 23.8 C 19.15 g/m*3 23.8 C 6.4 km/h
202 28-06-2021 16:45:00 24.3 C 19.69 g/m*3 24.3 C 3.2 km/h
203 28-06-2021 16:50:00 24.7 C 20.14 g/m*3 24.7 C 1.6 km/h
204 28-06-2021 16:55:00 24.8 C 19.8 g/m*3 24.8 C 9.7 km/h
205 28-06-2021 17:00:00 24.8 C 19.35 g/m*3 24.8 C 14.5 km/h
206 28-06-2021 17:05:00 24.3 C 18.15 g/m*3 24.3 C 14.5 km/h
207 28-06-2021 17:10:00 23.4 C 17.03 g/m*3 23.4 C 17.7 km/h
208 28-06-2021 17:15:00 22.3 C 15.99 g/m*3 22.3 C 17.7 km/h
209 28-06-2021 17:20:00 21.7 C 16.02 g/m*3 21.7 C 4.8 km/h
210 28-06-2021 17:25:00 21.4 C 16.12 g/m*3 21.4 C 6.4 km/h
211 28-06-2021 17:30:00 21.1 C 16.21 g/m*3 21.1 C 12.9 km/h
212 28-06-2021 17:35:00 20.9 C 16.21 g/m*3 20.9 C 11.3 km/h
213 28-06-2021 17:40:00 20.9 C 16.57 g/m*3 20.9 C 8.1 km/h
214 28-06-2021 17:45:00 21.1 C 16.95 g/m*3 21.1 C 6.4 km/h
215 28-06-2021 17:50:00 21.3 C 17.15 g/m*3 21.3 C 0 km/h
216 28-06-2021 17:55:00 21.6 C 17.64 g/m*3 21.6 C 3.2 km/h
217 28-06-2021 18:00:00 21.8 C 17.84 g/m*3 21.8 C 4.8 km/h
218 28-06-2021 18:05:00 21.8 C 17.65 g/m*3 21.8 C 3.2 km/h
219 28-06-2021 18:10:00 21.2 C 16.49 g/m*3 21.2 C 22.5 km/h
220 28-06-2021 18:15:00 20.6 C 15.93 g/m*3 20.6 C 22.5 km/h
221 28-06-2021 18:20:00 20.2 C 15.74 g/m*3 20.2 C 14.5 km/h
222 28-06-2021 18:25:00 19.9 C 15.63 g/m*3 19.9 C 14.5 km/h
223 28-06-2021 18:30:00 19.8 C 15.71 g/m*3 19.8 C 12.9 km/h
224 28-06-2021 18:35:00 19.8 C 15.89 g/m*3 19.8 C 6.4 km/h
225 28-06-2021 18:40:00 19.8 C 15.89 g/m*3 19.8 C 11.3 km/h
Sensor: Nr:Datum:Temp:Abs-Feuchte:Windchill:Wind:
Aussen-T/F 226 28-06-2021 18:45:00 19.7 C 15.79 g/m*3 19.7 C 9.7 km/h
227 28-06-2021 18:50:00 19.7 C 15.96 g/m*3 19.7 C 12.9 km/h
228 28-06-2021 18:55:00 19.4 C 15.52 g/m*3 19.4 C 17.7 km/h
229 28-06-2021 19:00:00 19.2 C 15.34 g/m*3 19.2 C 9.7 km/h
230 28-06-2021 19:05:00 18.7 C 14.89 g/m*3 18.7 C 12.9 km/h
231 28-06-2021 19:10:00 18.4 C 14.63 g/m*3 18.4 C 12.9 km/h
232 28-06-2021 19:15:00 18.3 C 14.7 g/m*3 18.3 C 11.3 km/h
233 28-06-2021 19:20:00 18.6 C 15.12 g/m*3 18.6 C 4.8 km/h
234 28-06-2021 19:25:00 19 C 15.64 g/m*3 19 C 3.2 km/h
235 28-06-2021 19:30:00 19.4 C 16.02 g/m*3 19.4 C 4.8 km/h
236 28-06-2021 19:35:00 19.7 C 16.3 g/m*3 19.7 C 1.6 km/h
237 28-06-2021 19:40:00 19.9 C 16.49 g/m*3 19.9 C 3.2 km/h
238 28-06-2021 19:45:00 19.8 C 16.4 g/m*3 19.8 C 0 km/h
239 28-06-2021 19:50:00 19.7 C 16.13 g/m*3 19.7 C 0 km/h
240 28-06-2021 19:55:00 19.7 C 16.13 g/m*3 19.7 C 3.2 km/h
241 28-06-2021 20:00:00 19.6 C 16.04 g/m*3 19.6 C 4.8 km/h
242 28-06-2021 20:05:00 19.6 C 16.21 g/m*3 19.6 C 3.2 km/h
243 28-06-2021 20:10:00 19.5 C 16.11 g/m*3 19.5 C 4.8 km/h
244 28-06-2021 20:15:00 19.4 C 15.85 g/m*3 19.4 C 4.8 km/h
245 28-06-2021 20:20:00 19.3 C 15.76 g/m*3 19.3 C 3.2 km/h
246 28-06-2021 20:25:00 19.3 C 15.92 g/m*3 19.3 C 3.2 km/h
247 28-06-2021 20:30:00 19.3 C 15.76 g/m*3 19.3 C 3.2 km/h
248 28-06-2021 20:35:00 19.2 C 15.66 g/m*3 19.2 C 3.2 km/h
249 28-06-2021 20:40:00 19.2 C 15.83 g/m*3 19.2 C 0 km/h
250 28-06-2021 20:45:00 19.1 C 15.74 g/m*3 19.1 C 0 km/h
Sensor: Nr:Datum:Temp:Abs-Feuchte:Windchill:Wind:
Aussen-T/F 251 28-06-2021 20:50:00 19.1 C 15.74 g/m*3 19.1 C 0 km/h
252 28-06-2021 20:55:00 19.1 C 15.74 g/m*3 19.1 C 0 km/h
253 28-06-2021 21:00:00 19.1 C 15.74 g/m*3 19.1 C 0 km/h
254 28-06-2021 21:05:00 19 C 15.64 g/m*3 19 C 0 km/h
255 28-06-2021 21:10:00 19 C 15.64 g/m*3 19 C 0 km/h
256 28-06-2021 21:15:00 18.9 C 15.55 g/m*3 18.9 C 0 km/h
257 28-06-2021 21:20:00 18.8 C 15.46 g/m*3 18.8 C 4.8 km/h
258 28-06-2021 21:25:00 18.8 C 15.46 g/m*3 18.8 C 4.8 km/h
259 28-06-2021 21:30:00 18.7 C 15.37 g/m*3 18.7 C 8.1 km/h
260 28-06-2021 21:35:00 18.6 C 15.28 g/m*3 18.6 C 6.4 km/h
261 28-06-2021 21:40:00 18.4 C 15.1 g/m*3 18.4 C 6.4 km/h
262 28-06-2021 21:45:00 18.4 C 15.1 g/m*3 18.4 C 4.8 km/h
263 28-06-2021 21:50:00 18.4 C 15.1 g/m*3 18.4 C 6.4 km/h
264 28-06-2021 21:55:00 18.4 C 15.1 g/m*3 18.4 C 3.2 km/h
265 28-06-2021 22:00:00 18.5 C 15.19 g/m*3 18.5 C 0 km/h
266 28-06-2021 22:05:00 18.6 C 15.28 g/m*3 18.6 C 3.2 km/h
267 28-06-2021 22:10:00 18.6 C 15.28 g/m*3 18.6 C 0 km/h
268 28-06-2021 22:15:00 18.6 C 15.28 g/m*3 18.6 C 0 km/h
269 28-06-2021 22:20:00 18.6 C 15.28 g/m*3 18.6 C 0 km/h
270 28-06-2021 22:25:00 18.6 C 15.28 g/m*3 18.6 C 0 km/h
271 28-06-2021 22:30:00 18.6 C 15.28 g/m*3 18.6 C 0 km/h
272 28-06-2021 22:35:00 18.6 C 15.28 g/m*3 18.6 C 0 km/h
273 28-06-2021 22:40:00 18.6 C 15.28 g/m*3 18.6 C 0 km/h
274 28-06-2021 22:45:00 18.6 C 15.28 g/m*3 18.6 C 0 km/h
275 28-06-2021 22:50:00 18.6 C 15.28 g/m*3 18.6 C 0 km/h
Sensor: Nr:Datum:Temp:Abs-Feuchte:Windchill:Wind:
Aussen-T/F 276 28-06-2021 22:55:00 18.6 C 15.28 g/m*3 18.6 C 0 km/h
277 28-06-2021 23:00:00 18.6 C 15.28 g/m*3 18.6 C 0 km/h
278 28-06-2021 23:05:00 18.6 C 15.44 g/m*3 18.6 C 0 km/h
279 28-06-2021 23:10:00 18.7 C 15.53 g/m*3 18.7 C 0 km/h
280 28-06-2021 23:15:00 18.7 C 15.53 g/m*3 18.7 C 0 km/h
281 28-06-2021 23:20:00 18.7 C 15.53 g/m*3 18.7 C 0 km/h
282 28-06-2021 23:25:00 18.7 C 15.53 g/m*3 18.7 C 0 km/h
283 28-06-2021 23:30:00 18.7 C 15.53 g/m*3 18.7 C 0 km/h
284 28-06-2021 23:35:00 18.7 C 15.53 g/m*3 18.7 C 0 km/h
285 28-06-2021 23:40:00 18.7 C 15.53 g/m*3 18.7 C 0 km/h
286 28-06-2021 23:45:00 18.7 C 15.53 g/m*3 18.7 C 0 km/h
287 28-06-2021 23:50:00 18.7 C 15.53 g/m*3 18.7 C 0 km/h
288 28-06-2021 23:55:00 18.7 C 15.53 g/m*3 18.7 C 0 km/h
289 29-06-2021 00:00:00 18.7 C 15.53 g/m*3 18.7 C 0 km/h
290 29-06-2021 00:05:00 18.7 C 15.53 g/m*3 18.7 C 0 km/h
291 29-06-2021 00:10:00 18.6 C 15.44 g/m*3 18.6 C 0 km/h
292 29-06-2021 00:15:00 18.6 C 15.44 g/m*3 18.6 C 0 km/h
293 29-06-2021 00:20:00 18.6 C 15.44 g/m*3 18.6 C 0 km/h
294 29-06-2021 00:25:00 18.6 C 15.44 g/m*3 18.6 C 0 km/h
295 29-06-2021 00:30:00 18.5 C 15.35 g/m*3 18.5 C 0 km/h
296 29-06-2021 00:35:00 18.5 C 15.35 g/m*3 18.5 C 0 km/h
297 29-06-2021 00:40:00 18.4 C 15.26 g/m*3 18.4 C 0 km/h
298 29-06-2021 00:45:00 18.4 C 15.26 g/m*3 18.4 C 0 km/h
299 29-06-2021 00:50:00 18.3 C 15.17 g/m*3 18.3 C 0 km/h
300 29-06-2021 00:55:00 18.3 C 15.17 g/m*3 18.3 C 6.4 km/h
Sensor: Nr:Datum:Temp:Abs-Feuchte:Windchill:Wind:
Aussen-T/F 301 29-06-2021 01:00:00 18.3 C 15.17 g/m*3 18.3 C 8.1 km/h
302 29-06-2021 01:05:00 18.3 C 15.17 g/m*3 18.3 C 8.1 km/h
303 29-06-2021 01:10:00 18.2 C 15.08 g/m*3 18.2 C 8.1 km/h
304 29-06-2021 01:15:00 18.2 C 15.08 g/m*3 18.2 C 8.1 km/h
305 29-06-2021 01:20:00 18.2 C 15.08 g/m*3 18.2 C 4.8 km/h
306 29-06-2021 01:25:00 18.1 C 14.99 g/m*3 18.1 C 6.4 km/h
307 29-06-2021 01:30:00 18.1 C 14.99 g/m*3 18.1 C 6.4 km/h
308 29-06-2021 01:35:00 18.1 C 14.99 g/m*3 18.1 C 4.8 km/h
309 29-06-2021 01:40:00 18 C 14.9 g/m*3 18 C 3.2 km/h
310 29-06-2021 01:45:00 17.9 C 14.81 g/m*3 17.9 C 1.6 km/h
311 29-06-2021 01:50:00 17.9 C 14.81 g/m*3 17.9 C 4.8 km/h
312 29-06-2021 01:55:00 17.8 C 14.72 g/m*3 17.8 C 4.8 km/h
313 29-06-2021 02:00:00 17.8 C 14.72 g/m*3 17.8 C 1.6 km/h
314 29-06-2021 02:05:00 17.7 C 14.64 g/m*3 17.7 C 6.4 km/h
315 29-06-2021 02:10:00 17.7 C 14.64 g/m*3 17.7 C 6.4 km/h
316 29-06-2021 02:15:00 17.7 C 14.64 g/m*3 17.7 C 4.8 km/h
317 29-06-2021 02:20:00 17.6 C 14.55 g/m*3 17.6 C 4.8 km/h
318 29-06-2021 02:25:00 17.6 C 14.55 g/m*3 17.6 C 6.4 km/h
319 29-06-2021 02:30:00 17.5 C 14.46 g/m*3 17.5 C 4.8 km/h
320 29-06-2021 02:35:00 17.4 C 14.38 g/m*3 17.4 C 6.4 km/h
321 29-06-2021 02:40:00 17.4 C 14.38 g/m*3 17.4 C 6.4 km/h
322 29-06-2021 02:45:00 17.3 C 14.29 g/m*3 17.3 C 6.4 km/h
323 29-06-2021 02:50:00 17.2 C 14.2 g/m*3 17.2 C 8.1 km/h
324 29-06-2021 02:55:00 17.2 C 14.2 g/m*3 17.2 C 8.1 km/h
325 29-06-2021 03:00:00 17.1 C 14.12 g/m*3 17.1 C 6.4 km/h
Sensor: Nr:Datum:Temp:Abs-Feuchte:Windchill:Wind:
Aussen-T/F 326 29-06-2021 03:05:00 17.1 C 14.12 g/m*3 17.1 C 8.1 km/h
327 29-06-2021 03:10:00 17 C 14.04 g/m*3 17 C 8.1 km/h
328 29-06-2021 03:15:00 16.9 C 13.95 g/m*3 16.9 C 6.4 km/h
329 29-06-2021 03:20:00 16.9 C 13.95 g/m*3 16.9 C 1.6 km/h
330 29-06-2021 03:25:00 16.9 C 13.95 g/m*3 16.9 C 1.6 km/h
331 29-06-2021 03:30:00 16.8 C 13.87 g/m*3 16.8 C 1.6 km/h
332 29-06-2021 03:35:00 16.8 C 13.87 g/m*3 16.8 C 0 km/h
333 29-06-2021 03:40:00 16.8 C 13.87 g/m*3 16.8 C 1.6 km/h
334 29-06-2021 03:45:00 16.8 C 13.87 g/m*3 16.8 C 3.2 km/h
335 29-06-2021 03:50:00 16.8 C 13.87 g/m*3 16.8 C 3.2 km/h
336 29-06-2021 03:55:00 16.8 C 13.87 g/m*3 16.8 C 0 km/h
337 29-06-2021 04:00:00 16.8 C 13.87 g/m*3 16.8 C 1.6 km/h
338 29-06-2021 04:05:00 16.7 C 13.79 g/m*3 16.7 C 4.8 km/h
339 29-06-2021 04:10:00 16.7 C 13.79 g/m*3 16.7 C 6.4 km/h
340 29-06-2021 04:15:00 16.7 C 13.79 g/m*3 16.7 C 3.2 km/h
341 29-06-2021 04:20:00 16.7 C 13.79 g/m*3 16.7 C 3.2 km/h
342 29-06-2021 04:25:00 16.7 C 13.79 g/m*3 16.7 C 0 km/h
343 29-06-2021 04:30:00 16.6 C 13.7 g/m*3 16.6 C 1.6 km/h
344 29-06-2021 04:35:00 16.6 C 13.7 g/m*3 16.6 C 1.6 km/h
345 29-06-2021 04:40:00 16.5 C 13.62 g/m*3 16.5 C 1.6 km/h
346 29-06-2021 04:45:00 16.4 C 13.54 g/m*3 16.4 C 3.2 km/h
347 29-06-2021 04:50:00 16.4 C 13.54 g/m*3 16.4 C 4.8 km/h
348 29-06-2021 04:55:00 16.4 C 13.54 g/m*3 16.4 C 3.2 km/h
349 29-06-2021 05:00:00 16.4 C 13.54 g/m*3 16.4 C 1.6 km/h
350 29-06-2021 05:05:00 16.4 C 13.54 g/m*3 16.4 C 3.2 km/h
Sensor: Nr:Datum:Temp:Abs-Feuchte:Windchill:Wind:
Aussen-T/F 351 29-06-2021 05:10:00 16.3 C 13.46 g/m*3 16.3 C 0 km/h
352 29-06-2021 05:15:00 16.3 C 13.46 g/m*3 16.3 C 0 km/h
353 29-06-2021 05:20:00 16.3 C 13.46 g/m*3 16.3 C 0 km/h
354 29-06-2021 05:25:00 16.3 C 13.46 g/m*3 16.3 C 0 km/h
355 29-06-2021 05:30:00 16.3 C 13.46 g/m*3 16.3 C 0 km/h
356 29-06-2021 05:35:00 16.3 C 13.46 g/m*3 16.3 C 0 km/h
357 29-06-2021 05:40:00 16.3 C 13.46 g/m*3 16.3 C 0 km/h
358 29-06-2021 05:45:00 16.3 C 13.46 g/m*3 16.3 C 0 km/h
359 29-06-2021 05:50:00 16.4 C 13.68 g/m*3 16.4 C 0 km/h
360 29-06-2021 05:55:00 16.4 C 13.68 g/m*3 16.4 C 0 km/h
361 29-06-2021 06:00:00 16.5 C 13.76 g/m*3 16.5 C 0 km/h
362 29-06-2021 06:05:00 16.6 C 13.7 g/m*3 16.6 C 0 km/h
363 29-06-2021 06:10:00 16.6 C 13.7 g/m*3 16.6 C 0 km/h
364 29-06-2021 06:15:00 16.7 C 13.79 g/m*3 16.7 C 0 km/h
365 29-06-2021 06:20:00 16.7 C 13.93 g/m*3 16.7 C 0 km/h
366 29-06-2021 06:25:00 16.7 C 13.93 g/m*3 16.7 C 0 km/h
367 29-06-2021 06:30:00 16.8 C 14.01 g/m*3 16.8 C 0 km/h
368 29-06-2021 06:35:00 16.8 C 14.01 g/m*3 16.8 C 0 km/h
369 29-06-2021 06:40:00 16.9 C 14.1 g/m*3 16.9 C 0 km/h
370 29-06-2021 06:45:00 17 C 14.18 g/m*3 17 C 0 km/h
371 29-06-2021 06:50:00 17.1 C 14.27 g/m*3 17.1 C 0 km/h
372 29-06-2021 06:55:00 17.1 C 14.27 g/m*3 17.1 C 0 km/h
373 29-06-2021 07:00:00 17.1 C 14.27 g/m*3 17.1 C 0 km/h
374 29-06-2021 07:05:00 17.2 C 14.35 g/m*3 17.2 C 0 km/h
375 29-06-2021 07:10:00 17.2 C 14.35 g/m*3 17.2 C 0 km/h
Sensor: Nr:Datum:Temp:Abs-Feuchte:Windchill:Wind:
Aussen-T/F 376 29-06-2021 07:15:00 17.3 C 14.44 g/m*3 17.3 C 0 km/h
377 29-06-2021 07:20:00 17.3 C 14.44 g/m*3 17.3 C 0 km/h
378 29-06-2021 07:25:00 17.4 C 14.52 g/m*3 17.4 C 0 km/h
379 29-06-2021 07:30:00 17.6 C 14.7 g/m*3 17.6 C 0 km/h
380 29-06-2021 07:35:00 17.6 C 14.7 g/m*3 17.6 C 0 km/h
381 29-06-2021 07:40:00 17.6 C 14.7 g/m*3 17.6 C 0 km/h
382 29-06-2021 07:45:00 17.6 C 14.7 g/m*3 17.6 C 0 km/h
383 29-06-2021 07:50:00 17.6 C 14.7 g/m*3 17.6 C 0 km/h
384 29-06-2021 07:55:00 17.7 C 14.79 g/m*3 17.7 C 0 km/h
385 29-06-2021 08:00:00 17.7 C 14.79 g/m*3 17.7 C 0 km/h
386 29-06-2021 08:05:00 17.7 C 14.79 g/m*3 17.7 C 0 km/h
387 29-06-2021 08:10:00 17.7 C 14.79 g/m*3 17.7 C 0 km/h
388 29-06-2021 08:15:00 17.8 C 14.87 g/m*3 17.8 C 0 km/h
389 29-06-2021 08:20:00 17.8 C 14.87 g/m*3 17.8 C 6.4 km/h
390 29-06-2021 08:25:00 17.8 C 14.87 g/m*3 17.8 C 1.6 km/h
391 29-06-2021 08:30:00 17.8 C 14.87 g/m*3 17.8 C 4.8 km/h
392 29-06-2021 08:35:00 17.8 C 14.87 g/m*3 17.8 C 4.8 km/h
393 29-06-2021 08:40:00 17.8 C 14.87 g/m*3 17.8 C 9.7 km/h
394 29-06-2021 08:45:00 17.7 C 14.64 g/m*3 17.7 C 6.4 km/h
395 29-06-2021 08:50:00 17.6 C 14.55 g/m*3 17.6 C 11.3 km/h
396 29-06-2021 08:55:00 17.6 C 14.55 g/m*3 17.6 C 9.7 km/h
397 29-06-2021 09:00:00 17.6 C 14.55 g/m*3 17.6 C 8.1 km/h
398 29-06-2021 09:05:00 17.7 C 14.64 g/m*3 17.7 C 9.7 km/h
399 29-06-2021 09:10:00 17.6 C 14.4 g/m*3 17.6 C 12.9 km/h
400 29-06-2021 09:15:00 17.5 C 14.31 g/m*3 17.5 C 9.7 km/h
Sensor: Nr:Datum:Temp:Abs-Feuchte:Windchill:Wind:
Aussen-T/F 401 29-06-2021 09:20:00 17.6 C 14.4 g/m*3 17.6 C 8.1 km/h
402 29-06-2021 09:25:00 17.5 C 14.16 g/m*3 17.5 C 8.1 km/h
403 29-06-2021 09:30:00 17.6 C 14.25 g/m*3 17.6 C 11.3 km/h
404 29-06-2021 09:35:00 17.7 C 14.18 g/m*3 17.7 C 6.4 km/h
405 29-06-2021 09:40:00 17.8 C 14.27 g/m*3 17.8 C 6.4 km/h
406 29-06-2021 09:45:00 17.8 C 14.42 g/m*3 17.8 C 6.4 km/h
407 29-06-2021 09:50:00 17.9 C 14.35 g/m*3 17.9 C 8.1 km/h
408 29-06-2021 09:55:00 18 C 14.28 g/m*3 18 C 8.1 km/h
409 29-06-2021 10:00:00 18.1 C 14.21 g/m*3 18.1 C 6.4 km/h
410 29-06-2021 10:05:00 18.2 C 14.3 g/m*3 18.2 C 8.1 km/h
411 29-06-2021 10:10:00 18.4 C 14.63 g/m*3 18.4 C 6.4 km/h
412 29-06-2021 10:15:00 18.7 C 14.89 g/m*3 18.7 C 8.1 km/h
413 29-06-2021 10:20:00 18.9 C 14.74 g/m*3 18.9 C 9.7 km/h
414 29-06-2021 10:25:00 19.1 C 14.92 g/m*3 19.1 C 6.4 km/h
415 29-06-2021 10:30:00 19.2 C 14.84 g/m*3 19.2 C 6.4 km/h
416 29-06-2021 10:35:00 19.2 C 14.68 g/m*3 19.2 C 6.4 km/h
417 29-06-2021 10:40:00 19.3 C 14.76 g/m*3 19.3 C 8.1 km/h
418 29-06-2021 10:45:00 19.4 C 14.68 g/m*3 19.4 C 8.1 km/h
419 29-06-2021 10:50:00 19.6 C 14.86 g/m*3 19.6 C 8.1 km/h
420 29-06-2021 10:55:00 19.7 C 14.94 g/m*3 19.7 C 9.7 km/h
421 29-06-2021 11:00:00 19.7 C 14.94 g/m*3 19.7 C 4.8 km/h
422 29-06-2021 11:05:00 19.8 C 15.03 g/m*3 19.8 C 6.4 km/h
423 29-06-2021 11:10:00 19.8 C 14.69 g/m*3 19.8 C 9.7 km/h
424 29-06-2021 11:15:00 19.8 C 14.52 g/m*3 19.8 C 6.4 km/h
425 29-06-2021 11:20:00 19.9 C 14.78 g/m*3 19.9 C 6.4 km/h
Sensor: Nr:Datum:Temp:Abs-Feuchte:Windchill:Wind:
Aussen-T/F 426 29-06-2021 11:25:00 20.1 C 14.78 g/m*3 20.1 C 8.1 km/h
427 29-06-2021 11:30:00 20.2 C 14.69 g/m*3 20.2 C 8.1 km/h
428 29-06-2021 11:35:00 20.2 C 14.51 g/m*3 20.2 C 6.4 km/h
429 29-06-2021 11:40:00 20.3 C 14.42 g/m*3 20.3 C 6.4 km/h
430 29-06-2021 11:45:00 20.3 C 14.77 g/m*3 20.3 C 1.6 km/h
431 29-06-2021 11:50:00 20.4 C 14.68 g/m*3 20.4 C 6.4 km/h
432 29-06-2021 11:55:00 20.4 C 14.51 g/m*3 20.4 C 3.2 km/h
433 29-06-2021 12:00:00 20.4 C 14.68 g/m*3 20.4 C 4.8 km/h
434 29-06-2021 12:05:00 20.5 C 14.95 g/m*3 20.5 C 3.2 km/h
435 29-06-2021 12:10:00 20.6 C 15.03 g/m*3 20.6 C 3.2 km/h
436 29-06-2021 12:15:00 20.6 C 15.03 g/m*3 20.6 C 4.8 km/h
437 29-06-2021 12:20:00 20.7 C 14.94 g/m*3 20.7 C 3.2 km/h
438 29-06-2021 12:25:00 20.8 C 15.39 g/m*3 20.8 C 1.6 km/h
439 29-06-2021 12:30:00 20.8 C 15.03 g/m*3 20.8 C 0 km/h
440 29-06-2021 12:35:00 21 C 15.02 g/m*3 21 C 8.1 km/h
441 29-06-2021 12:40:00 21.2 C 15.2 g/m*3 21.2 C 6.4 km/h
442 29-06-2021 12:45:00 21.3 C 15.28 g/m*3 21.3 C 4.8 km/h
443 29-06-2021 12:50:00 21.3 C 15.1 g/m*3 21.3 C 8.1 km/h
444 29-06-2021 12:55:00 21.6 C 15.36 g/m*3 21.6 C 9.7 km/h
445 29-06-2021 13:00:00 21.7 C 15.45 g/m*3 21.7 C 6.4 km/h
446 29-06-2021 13:05:00 21.9 C 15.24 g/m*3 21.9 C 4.8 km/h
447 29-06-2021 13:10:00 22.1 C 15.03 g/m*3 22.1 C 9.7 km/h
448 29-06-2021 13:15:00 22.2 C 15.31 g/m*3 22.2 C 3.2 km/h
449 29-06-2021 13:20:00 22.2 C 15.12 g/m*3 22.2 C 4.8 km/h
450 29-06-2021 13:25:00 22.3 C 15.2 g/m*3 22.3 C 4.8 km/h
Sensor: Nr:Datum:Temp:Abs-Feuchte:Windchill:Wind:
Aussen-T/F 451 29-06-2021 13:30:00 22.4 C 14.89 g/m*3 22.4 C 6.4 km/h
452 29-06-2021 13:35:00 22.6 C 15.07 g/m*3 22.6 C 3.2 km/h
453 29-06-2021 13:40:00 22.8 C 15.24 g/m*3 22.8 C 4.8 km/h
454 29-06-2021 13:45:00 22.8 C 15.44 g/m*3 22.8 C 6.4 km/h
455 29-06-2021 13:50:00 22.8 C 15.04 g/m*3 22.8 C 4.8 km/h
456 29-06-2021 13:55:00 22.9 C 15.94 g/m*3 22.9 C 0 km/h
457 29-06-2021 14:00:00 22.9 C 15.53 g/m*3 22.9 C 1.6 km/h
458 29-06-2021 14:05:00 23 C 15.62 g/m*3 23 C 1.6 km/h
459 29-06-2021 14:10:00 23.1 C 15.71 g/m*3 23.1 C 1.6 km/h
460 29-06-2021 14:15:00 23.2 C 15.8 g/m*3 23.2 C 1.6 km/h
461 29-06-2021 14:20:00 23.3 C 15.47 g/m*3 23.3 C 8.1 km/h
462 29-06-2021 14:25:00 23.4 C 15.56 g/m*3 23.4 C 4.8 km/h
463 29-06-2021 14:30:00 23.5 C 15.23 g/m*3 23.5 C 3.2 km/h
464 29-06-2021 14:35:00 23.6 C 15.74 g/m*3 23.6 C 3.2 km/h
465 29-06-2021 14:40:00 23.6 C 15.1 g/m*3 23.6 C 1.6 km/h
466 29-06-2021 14:45:00 23.7 C 14.97 g/m*3 23.7 C 0 km/h
467 29-06-2021 14:50:00 23.8 C 15.49 g/m*3 23.8 C 0 km/h
468 29-06-2021 14:55:00 23.9 C 15.14 g/m*3 23.9 C 6.4 km/h
469 29-06-2021 15:00:00 23.9 C 15.79 g/m*3 23.9 C 4.8 km/h
470 29-06-2021 15:05:00 23.9 C 15.14 g/m*3 23.9 C 4.8 km/h
471 29-06-2021 15:10:00 23.9 C 16.23 g/m*3 23.9 C 1.6 km/h
472 29-06-2021 15:15:00 23.8 C 14.63 g/m*3 23.8 C 4.8 km/h
473 29-06-2021 15:20:00 23.9 C 15.79 g/m*3 23.9 C 0 km/h
474 29-06-2021 15:25:00 23.9 C 15.58 g/m*3 23.9 C 6.4 km/h
475 29-06-2021 15:30:00 24 C 15.23 g/m*3 24 C 4.8 km/h
Sensor: Nr:Datum:Temp:Abs-Feuchte:Windchill:Wind:
Aussen-T/F 476 29-06-2021 15:35:00 24.1 C 15.1 g/m*3 24.1 C 4.8 km/h
477 29-06-2021 15:40:00 24.2 C 14.74 g/m*3 24.2 C 4.8 km/h
478 29-06-2021 15:45:00 24.3 C 16.15 g/m*3 24.3 C 3.2 km/h
479 29-06-2021 15:50:00 24.4 C 16.25 g/m*3 24.4 C 1.6 km/h
480 29-06-2021 15:55:00 24.3 C 16.38 g/m*3 24.3 C 4.8 km/h
481 29-06-2021 16:00:00 24.3 C 17.26 g/m*3 24.3 C 0 km/h
482 29-06-2021 16:05:00 24.3 C 17.48 g/m*3 24.3 C 0 km/h
483 29-06-2021 16:10:00 24.2 C 17.38 g/m*3 24.2 C 3.2 km/h
484 29-06-2021 16:15:00 24.1 C 17.72 g/m*3 24.1 C 0 km/h
485 29-06-2021 16:20:00 23.9 C 17.52 g/m*3 23.9 C 3.2 km/h
486 29-06-2021 16:25:00 23.7 C 17.33 g/m*3 23.7 C 4.8 km/h
487 29-06-2021 16:30:00 23.2 C 15.59 g/m*3 23.2 C 22.5 km/h
488 29-06-2021 16:35:00 22.2 C 15.12 g/m*3 22.2 C 22.5 km/h
489 29-06-2021 16:40:00 21.3 C 14.91 g/m*3 21.3 C 20.9 km/h
490 29-06-2021 16:45:00 20.4 C 14.68 g/m*3 20.4 C 19.3 km/h
491 29-06-2021 16:50:00 19.4 C 14.18 g/m*3 19.4 C 19.3 km/h
492 29-06-2021 16:55:00 18.7 C 14.09 g/m*3 18.7 C 12.9 km/h
493 29-06-2021 17:00:00 18.3 C 13.92 g/m*3 18.3 C 14.5 km/h
494 29-06-2021 17:05:00 18.1 C 13.91 g/m*3 18.1 C 9.7 km/h
495 29-06-2021 17:10:00 17.9 C 13.89 g/m*3 17.9 C 16.1 km/h
496 29-06-2021 17:15:00 17.8 C 13.96 g/m*3 17.8 C 8.1 km/h
497 29-06-2021 17:20:00 17.7 C 14.03 g/m*3 17.7 C 4.8 km/h
498 29-06-2021 17:25:00 17.7 C 14.03 g/m*3 17.7 C 8.1 km/h
499 29-06-2021 17:30:00 17.6 C 13.95 g/m*3 17.6 C 8.1 km/h
500 29-06-2021 17:35:00 17.6 C 13.95 g/m*3 17.6 C 9.7 km/h
Sensor: Nr:Datum:Temp:Abs-Feuchte:Windchill:Wind:
Aussen-T/F 501 29-06-2021 17:40:00 17.5 C 14.01 g/m*3 17.5 C 6.4 km/h
502 29-06-2021 17:45:00 17.4 C 13.93 g/m*3 17.4 C 6.4 km/h
503 29-06-2021 17:50:00 17.3 C 13.85 g/m*3 17.3 C 11.3 km/h
504 29-06-2021 17:55:00 17.2 C 13.77 g/m*3 17.2 C 8.1 km/h
505 29-06-2021 18:00:00 17.2 C 13.77 g/m*3 17.2 C 6.4 km/h
506 29-06-2021 18:05:00 17.2 C 13.77 g/m*3 17.2 C 4.8 km/h
507 29-06-2021 18:10:00 17.3 C 14 g/m*3 17.3 C 4.8 km/h
508 29-06-2021 18:15:00 17.3 C 14 g/m*3 17.3 C 8.1 km/h
509 29-06-2021 18:20:00 17.3 C 14 g/m*3 17.3 C 4.8 km/h
510 29-06-2021 18:25:00 17.3 C 14 g/m*3 17.3 C 6.4 km/h
511 29-06-2021 18:30:00 17.3 C 14 g/m*3 17.3 C 4.8 km/h
512 29-06-2021 18:35:00 17.4 C 14.08 g/m*3 17.4 C 6.4 km/h
513 29-06-2021 18:40:00 17.4 C 14.08 g/m*3 17.4 C 6.4 km/h
514 29-06-2021 18:45:00 17.3 C 14 g/m*3 17.3 C 3.2 km/h
515 29-06-2021 18:50:00 17.4 C 14.08 g/m*3 17.4 C 3.2 km/h
516 29-06-2021 18:55:00 17.3 C 14 g/m*3 17.3 C 3.2 km/h
517 29-06-2021 19:00:00 17.4 C 14.08 g/m*3 17.4 C 1.6 km/h
518 29-06-2021 19:05:00 17.4 C 14.23 g/m*3 17.4 C 1.6 km/h
519 29-06-2021 19:10:00 17.4 C 14.23 g/m*3 17.4 C 1.6 km/h
520 29-06-2021 19:15:00 17.3 C 14.14 g/m*3 17.3 C 4.8 km/h
521 29-06-2021 19:20:00 17.3 C 14.14 g/m*3 17.3 C 3.2 km/h
522 29-06-2021 19:25:00 17.3 C 14 g/m*3 17.3 C 4.8 km/h
523 29-06-2021 19:30:00 17.3 C 14.14 g/m*3 17.3 C 1.6 km/h
524 29-06-2021 19:35:00 17.2 C 14.06 g/m*3 17.2 C 0 km/h
525 29-06-2021 19:40:00 17.2 C 14.06 g/m*3 17.2 C 1.6 km/h
Sensor: Nr:Datum:Temp:Abs-Feuchte:Windchill:Wind:
Aussen-T/F 526 29-06-2021 19:45:00 17.2 C 14.06 g/m*3 17.2 C 1.6 km/h
527 29-06-2021 19:50:00 17.2 C 14.06 g/m*3 17.2 C 3.2 km/h
528 29-06-2021 19:55:00 17.1 C 13.83 g/m*3 17.1 C 4.8 km/h
529 29-06-2021 20:00:00 16.9 C 13.66 g/m*3 16.9 C 9.7 km/h
530 29-06-2021 20:05:00 16.7 C 13.5 g/m*3 16.7 C 4.8 km/h
531 29-06-2021 20:10:00 16.7 C 13.5 g/m*3 16.7 C 8.1 km/h
532 29-06-2021 20:15:00 16.6 C 13.42 g/m*3 16.6 C 8.1 km/h
533 29-06-2021 20:20:00 16.6 C 13.42 g/m*3 16.6 C 6.4 km/h
534 29-06-2021 20:25:00 16.6 C 13.42 g/m*3 16.6 C 3.2 km/h
535 29-06-2021 20:30:00 16.6 C 13.56 g/m*3 16.6 C 1.6 km/h
536 29-06-2021 20:35:00 16.6 C 13.56 g/m*3 16.6 C 3.2 km/h
537 29-06-2021 20:40:00 16.6 C 13.56 g/m*3 16.6 C 1.6 km/h
538 29-06-2021 20:45:00 16.6 C 13.56 g/m*3 16.6 C 4.8 km/h
539 29-06-2021 20:50:00 16.6 C 13.56 g/m*3 16.6 C 4.8 km/h
540 29-06-2021 20:55:00 16.6 C 13.56 g/m*3 16.6 C 3.2 km/h
541 29-06-2021 21:00:00 16.6 C 13.56 g/m*3 16.6 C 3.2 km/h
542 29-06-2021 21:05:00 16.6 C 13.56 g/m*3 16.6 C 4.8 km/h
543 29-06-2021 21:10:00 16.6 C 13.56 g/m*3 16.6 C 4.8 km/h
544 29-06-2021 21:15:00 16.5 C 13.48 g/m*3 16.5 C 4.8 km/h
545 29-06-2021 21:20:00 16.4 C 13.4 g/m*3 16.4 C 6.4 km/h
546 29-06-2021 21:25:00 16.4 C 13.4 g/m*3 16.4 C 8.1 km/h
547 29-06-2021 21:30:00 16.3 C 13.32 g/m*3 16.3 C 4.8 km/h
548 29-06-2021 21:35:00 16.3 C 13.32 g/m*3 16.3 C 3.2 km/h
549 29-06-2021 21:40:00 16.2 C 13.24 g/m*3 16.2 C 1.6 km/h
550 29-06-2021 21:45:00 16.2 C 13.24 g/m*3 16.2 C 6.4 km/h
Sensor: Nr:Datum:Temp:Abs-Feuchte:Windchill:Wind:
Aussen-T/F 551 29-06-2021 21:50:00 16.2 C 13.24 g/m*3 16.2 C 4.8 km/h
552 29-06-2021 21:55:00 16.1 C 13.16 g/m*3 16.1 C 1.6 km/h
553 29-06-2021 22:00:00 16.1 C 13.16 g/m*3 16.1 C 4.8 km/h
554 29-06-2021 22:05:00 16.1 C 13.16 g/m*3 16.1 C 3.2 km/h
555 29-06-2021 22:10:00 16.1 C 13.16 g/m*3 16.1 C 4.8 km/h
556 29-06-2021 22:15:00 16 C 13.08 g/m*3 16 C 3.2 km/h
557 29-06-2021 22:20:00 16 C 13.08 g/m*3 16 C 3.2 km/h
558 29-06-2021 22:25:00 15.9 C 13 g/m*3 15.9 C 3.2 km/h
559 29-06-2021 22:30:00 15.9 C 13 g/m*3 15.9 C 3.2 km/h
560 29-06-2021 22:35:00 15.9 C 13 g/m*3 15.9 C 4.8 km/h
561 29-06-2021 22:40:00 15.8 C 12.92 g/m*3 15.8 C 4.8 km/h
562 29-06-2021 22:45:00 15.8 C 12.92 g/m*3 15.8 C 4.8 km/h
563 29-06-2021 22:50:00 15.7 C 12.84 g/m*3 15.7 C 4.8 km/h
564 29-06-2021 22:55:00 15.7 C 12.84 g/m*3 15.7 C 4.8 km/h
565 29-06-2021 23:00:00 15.7 C 12.84 g/m*3 15.7 C 4.8 km/h
566 29-06-2021 23:05:00 15.7 C 12.84 g/m*3 15.7 C 4.8 km/h
567 29-06-2021 23:10:00 15.7 C 12.84 g/m*3 15.7 C 3.2 km/h
568 29-06-2021 23:15:00 15.7 C 12.84 g/m*3 15.7 C 3.2 km/h
569 29-06-2021 23:20:00 15.7 C 12.84 g/m*3 15.7 C 1.6 km/h
570 29-06-2021 23:25:00 15.7 C 12.84 g/m*3 15.7 C 1.6 km/h
571 29-06-2021 23:30:00 15.6 C 12.77 g/m*3 15.6 C 3.2 km/h
572 29-06-2021 23:35:00 15.6 C 12.77 g/m*3 15.6 C 3.2 km/h
573 29-06-2021 23:40:00 15.5 C 12.69 g/m*3 15.5 C 0 km/h
574 29-06-2021 23:45:00 15.4 C 12.61 g/m*3 15.4 C 3.2 km/h
575 29-06-2021 23:50:00 15.4 C 12.61 g/m*3 15.4 C 4.8 km/h
Sensor: Nr:Datum:Temp:Abs-Feuchte:Windchill:Wind:
Aussen-T/F 576 29-06-2021 23:55:00 15.4 C 12.61 g/m*3 15.4 C 3.2 km/h
577 30-06-2021 00:00:00 15.4 C 12.61 g/m*3 15.4 C 1.6 km/h
578 30-06-2021 00:05:00 15.4 C 12.61 g/m*3 15.4 C 0 km/h
579 30-06-2021 00:10:00 15.3 C 12.54 g/m*3 15.3 C 0 km/h
580 30-06-2021 00:15:00 15.3 C 12.54 g/m*3 15.3 C 1.6 km/h
581 30-06-2021 00:20:00 15.3 C 12.67 g/m*3 15.3 C 1.6 km/h
582 30-06-2021 00:25:00 15.3 C 12.67 g/m*3 15.3 C 0 km/h
583 30-06-2021 00:30:00 15.2 C 12.59 g/m*3 15.2 C 0 km/h
584 30-06-2021 00:35:00 15.2 C 12.59 g/m*3 15.2 C 0 km/h
585 30-06-2021 00:40:00 15.1 C 12.39 g/m*3 15.1 C 0 km/h
586 30-06-2021 00:45:00 15.1 C 12.39 g/m*3 15.1 C 0 km/h
587 30-06-2021 00:50:00 15.1 C 12.51 g/m*3 15.1 C 0 km/h
588 30-06-2021 00:55:00 15.1 C 12.51 g/m*3 15.1 C 0 km/h
589 30-06-2021 01:00:00 15.1 C 12.51 g/m*3 15.1 C 0 km/h
590 30-06-2021 01:05:00 15.1 C 12.51 g/m*3 15.1 C 0 km/h
591 30-06-2021 01:10:00 15.1 C 12.51 g/m*3 15.1 C 0 km/h
592 30-06-2021 01:15:00 15.1 C 12.51 g/m*3 15.1 C 0 km/h
593 30-06-2021 01:20:00 15.1 C 12.51 g/m*3 15.1 C 0 km/h
594 30-06-2021 01:25:00 15.2 C 12.59 g/m*3 15.2 C 0 km/h
595 30-06-2021 01:30:00 15.2 C 12.59 g/m*3 15.2 C 0 km/h
596 30-06-2021 01:35:00 15.3 C 12.67 g/m*3 15.3 C 0 km/h
597 30-06-2021 01:40:00 15.3 C 12.67 g/m*3 15.3 C 6.4 km/h
598 30-06-2021 01:45:00 15.3 C 12.67 g/m*3 15.3 C 0 km/h
599 30-06-2021 01:50:00 15.3 C 12.67 g/m*3 15.3 C 0 km/h
600 30-06-2021 01:55:00 15.3 C 12.67 g/m*3 15.3 C 1.6 km/h
Sensor: Nr:Datum:Temp:Abs-Feuchte:Windchill:Wind:
Aussen-T/F 601 30-06-2021 02:00:00 15.3 C 12.67 g/m*3 15.3 C 1.6 km/h
602 30-06-2021 02:05:00 15.3 C 12.67 g/m*3 15.3 C 0 km/h
603 30-06-2021 02:10:00 15.3 C 12.67 g/m*3 15.3 C 1.6 km/h
604 30-06-2021 02:15:00 15.3 C 12.67 g/m*3 15.3 C 3.2 km/h
605 30-06-2021 02:20:00 15.4 C 12.74 g/m*3 15.4 C 0 km/h
606 30-06-2021 02:25:00 15.4 C 12.74 g/m*3 15.4 C 1.6 km/h
607 30-06-2021 02:30:00 15.4 C 12.74 g/m*3 15.4 C 1.6 km/h
608 30-06-2021 02:35:00 15.5 C 12.82 g/m*3 15.5 C 0 km/h
609 30-06-2021 02:40:00 15.6 C 12.9 g/m*3 15.6 C 0 km/h
610 30-06-2021 02:45:00 15.6 C 12.9 g/m*3 15.6 C 0 km/h
611 30-06-2021 02:50:00 15.6 C 12.9 g/m*3 15.6 C 1.6 km/h
612 30-06-2021 02:55:00 15.6 C 12.9 g/m*3 15.6 C 0 km/h
613 30-06-2021 03:00:00 15.6 C 12.9 g/m*3 15.6 C 0 km/h
614 30-06-2021 03:05:00 15.7 C 12.98 g/m*3 15.7 C 1.6 km/h
615 30-06-2021 03:10:00 15.7 C 12.98 g/m*3 15.7 C 4.8 km/h
616 30-06-2021 03:15:00 15.7 C 12.98 g/m*3 15.7 C 0 km/h
617 30-06-2021 03:20:00 15.7 C 12.98 g/m*3 15.7 C 1.6 km/h
618 30-06-2021 03:25:00 15.7 C 12.98 g/m*3 15.7 C 0 km/h
619 30-06-2021 03:30:00 15.7 C 12.98 g/m*3 15.7 C 0 km/h
620 30-06-2021 03:35:00 15.7 C 12.98 g/m*3 15.7 C 0 km/h
621 30-06-2021 03:40:00 15.7 C 12.98 g/m*3 15.7 C 0 km/h
622 30-06-2021 03:45:00 15.7 C 12.98 g/m*3 15.7 C 0 km/h
623 30-06-2021 03:50:00 15.6 C 12.9 g/m*3 15.6 C 3.2 km/h
624 30-06-2021 03:55:00 15.4 C 12.74 g/m*3 15.4 C 3.2 km/h
625 30-06-2021 04:00:00 15.3 C 12.67 g/m*3 15.3 C 3.2 km/h
Sensor: Nr:Datum:Temp:Abs-Feuchte:Windchill:Wind:
Aussen-T/F 626 30-06-2021 04:05:00 15.2 C 12.59 g/m*3 15.2 C 3.2 km/h
627 30-06-2021 04:10:00 15.3 C 12.67 g/m*3 15.3 C 1.6 km/h
628 30-06-2021 04:15:00 15.3 C 12.67 g/m*3 15.3 C 0 km/h
629 30-06-2021 04:20:00 15.3 C 12.67 g/m*3 15.3 C 0 km/h
630 30-06-2021 04:25:00 15.4 C 12.74 g/m*3 15.4 C 1.6 km/h
631 30-06-2021 04:30:00 15.4 C 12.74 g/m*3 15.4 C 1.6 km/h
632 30-06-2021 04:35:00 15.4 C 12.74 g/m*3 15.4 C 0 km/h
633 30-06-2021 04:40:00 15.4 C 12.74 g/m*3 15.4 C 0 km/h
634 30-06-2021 04:45:00 15.5 C 12.82 g/m*3 15.5 C 0 km/h
635 30-06-2021 04:50:00 15.5 C 12.82 g/m*3 15.5 C 0 km/h
636 30-06-2021 04:55:00 15.5 C 12.82 g/m*3 15.5 C 0 km/h
637 30-06-2021 05:00:00 15.5 C 12.82 g/m*3 15.5 C 0 km/h
638 30-06-2021 05:05:00 15.5 C 12.82 g/m*3 15.5 C 1.6 km/h
639 30-06-2021 05:10:00 15.5 C 12.82 g/m*3 15.5 C 0 km/h
640 30-06-2021 05:15:00 15.4 C 12.74 g/m*3 15.4 C 1.6 km/h
641 30-06-2021 05:20:00 15.4 C 12.74 g/m*3 15.4 C 0 km/h
642 30-06-2021 05:25:00 15.4 C 12.74 g/m*3 15.4 C 3.2 km/h
643 30-06-2021 05:30:00 15.4 C 12.74 g/m*3 15.4 C 0 km/h
644 30-06-2021 05:35:00 15.4 C 12.74 g/m*3 15.4 C 1.6 km/h
645 30-06-2021 05:40:00 15.4 C 12.74 g/m*3 15.4 C 1.6 km/h
646 30-06-2021 05:45:00 15.4 C 12.74 g/m*3 15.4 C 1.6 km/h
647 30-06-2021 05:50:00 15.4 C 12.74 g/m*3 15.4 C 1.6 km/h
648 30-06-2021 05:55:00 15.4 C 12.74 g/m*3 15.4 C 1.6 km/h
649 30-06-2021 06:00:00 15.4 C 12.74 g/m*3 15.4 C 3.2 km/h
650 30-06-2021 06:05:00 15.4 C 12.74 g/m*3 15.4 C 3.2 km/h
Sensor: Nr:Datum:Temp:Abs-Feuchte:Windchill:Wind:
Aussen-T/F 651 30-06-2021 06:10:00 15.4 C 12.74 g/m*3 15.4 C 1.6 km/h
652 30-06-2021 06:15:00 15.3 C 12.67 g/m*3 15.3 C 1.6 km/h
653 30-06-2021 06:20:00 15.3 C 12.67 g/m*3 15.3 C 4.8 km/h
654 30-06-2021 06:25:00 15.3 C 12.67 g/m*3 15.3 C 3.2 km/h
655 30-06-2021 06:30:00 15.2 C 12.59 g/m*3 15.2 C 1.6 km/h
656 30-06-2021 06:35:00 15.1 C 12.51 g/m*3 15.1 C 4.8 km/h
657 30-06-2021 06:40:00 15.1 C 12.51 g/m*3 15.1 C 1.6 km/h
658 30-06-2021 06:45:00 15 C 12.44 g/m*3 15 C 3.2 km/h
659 30-06-2021 06:50:00 14.9 C 12.36 g/m*3 14.9 C 3.2 km/h
660 30-06-2021 06:55:00 14.9 C 12.36 g/m*3 14.9 C 0 km/h
661 30-06-2021 07:00:00 14.9 C 12.36 g/m*3 14.9 C 0 km/h
662 30-06-2021 07:05:00 14.9 C 12.36 g/m*3 14.9 C 3.2 km/h
663 30-06-2021 07:10:00 14.9 C 12.36 g/m*3 14.9 C 3.2 km/h
664 30-06-2021 07:15:00 14.9 C 12.36 g/m*3 14.9 C 4.8 km/h
665 30-06-2021 07:20:00 14.9 C 12.36 g/m*3 14.9 C 1.6 km/h
666 30-06-2021 07:25:00 15 C 12.44 g/m*3 15 C 3.2 km/h
667 30-06-2021 07:30:00 15 C 12.44 g/m*3 15 C 0 km/h
668 30-06-2021 07:35:00 15 C 12.44 g/m*3 15 C 1.6 km/h
669 30-06-2021 07:40:00 15 C 12.44 g/m*3 15 C 4.8 km/h
670 30-06-2021 07:45:00 15 C 12.44 g/m*3 15 C 3.2 km/h
671 30-06-2021 07:50:00 15 C 12.44 g/m*3 15 C 6.4 km/h
672 30-06-2021 07:55:00 15 C 12.44 g/m*3 15 C 1.6 km/h
673 30-06-2021 08:00:00 15.1 C 12.51 g/m*3 15.1 C 4.8 km/h
674 30-06-2021 08:05:00 15.1 C 12.51 g/m*3 15.1 C 3.2 km/h
675 30-06-2021 08:10:00 15.2 C 12.59 g/m*3 15.2 C 3.2 km/h
Sensor: Nr:Datum:Temp:Abs-Feuchte:Windchill:Wind:
Aussen-T/F 676 30-06-2021 08:15:00 15.3 C 12.67 g/m*3 15.3 C 6.4 km/h
677 30-06-2021 08:20:00 15.4 C 12.74 g/m*3 15.4 C 8.1 km/h
678 30-06-2021 08:25:00 15.5 C 12.82 g/m*3 15.5 C 11.3 km/h
679 30-06-2021 08:30:00 15.4 C 12.61 g/m*3 15.4 C 11.3 km/h
680 30-06-2021 08:35:00 15.5 C 12.69 g/m*3 15.5 C 6.4 km/h
681 30-06-2021 08:40:00 15.6 C 12.63 g/m*3 15.6 C 9.7 km/h
682 30-06-2021 08:45:00 15.7 C 12.58 g/m*3 15.7 C 11.3 km/h
683 30-06-2021 08:50:00 15.8 C 12.52 g/m*3 15.8 C 11.3 km/h
684 30-06-2021 08:55:00 15.8 C 12.52 g/m*3 15.8 C 16.1 km/h
685 30-06-2021 09:00:00 15.9 C 12.46 g/m*3 15.9 C 9.7 km/h
686 30-06-2021 09:05:00 16.1 C 12.61 g/m*3 16.1 C 9.7 km/h
687 30-06-2021 09:10:00 16.2 C 12.69 g/m*3 16.2 C 6.4 km/h
688 30-06-2021 09:15:00 16.2 C 12.55 g/m*3 16.2 C 4.8 km/h
689 30-06-2021 09:20:00 16.3 C 12.62 g/m*3 16.3 C 8.1 km/h
690 30-06-2021 09:25:00 16.3 C 12.62 g/m*3 16.3 C 8.1 km/h
691 30-06-2021 09:30:00 16.3 C 12.49 g/m*3 16.3 C 6.4 km/h
692 30-06-2021 09:35:00 16.3 C 12.35 g/m*3 16.3 C 12.9 km/h
693 30-06-2021 09:40:00 16.3 C 12.35 g/m*3 16.3 C 12.9 km/h
694 30-06-2021 09:45:00 16.3 C 12.35 g/m*3 16.3 C 6.4 km/h
695 30-06-2021 09:50:00 16.4 C 12.28 g/m*3 16.4 C 9.7 km/h
696 30-06-2021 09:55:00 16.4 C 12.42 g/m*3 16.4 C 9.7 km/h
697 30-06-2021 10:00:00 16.6 C 12.43 g/m*3 16.6 C 9.7 km/h
698 30-06-2021 10:05:00 16.7 C 12.51 g/m*3 16.7 C 11.3 km/h
699 30-06-2021 10:10:00 16.7 C 12.36 g/m*3 16.7 C 9.7 km/h
700 30-06-2021 10:15:00 16.8 C 12.3 g/m*3 16.8 C 16.1 km/h
Sensor: Nr:Datum:Temp:Abs-Feuchte:Windchill:Wind:
Aussen-T/F 701 30-06-2021 10:20:00 16.8 C 12.44 g/m*3 16.8 C 8.1 km/h
702 30-06-2021 10:25:00 16.8 C 12.3 g/m*3 16.8 C 11.3 km/h
703 30-06-2021 10:30:00 16.8 C 12.44 g/m*3 16.8 C 12.9 km/h
704 30-06-2021 10:35:00 16.9 C 12.37 g/m*3 16.9 C 11.3 km/h
705 30-06-2021 10:40:00 16.9 C 12.37 g/m*3 16.9 C 11.3 km/h
706 30-06-2021 10:45:00 17 C 12.44 g/m*3 17 C 11.3 km/h
707 30-06-2021 10:50:00 17.1 C 12.66 g/m*3 17.1 C 9.7 km/h
708 30-06-2021 10:55:00 17.2 C 12.74 g/m*3 17.2 C 6.4 km/h
709 30-06-2021 11:00:00 17.3 C 12.67 g/m*3 17.3 C 8.1 km/h
710 30-06-2021 11:05:00 17.3 C 12.67 g/m*3 17.3 C 6.4 km/h
711 30-06-2021 11:10:00 17.3 C 12.67 g/m*3 17.3 C 12.9 km/h
712 30-06-2021 11:15:00 17.3 C 12.67 g/m*3 17.3 C 11.3 km/h
713 30-06-2021 11:20:00 17.3 C 12.67 g/m*3 17.3 C 11.3 km/h
714 30-06-2021 11:25:00 17.5 C 12.67 g/m*3 17.5 C 17.7 km/h
715 30-06-2021 11:30:00 17.6 C 12.9 g/m*3 17.6 C 12.9 km/h
716 30-06-2021 11:35:00 17.7 C 12.98 g/m*3 17.7 C 11.3 km/h
717 30-06-2021 11:40:00 17.8 C 12.6 g/m*3 17.8 C 17.7 km/h
718 30-06-2021 11:45:00 17.7 C 12.67 g/m*3 17.7 C 16.1 km/h
719 30-06-2021 11:50:00 17.7 C 12.52 g/m*3 17.7 C 16.1 km/h
720 30-06-2021 11:55:00 17.4 C 12.3 g/m*3 17.4 C 12.9 km/h
721 30-06-2021 12:00:00 17.4 C 12.45 g/m*3 17.4 C 9.7 km/h
722 30-06-2021 12:05:00 17.4 C 12.6 g/m*3 17.4 C 9.7 km/h
723 30-06-2021 12:10:00 17.5 C 12.52 g/m*3 17.5 C 11.3 km/h
724 30-06-2021 12:15:00 17.7 C 12.82 g/m*3 17.7 C 11.3 km/h
725 30-06-2021 12:20:00 17.8 C 12.75 g/m*3 17.8 C 9.7 km/h
Sensor: Nr:Datum:Temp:Abs-Feuchte:Windchill:Wind:
Aussen-T/F 726 30-06-2021 12:25:00 17.9 C 12.83 g/m*3 17.9 C 12.9 km/h
727 30-06-2021 12:30:00 17.9 C 12.83 g/m*3 17.9 C 12.9 km/h
728 30-06-2021 12:35:00 17.9 C 12.52 g/m*3 17.9 C 11.3 km/h
729 30-06-2021 12:40:00 17.9 C 12.67 g/m*3 17.9 C 12.9 km/h
730 30-06-2021 12:45:00 17.9 C 12.67 g/m*3 17.9 C 9.7 km/h
731 30-06-2021 12:50:00 18 C 12.59 g/m*3 18 C 14.5 km/h
732 30-06-2021 12:55:00 18.1 C 12.67 g/m*3 18.1 C 12.9 km/h
733 30-06-2021 13:00:00 18.2 C 12.75 g/m*3 18.2 C 12.9 km/h
734 30-06-2021 13:05:00 18.4 C 13.05 g/m*3 18.4 C 11.3 km/h
735 30-06-2021 13:10:00 18.4 C 12.74 g/m*3 18.4 C 14.5 km/h
736 30-06-2021 13:15:00 18.6 C 12.89 g/m*3 18.6 C 9.7 km/h
737 30-06-2021 13:20:00 18.4 C 12.9 g/m*3 18.4 C 11.3 km/h
738 30-06-2021 13:25:00 18.4 C 12.74 g/m*3 18.4 C 12.9 km/h
739 30-06-2021 13:30:00 18.4 C 12.9 g/m*3 18.4 C 14.5 km/h
740 30-06-2021 13:35:00 18.5 C 12.82 g/m*3 18.5 C 12.9 km/h
741 30-06-2021 13:40:00 18.6 C 12.89 g/m*3 18.6 C 14.5 km/h
742 30-06-2021 13:45:00 18.7 C 13.13 g/m*3 18.7 C 9.7 km/h
743 30-06-2021 13:50:00 18.8 C 13.05 g/m*3 18.8 C 12.9 km/h
744 30-06-2021 13:55:00 18.8 C 13.21 g/m*3 18.8 C 9.7 km/h
745 30-06-2021 14:00:00 18.8 C 13.05 g/m*3 18.8 C 12.9 km/h
746 30-06-2021 14:05:00 18.9 C 12.8 g/m*3 18.9 C 12.9 km/h
747 30-06-2021 14:10:00 18.9 C 12.64 g/m*3 18.9 C 16.1 km/h
748 30-06-2021 14:15:00 18.9 C 12.8 g/m*3 18.9 C 9.7 km/h
749 30-06-2021 14:20:00 19.1 C 13.11 g/m*3 19.1 C 11.3 km/h
750 30-06-2021 14:25:00 19.1 C 12.95 g/m*3 19.1 C 11.3 km/h
Sensor: Nr:Datum:Temp:Abs-Feuchte:Windchill:Wind:
Aussen-T/F 751 30-06-2021 14:30:00 19.2 C 12.86 g/m*3 19.2 C 11.3 km/h
752 30-06-2021 14:35:00 19.2 C 12.86 g/m*3 19.2 C 9.7 km/h
753 30-06-2021 14:40:00 19.3 C 13.1 g/m*3 19.3 C 11.3 km/h
754 30-06-2021 14:45:00 19.3 C 12.94 g/m*3 19.3 C 11.3 km/h
755 30-06-2021 14:50:00 19.4 C 13.01 g/m*3 19.4 C 11.3 km/h
756 30-06-2021 14:55:00 19.4 C 12.85 g/m*3 19.4 C 12.9 km/h
757 30-06-2021 15:00:00 19.4 C 12.85 g/m*3 19.4 C 12.9 km/h
758 30-06-2021 15:05:00 19.3 C 12.77 g/m*3 19.3 C 9.7 km/h
759 30-06-2021 15:10:00 19.4 C 13.01 g/m*3 19.4 C 3.2 km/h
760 30-06-2021 15:15:00 19.4 C 13.01 g/m*3 19.4 C 8.1 km/h
761 30-06-2021 15:20:00 19.4 C 13.01 g/m*3 19.4 C 9.7 km/h
762 30-06-2021 15:25:00 19.4 C 12.85 g/m*3 19.4 C 6.4 km/h
763 30-06-2021 15:30:00 19.4 C 12.85 g/m*3 19.4 C 8.1 km/h
764 30-06-2021 15:35:00 19.4 C 13.18 g/m*3 19.4 C 9.7 km/h
765 30-06-2021 15:40:00 19.1 C 13.11 g/m*3 19.1 C 6.4 km/h
766 30-06-2021 15:45:00 18.7 C 12.97 g/m*3 18.7 C 8.1 km/h
767 30-06-2021 15:50:00 18.4 C 12.9 g/m*3 18.4 C 11.3 km/h
768 30-06-2021 15:55:00 18.3 C 12.98 g/m*3 18.3 C 8.1 km/h
769 30-06-2021 16:00:00 18.2 C 12.9 g/m*3 18.2 C 6.4 km/h
770 30-06-2021 16:05:00 18.3 C 12.98 g/m*3 18.3 C 8.1 km/h
771 30-06-2021 16:10:00 18.2 C 12.9 g/m*3 18.2 C 12.9 km/h
772 30-06-2021 16:15:00 18 C 12.9 g/m*3 18 C 11.3 km/h
773 30-06-2021 16:20:00 17.8 C 12.75 g/m*3 17.8 C 9.7 km/h
774 30-06-2021 16:25:00 17.7 C 12.82 g/m*3 17.7 C 4.8 km/h
775 30-06-2021 16:30:00 17.6 C 12.9 g/m*3 17.6 C 4.8 km/h
Sensor: Nr:Datum:Temp:Abs-Feuchte:Windchill:Wind:
Aussen-T/F 776 30-06-2021 16:35:00 17.4 C 12.75 g/m*3 17.4 C 4.8 km/h
777 30-06-2021 16:40:00 17.3 C 12.67 g/m*3 17.3 C 4.8 km/h
778 30-06-2021 16:45:00 17.2 C 12.74 g/m*3 17.2 C 6.4 km/h
779 30-06-2021 16:50:00 17 C 12.73 g/m*3 17 C 1.6 km/h
780 30-06-2021 16:55:00 16.9 C 12.8 g/m*3 16.9 C 0 km/h
781 30-06-2021 17:00:00 16.9 C 12.94 g/m*3 16.9 C 0 km/h
782 30-06-2021 17:05:00 16.9 C 12.94 g/m*3 16.9 C 0 km/h
783 30-06-2021 17:10:00 16.8 C 13.01 g/m*3 16.8 C 1.6 km/h
784 30-06-2021 17:15:00 16.7 C 12.93 g/m*3 16.7 C 0 km/h
785 30-06-2021 17:20:00 16.7 C 12.93 g/m*3 16.7 C 1.6 km/h
786 30-06-2021 17:25:00 16.7 C 12.93 g/m*3 16.7 C 0 km/h
787 30-06-2021 17:30:00 16.6 C 13 g/m*3 16.6 C 1.6 km/h
788 30-06-2021 17:35:00 16.6 C 13 g/m*3 16.6 C 3.2 km/h
789 30-06-2021 17:40:00 16.6 C 13.14 g/m*3 16.6 C 1.6 km/h
790 30-06-2021 17:45:00 16.7 C 13.22 g/m*3 16.7 C 1.6 km/h
791 30-06-2021 17:50:00 16.8 C 13.44 g/m*3 16.8 C 0 km/h
792 30-06-2021 17:55:00 16.8 C 13.3 g/m*3 16.8 C 1.6 km/h
793 30-06-2021 18:00:00 16.7 C 13.22 g/m*3 16.7 C 1.6 km/h
794 30-06-2021 18:05:00 16.8 C 13.3 g/m*3 16.8 C 0 km/h
795 30-06-2021 18:10:00 16.8 C 13.3 g/m*3 16.8 C 4.8 km/h
796 30-06-2021 18:15:00 16.8 C 13.3 g/m*3 16.8 C 3.2 km/h
797 30-06-2021 18:20:00 16.7 C 13.22 g/m*3 16.7 C 0 km/h
798 30-06-2021 18:25:00 16.7 C 13.22 g/m*3 16.7 C 1.6 km/h
799 30-06-2021 18:30:00 16.8 C 13.3 g/m*3 16.8 C 0 km/h
800 30-06-2021 18:35:00 16.8 C 13.3 g/m*3 16.8 C 0 km/h
Sensor: Nr:Datum:Temp:Abs-Feuchte:Windchill:Wind:
Aussen-T/F 801 30-06-2021 18:40:00 16.8 C 13.3 g/m*3 16.8 C 0 km/h
802 30-06-2021 18:45:00 16.8 C 13.3 g/m*3 16.8 C 0 km/h
803 30-06-2021 18:50:00 16.8 C 13.44 g/m*3 16.8 C 0 km/h
804 30-06-2021 18:55:00 16.8 C 13.44 g/m*3 16.8 C 0 km/h
805 30-06-2021 19:00:00 16.8 C 13.44 g/m*3 16.8 C 0 km/h
806 30-06-2021 19:05:00 16.8 C 13.44 g/m*3 16.8 C 1.6 km/h
807 30-06-2021 19:10:00 16.8 C 13.44 g/m*3 16.8 C 1.6 km/h
808 30-06-2021 19:15:00 16.7 C 13.22 g/m*3 16.7 C 4.8 km/h
809 30-06-2021 19:20:00 16.7 C 13.36 g/m*3 16.7 C 0 km/h
810 30-06-2021 19:25:00 16.7 C 13.36 g/m*3 16.7 C 0 km/h
811 30-06-2021 19:30:00 16.7 C 13.36 g/m*3 16.7 C 0 km/h
812 30-06-2021 19:35:00 16.7 C 13.36 g/m*3 16.7 C 1.6 km/h
813 30-06-2021 19:40:00 16.7 C 13.36 g/m*3 16.7 C 0 km/h
814 30-06-2021 19:45:00 16.7 C 13.36 g/m*3 16.7 C 1.6 km/h
815 30-06-2021 19:50:00 16.6 C 13.28 g/m*3 16.6 C 1.6 km/h
816 30-06-2021 19:55:00 16.6 C 13.28 g/m*3 16.6 C 3.2 km/h
817 30-06-2021 20:00:00 16.5 C 13.2 g/m*3 16.5 C 1.6 km/h
818 30-06-2021 20:05:00 16.4 C 13.12 g/m*3 16.4 C 3.2 km/h
819 30-06-2021 20:10:00 16.3 C 13.04 g/m*3 16.3 C 1.6 km/h
820 30-06-2021 20:15:00 16.3 C 13.04 g/m*3 16.3 C 1.6 km/h
821 30-06-2021 20:20:00 16.2 C 12.96 g/m*3 16.2 C 3.2 km/h
822 30-06-2021 20:25:00 16.2 C 12.96 g/m*3 16.2 C 4.8 km/h
823 30-06-2021 20:30:00 16.1 C 12.88 g/m*3 16.1 C 3.2 km/h
824 30-06-2021 20:35:00 16.1 C 12.88 g/m*3 16.1 C 1.6 km/h
825 30-06-2021 20:40:00 16.1 C 12.88 g/m*3 16.1 C 3.2 km/h
Sensor: Nr:Datum:Temp:Abs-Feuchte:Windchill:Wind:
Aussen-T/F 826 30-06-2021 20:45:00 16 C 12.81 g/m*3 16 C 1.6 km/h
827 30-06-2021 20:50:00 16 C 12.81 g/m*3 16 C 3.2 km/h
828 30-06-2021 20:55:00 15.9 C 12.73 g/m*3 15.9 C 4.8 km/h
829 30-06-2021 21:00:00 15.8 C 12.65 g/m*3 15.8 C 4.8 km/h
830 30-06-2021 21:05:00 15.8 C 12.65 g/m*3 15.8 C 4.8 km/h
831 30-06-2021 21:10:00 15.7 C 12.71 g/m*3 15.7 C 4.8 km/h
832 30-06-2021 21:15:00 15.7 C 12.71 g/m*3 15.7 C 4.8 km/h
833 30-06-2021 21:20:00 15.6 C 12.63 g/m*3 15.6 C 4.8 km/h
834 30-06-2021 21:25:00 15.5 C 12.56 g/m*3 15.5 C 6.4 km/h
835 30-06-2021 21:30:00 15.4 C 12.48 g/m*3 15.4 C 4.8 km/h
836 30-06-2021 21:35:00 15.4 C 12.48 g/m*3 15.4 C 4.8 km/h
837 30-06-2021 21:40:00 15.3 C 12.41 g/m*3 15.3 C 4.8 km/h
838 30-06-2021 21:45:00 15.3 C 12.41 g/m*3 15.3 C 4.8 km/h
839 30-06-2021 21:50:00 15.2 C 12.33 g/m*3 15.2 C 4.8 km/h
840 30-06-2021 21:55:00 15.2 C 12.33 g/m*3 15.2 C 1.6 km/h
841 30-06-2021 22:00:00 15.2 C 12.33 g/m*3 15.2 C 4.8 km/h
842 30-06-2021 22:05:00 15.1 C 12.26 g/m*3 15.1 C 4.8 km/h
843 30-06-2021 22:10:00 15.1 C 12.26 g/m*3 15.1 C 4.8 km/h
844 30-06-2021 22:15:00 15.1 C 12.26 g/m*3 15.1 C 3.2 km/h
845 30-06-2021 22:20:00 15 C 12.18 g/m*3 15 C 4.8 km/h
846 30-06-2021 22:25:00 15 C 12.31 g/m*3 15 C 1.6 km/h
847 30-06-2021 22:30:00 15 C 12.18 g/m*3 15 C 4.8 km/h
848 30-06-2021 22:35:00 14.9 C 12.11 g/m*3 14.9 C 4.8 km/h
849 30-06-2021 22:40:00 14.9 C 12.11 g/m*3 14.9 C 4.8 km/h
850 30-06-2021 22:45:00 14.9 C 12.24 g/m*3 14.9 C 4.8 km/h
Sensor: Nr:Datum:Temp:Abs-Feuchte:Windchill:Wind:
Aussen-T/F 851 30-06-2021 22:50:00 14.9 C 12.24 g/m*3 14.9 C 4.8 km/h
852 30-06-2021 22:55:00 14.9 C 12.24 g/m*3 14.9 C 4.8 km/h
853 30-06-2021 23:00:00 14.9 C 12.24 g/m*3 14.9 C 1.6 km/h
854 30-06-2021 23:05:00 14.9 C 12.24 g/m*3 14.9 C 1.6 km/h
855 30-06-2021 23:10:00 14.9 C 12.24 g/m*3 14.9 C 0 km/h
856 30-06-2021 23:15:00 14.9 C 12.24 g/m*3 14.9 C 0 km/h
857 30-06-2021 23:20:00 14.9 C 12.24 g/m*3 14.9 C 0 km/h
858 30-06-2021 23:25:00 15 C 12.31 g/m*3 15 C 0 km/h
859 30-06-2021 23:30:00 15 C 12.31 g/m*3 15 C 0 km/h
860 30-06-2021 23:35:00 15.1 C 12.39 g/m*3 15.1 C 3.2 km/h
861 30-06-2021 23:40:00 15.1 C 12.39 g/m*3 15.1 C 4.8 km/h
862 30-06-2021 23:45:00 15.1 C 12.39 g/m*3 15.1 C 1.6 km/h
863 30-06-2021 23:50:00 15 C 12.31 g/m*3 15 C 0 km/h
864 30-06-2021 23:55:00 14.9 C 12.24 g/m*3 14.9 C 4.8 km/h
865 01-07-2021 00:00:00 14.8 C 12.16 g/m*3 14.8 C 3.2 km/h
866 01-07-2021 00:05:00 14.8 C 12.16 g/m*3 14.8 C 3.2 km/h
867 01-07-2021 00:10:00 14.8 C 12.16 g/m*3 14.8 C 3.2 km/h
868 01-07-2021 00:15:00 14.7 C 12.09 g/m*3 14.7 C 3.2 km/h
869 01-07-2021 00:20:00 14.7 C 12.09 g/m*3 14.7 C 0 km/h
870 01-07-2021 00:25:00 14.7 C 12.09 g/m*3 14.7 C 3.2 km/h
871 01-07-2021 00:30:00 14.7 C 12.09 g/m*3 14.7 C 1.6 km/h
872 01-07-2021 00:35:00 14.7 C 12.09 g/m*3 14.7 C 3.2 km/h
873 01-07-2021 00:40:00 14.7 C 12.09 g/m*3 14.7 C 1.6 km/h
874 01-07-2021 00:45:00 14.7 C 12.09 g/m*3 14.7 C 1.6 km/h
875 01-07-2021 00:50:00 14.6 C 12.01 g/m*3 14.6 C 0 km/h
Sensor: Nr:Datum:Temp:Abs-Feuchte:Windchill:Wind:
Aussen-T/F 876 01-07-2021 00:55:00 14.6 C 12.01 g/m*3 14.6 C 0 km/h
877 01-07-2021 01:00:00 14.6 C 12.01 g/m*3 14.6 C 0 km/h
878 01-07-2021 01:05:00 14.6 C 12.01 g/m*3 14.6 C 4.8 km/h
879 01-07-2021 01:10:00 14.6 C 12.01 g/m*3 14.6 C 3.2 km/h
880 01-07-2021 01:15:00 14.5 C 11.94 g/m*3 14.5 C 4.8 km/h
881 01-07-2021 01:20:00 14.4 C 11.87 g/m*3 14.4 C 4.8 km/h
882 01-07-2021 01:25:00 14.4 C 11.87 g/m*3 14.4 C 3.2 km/h
883 01-07-2021 01:30:00 14.4 C 11.87 g/m*3 14.4 C 3.2 km/h
884 01-07-2021 01:35:00 14.3 C 11.79 g/m*3 14.3 C 4.8 km/h
885 01-07-2021 01:40:00 14.3 C 11.79 g/m*3 14.3 C 1.6 km/h
886 01-07-2021 01:45:00 14.3 C 11.79 g/m*3 14.3 C 0 km/h
887 01-07-2021 01:50:00 14.3 C 11.79 g/m*3 14.3 C 0 km/h
888 01-07-2021 01:55:00 14.3 C 11.79 g/m*3 14.3 C 0 km/h
889 01-07-2021 02:00:00 14.3 C 11.79 g/m*3 14.3 C 0 km/h
890 01-07-2021 02:05:00 14.3 C 11.79 g/m*3 14.3 C 0 km/h
891 01-07-2021 02:10:00 14.3 C 11.79 g/m*3 14.3 C 0 km/h
892 01-07-2021 02:15:00 14.3 C 11.79 g/m*3 14.3 C 0 km/h
893 01-07-2021 02:20:00 14.3 C 11.79 g/m*3 14.3 C 0 km/h
894 01-07-2021 02:25:00 14.3 C 11.79 g/m*3 14.3 C 0 km/h
895 01-07-2021 02:30:00 14.3 C 11.79 g/m*3 14.3 C 0 km/h
896 01-07-2021 02:35:00 14.3 C 11.79 g/m*3 14.3 C 0 km/h
897 01-07-2021 02:40:00 14.3 C 11.79 g/m*3 14.3 C 0 km/h
898 01-07-2021 02:45:00 14.3 C 11.79 g/m*3 14.3 C 0 km/h
899 01-07-2021 02:50:00 14.3 C 11.79 g/m*3 14.3 C 0 km/h
900 01-07-2021 02:55:00 14.3 C 11.79 g/m*3 14.3 C 0 km/h
Sensor: Nr:Datum:Temp:Abs-Feuchte:Windchill:Wind:
Aussen-T/F 901 01-07-2021 03:00:00 14.3 C 11.79 g/m*3 14.3 C 0 km/h
902 01-07-2021 03:05:00 14.3 C 11.79 g/m*3 14.3 C 0 km/h
903 01-07-2021 03:10:00 14.3 C 11.79 g/m*3 14.3 C 0 km/h
904 01-07-2021 03:15:00 14.2 C 11.72 g/m*3 14.2 C 0 km/h
905 01-07-2021 03:20:00 14.2 C 11.84 g/m*3 14.2 C 0 km/h
906 01-07-2021 03:25:00 14.2 C 11.84 g/m*3 14.2 C 0 km/h
907 01-07-2021 03:30:00 14.2 C 11.84 g/m*3 14.2 C 0 km/h
908 01-07-2021 03:35:00 14.2 C 11.84 g/m*3 14.2 C 0 km/h
909 01-07-2021 03:40:00 14.1 C 11.77 g/m*3 14.1 C 1.6 km/h
910 01-07-2021 03:45:00 14.1 C 11.77 g/m*3 14.1 C 1.6 km/h
911 01-07-2021 03:50:00 14.1 C 11.77 g/m*3 14.1 C 1.6 km/h
912 01-07-2021 03:55:00 14.2 C 11.84 g/m*3 14.2 C 0 km/h
913 01-07-2021 04:00:00 14.2 C 11.84 g/m*3 14.2 C 0 km/h
914 01-07-2021 04:05:00 14.2 C 11.84 g/m*3 14.2 C 0 km/h
915 01-07-2021 04:10:00 14.2 C 11.84 g/m*3 14.2 C 0 km/h
916 01-07-2021 04:15:00 14.1 C 11.77 g/m*3 14.1 C 3.2 km/h
917 01-07-2021 04:20:00 14.1 C 11.77 g/m*3 14.1 C 1.6 km/h
918 01-07-2021 04:25:00 14.1 C 11.65 g/m*3 14.1 C 1.6 km/h
919 01-07-2021 04:30:00 14 C 11.58 g/m*3 14 C 1.6 km/h
920 01-07-2021 04:35:00 13.9 C 11.63 g/m*3 13.9 C 1.6 km/h
921 01-07-2021 04:40:00 13.9 C 11.51 g/m*3 13.9 C 1.6 km/h
922 01-07-2021 04:45:00 13.9 C 11.63 g/m*3 13.9 C 3.2 km/h
923 01-07-2021 04:50:00 13.9 C 11.63 g/m*3 13.9 C 1.6 km/h
924 01-07-2021 04:55:00 13.8 C 11.56 g/m*3 13.8 C 0 km/h
925 01-07-2021 05:00:00 13.8 C 11.56 g/m*3 13.8 C 1.6 km/h
Sensor: Nr:Datum:Temp:Abs-Feuchte:Windchill:Wind:
Aussen-T/F 926 01-07-2021 05:05:00 13.8 C 11.56 g/m*3 13.8 C 1.6 km/h
927 01-07-2021 05:10:00 13.8 C 11.56 g/m*3 13.8 C 0 km/h
928 01-07-2021 05:15:00 13.8 C 11.44 g/m*3 13.8 C 1.6 km/h
929 01-07-2021 05:20:00 13.8 C 11.56 g/m*3 13.8 C 1.6 km/h
930 01-07-2021 05:25:00 13.8 C 11.56 g/m*3 13.8 C 1.6 km/h
931 01-07-2021 05:30:00 13.7 C 11.49 g/m*3 13.7 C 0 km/h
932 01-07-2021 05:35:00 13.7 C 11.49 g/m*3 13.7 C 1.6 km/h
933 01-07-2021 05:40:00 13.7 C 11.49 g/m*3 13.7 C 0 km/h
934 01-07-2021 05:45:00 13.7 C 11.49 g/m*3 13.7 C 1.6 km/h
935 01-07-2021 05:50:00 13.7 C 11.49 g/m*3 13.7 C 3.2 km/h
936 01-07-2021 05:55:00 13.7 C 11.49 g/m*3 13.7 C 1.6 km/h
937 01-07-2021 06:00:00 13.7 C 11.49 g/m*3 13.7 C 0 km/h
938 01-07-2021 06:05:00 13.7 C 11.49 g/m*3 13.7 C 0 km/h
939 01-07-2021 06:10:00 13.7 C 11.49 g/m*3 13.7 C 3.2 km/h
940 01-07-2021 06:15:00 13.7 C 11.49 g/m*3 13.7 C 1.6 km/h
941 01-07-2021 06:20:00 13.7 C 11.49 g/m*3 13.7 C 3.2 km/h
942 01-07-2021 06:25:00 13.7 C 11.49 g/m*3 13.7 C 1.6 km/h
943 01-07-2021 06:30:00 13.7 C 11.49 g/m*3 13.7 C 0 km/h
944 01-07-2021 06:35:00 13.7 C 11.49 g/m*3 13.7 C 1.6 km/h
945 01-07-2021 06:40:00 13.7 C 11.49 g/m*3 13.7 C 0 km/h
946 01-07-2021 06:45:00 13.7 C 11.49 g/m*3 13.7 C 0 km/h
947 01-07-2021 06:50:00 13.7 C 11.49 g/m*3 13.7 C 0 km/h
948 01-07-2021 06:55:00 13.7 C 11.49 g/m*3 13.7 C 1.6 km/h
949 01-07-2021 07:00:00 13.7 C 11.49 g/m*3 13.7 C 1.6 km/h
950 01-07-2021 07:05:00 13.7 C 11.49 g/m*3 13.7 C 1.6 km/h
Sensor: Nr:Datum:Temp:Abs-Feuchte:Windchill:Wind:
Aussen-T/F 951 01-07-2021 07:10:00 13.7 C 11.49 g/m*3 13.7 C 3.2 km/h
952 01-07-2021 07:15:00 13.7 C 11.49 g/m*3 13.7 C 0 km/h
953 01-07-2021 07:20:00 13.7 C 11.49 g/m*3 13.7 C 1.6 km/h
954 01-07-2021 07:25:00 13.7 C 11.49 g/m*3 13.7 C 1.6 km/h
955 01-07-2021 07:30:00 13.7 C 11.49 g/m*3 13.7 C 0 km/h
956 01-07-2021 07:35:00 13.7 C 11.49 g/m*3 13.7 C 0 km/h
957 01-07-2021 07:40:00 13.7 C 11.49 g/m*3 13.7 C 0 km/h
958 01-07-2021 07:45:00 13.7 C 11.49 g/m*3 13.7 C 1.6 km/h
959 01-07-2021 07:50:00 13.7 C 11.49 g/m*3 13.7 C 6.4 km/h
960 01-07-2021 07:55:00 13.7 C 11.49 g/m*3 13.7 C 6.4 km/h
961 01-07-2021 08:00:00 13.8 C 11.56 g/m*3 13.8 C 1.6 km/h
962 01-07-2021 08:05:00 13.8 C 11.56 g/m*3 13.8 C 1.6 km/h
963 01-07-2021 08:10:00 13.8 C 11.56 g/m*3 13.8 C 1.6 km/h
964 01-07-2021 08:15:00 13.9 C 11.63 g/m*3 13.9 C 1.6 km/h
965 01-07-2021 08:20:00 13.9 C 11.63 g/m*3 13.9 C 6.4 km/h
966 01-07-2021 08:25:00 13.9 C 11.51 g/m*3 13.9 C 0 km/h
967 01-07-2021 08:30:00 14 C 11.58 g/m*3 14 C 0 km/h
968 01-07-2021 08:35:00 14.1 C 11.65 g/m*3 14.1 C 0 km/h
969 01-07-2021 08:40:00 14.1 C 11.65 g/m*3 14.1 C 1.6 km/h
970 01-07-2021 08:45:00 14.2 C 11.84 g/m*3 14.2 C 1.6 km/h
971 01-07-2021 08:50:00 14.2 C 11.72 g/m*3 14.2 C 3.2 km/h
972 01-07-2021 08:55:00 14.2 C 11.72 g/m*3 14.2 C 3.2 km/h
973 01-07-2021 09:00:00 14.2 C 11.72 g/m*3 14.2 C 4.8 km/h
974 01-07-2021 09:05:00 14.2 C 11.72 g/m*3 14.2 C 3.2 km/h
975 01-07-2021 09:10:00 14.2 C 11.6 g/m*3 14.2 C 1.6 km/h
Sensor: Nr:Datum:Temp:Abs-Feuchte:Windchill:Wind:
Aussen-T/F 976 01-07-2021 09:15:00 14.2 C 11.72 g/m*3 14.2 C 1.6 km/h
977 01-07-2021 09:20:00 14.2 C 11.6 g/m*3 14.2 C 12.9 km/h
978 01-07-2021 09:25:00 13.9 C 11.27 g/m*3 13.9 C 12.9 km/h
979 01-07-2021 09:30:00 13.7 C 11.13 g/m*3 13.7 C 14.5 km/h
980 01-07-2021 09:35:00 13.5 C 11.11 g/m*3 13.5 C 8.1 km/h
981 01-07-2021 09:40:00 13.4 C 11.04 g/m*3 13.4 C 4.8 km/h
982 01-07-2021 09:45:00 13.4 C 11.04 g/m*3 13.4 C 6.4 km/h
983 01-07-2021 09:50:00 13.5 C 11.11 g/m*3 13.5 C 6.4 km/h
984 01-07-2021 09:55:00 13.5 C 11.11 g/m*3 13.5 C 6.4 km/h
985 01-07-2021 10:00:00 13.5 C 11.11 g/m*3 13.5 C 6.4 km/h
986 01-07-2021 10:05:00 13.5 C 11.11 g/m*3 13.5 C 0 km/h
987 01-07-2021 10:10:00 13.6 C 11.3 g/m*3 13.6 C 0 km/h
988 01-07-2021 10:15:00 13.8 C 11.44 g/m*3 13.8 C 0 km/h
989 01-07-2021 10:20:00 14.1 C 11.65 g/m*3 14.1 C 3.2 km/h
990 01-07-2021 10:25:00 14.3 C 11.79 g/m*3 14.3 C 0 km/h
991 01-07-2021 10:30:00 14.4 C 11.87 g/m*3 14.4 C 0 km/h
992 01-07-2021 10:35:00 14.6 C 12.01 g/m*3 14.6 C 3.2 km/h
993 01-07-2021 10:40:00 14.8 C 12.16 g/m*3 14.8 C 4.8 km/h
994 01-07-2021 10:45:00 14.9 C 12.11 g/m*3 14.9 C 6.4 km/h
995 01-07-2021 10:50:00 14.8 C 11.65 g/m*3 14.8 C 11.3 km/h
996 01-07-2021 10:55:00 14.8 C 11.65 g/m*3 14.8 C 8.1 km/h
997 01-07-2021 11:00:00 14.8 C 11.53 g/m*3 14.8 C 11.3 km/h
998 01-07-2021 11:05:00 14.9 C 11.47 g/m*3 14.9 C 8.1 km/h
999 01-07-2021 11:10:00 15.1 C 11.61 g/m*3 15.1 C 9.7 km/h
1000 01-07-2021 11:15:00 15.3 C 11.62 g/m*3 15.3 C 9.7 km/h
Sensor: Nr:Datum:Temp:Abs-Feuchte:Windchill:Wind:
Aussen-T/F 1001 01-07-2021 11:20:00 15.5 C 11.63 g/m*3 15.5 C 6.4 km/h
1002 01-07-2021 11:25:00 15.7 C 11.64 g/m*3 15.7 C 6.4 km/h
1003 01-07-2021 11:30:00 15.7 C 11.51 g/m*3 15.7 C 12.9 km/h
1004 01-07-2021 11:35:00 15.8 C 11.58 g/m*3 15.8 C 11.3 km/h
1005 01-07-2021 11:40:00 15.8 C 11.31 g/m*3 15.8 C 8.1 km/h
1006 01-07-2021 11:45:00 15.9 C 11.51 g/m*3 15.9 C 8.1 km/h
1007 01-07-2021 11:50:00 16 C 11.31 g/m*3 16 C 9.7 km/h
1008 01-07-2021 11:55:00 16.1 C 11.24 g/m*3 16.1 C 6.4 km/h
1009 01-07-2021 12:00:00 16.1 C 11.38 g/m*3 16.1 C 8.1 km/h
1010 01-07-2021 12:05:00 16.1 C 11.1 g/m*3 16.1 C 8.1 km/h
1011 01-07-2021 12:10:00 16.2 C 11.17 g/m*3 16.2 C 8.1 km/h
1012 01-07-2021 12:15:00 16.2 C 11.31 g/m*3 16.2 C 6.4 km/h
1013 01-07-2021 12:20:00 16.4 C 11.58 g/m*3 16.4 C 9.7 km/h
1014 01-07-2021 12:25:00 16.4 C 11.45 g/m*3 16.4 C 8.1 km/h
1015 01-07-2021 12:30:00 16.4 C 11.45 g/m*3 16.4 C 8.1 km/h
1016 01-07-2021 12:35:00 16.5 C 11.51 g/m*3 16.5 C 4.8 km/h
1017 01-07-2021 12:40:00 16.5 C 11.51 g/m*3 16.5 C 6.4 km/h
1018 01-07-2021 12:45:00 16.6 C 11.44 g/m*3 16.6 C 9.7 km/h
1019 01-07-2021 12:50:00 16.6 C 11.44 g/m*3 16.6 C 8.1 km/h
1020 01-07-2021 12:55:00 16.7 C 11.65 g/m*3 16.7 C 4.8 km/h
1021 01-07-2021 13:00:00 16.8 C 11.58 g/m*3 16.8 C 8.1 km/h
1022 01-07-2021 13:05:00 16.8 C 11.29 g/m*3 16.8 C 9.7 km/h
1023 01-07-2021 13:10:00 16.8 C 11.29 g/m*3 16.8 C 9.7 km/h
1024 01-07-2021 13:15:00 16.9 C 11.36 g/m*3 16.9 C 6.4 km/h
1025 01-07-2021 13:20:00 17.1 C 11.5 g/m*3 17.1 C 11.3 km/h
Sensor: Nr:Datum:Temp:Abs-Feuchte:Windchill:Wind:
Aussen-T/F 1026 01-07-2021 13:25:00 16.9 C 11.22 g/m*3 16.9 C 9.7 km/h
1027 01-07-2021 13:30:00 16.8 C 11.15 g/m*3 16.8 C 11.3 km/h
1028 01-07-2021 13:35:00 16.7 C 11.37 g/m*3 16.7 C 9.7 km/h
1029 01-07-2021 13:40:00 16.6 C 11.16 g/m*3 16.6 C 9.7 km/h
1030 01-07-2021 13:45:00 16.5 C 11.23 g/m*3 16.5 C 8.1 km/h
1031 01-07-2021 13:50:00 16.5 C 11.23 g/m*3 16.5 C 4.8 km/h
1032 01-07-2021 13:55:00 16.6 C 11.3 g/m*3 16.6 C 9.7 km/h
1033 01-07-2021 14:00:00 16.6 C 11.16 g/m*3 16.6 C 11.3 km/h
1034 01-07-2021 14:05:00 16.7 C 11.08 g/m*3 16.7 C 12.9 km/h
1035 01-07-2021 14:10:00 16.7 C 11.23 g/m*3 16.7 C 11.3 km/h
1036 01-07-2021 14:15:00 16.6 C 11.02 g/m*3 16.6 C 12.9 km/h
1037 01-07-2021 14:20:00 16.6 C 11.02 g/m*3 16.6 C 11.3 km/h
1038 01-07-2021 14:25:00 16.8 C 11.15 g/m*3 16.8 C 14.5 km/h
1039 01-07-2021 14:30:00 17 C 11.14 g/m*3 17 C 11.3 km/h
1040 01-07-2021 14:35:00 17.3 C 11.2 g/m*3 17.3 C 9.7 km/h
1041 01-07-2021 14:40:00 17.6 C 11.25 g/m*3 17.6 C 12.9 km/h
1042 01-07-2021 14:45:00 17.7 C 11.32 g/m*3 17.7 C 16.1 km/h
1043 01-07-2021 14:50:00 17.8 C 11.54 g/m*3 17.8 C 16.1 km/h
1044 01-07-2021 14:55:00 17.8 C 11.54 g/m*3 17.8 C 9.7 km/h
1045 01-07-2021 15:00:00 17.6 C 11.25 g/m*3 17.6 C 14.5 km/h
1046 01-07-2021 15:05:00 17.3 C 10.9 g/m*3 17.3 C 16.1 km/h
1047 01-07-2021 15:10:00 17.1 C 11.21 g/m*3 17.1 C 12.9 km/h
1048 01-07-2021 15:15:00 16.9 C 10.93 g/m*3 16.9 C 14.5 km/h
1049 01-07-2021 15:20:00 16.7 C 10.94 g/m*3 16.7 C 11.3 km/h
1050 01-07-2021 15:25:00 16.7 C 11.08 g/m*3 16.7 C 11.3 km/h
Sensor: Nr:Datum:Temp:Abs-Feuchte:Windchill:Wind:
Aussen-T/F 1051 01-07-2021 15:30:00 16.6 C 11.02 g/m*3 16.6 C 9.7 km/h
1052 01-07-2021 15:35:00 16.6 C 10.88 g/m*3 16.6 C 11.3 km/h
1053 01-07-2021 15:40:00 16.5 C 10.81 g/m*3 16.5 C 11.3 km/h
1054 01-07-2021 15:45:00 16.5 C 11.09 g/m*3 16.5 C 6.4 km/h
1055 01-07-2021 15:50:00 16.5 C 11.09 g/m*3 16.5 C 9.7 km/h
1056 01-07-2021 15:55:00 16.5 C 11.09 g/m*3 16.5 C 6.4 km/h
1057 01-07-2021 16:00:00 16.6 C 11.3 g/m*3 16.6 C 6.4 km/h
1058 01-07-2021 16:05:00 16.7 C 11.23 g/m*3 16.7 C 12.9 km/h
1059 01-07-2021 16:10:00 16.6 C 11.02 g/m*3 16.6 C 9.7 km/h
1060 01-07-2021 16:15:00 16.5 C 10.95 g/m*3 16.5 C 14.5 km/h
1061 01-07-2021 16:20:00 16.4 C 11.03 g/m*3 16.4 C 4.8 km/h
1062 01-07-2021 16:25:00 16.4 C 10.89 g/m*3 16.4 C 11.3 km/h
1063 01-07-2021 16:30:00 16.3 C 10.96 g/m*3 16.3 C 8.1 km/h
1064 01-07-2021 16:35:00 16.3 C 10.96 g/m*3 16.3 C 14.5 km/h
1065 01-07-2021 16:40:00 16.3 C 10.82 g/m*3 16.3 C 11.3 km/h
1066 01-07-2021 16:45:00 16.4 C 11.17 g/m*3 16.4 C 9.7 km/h
1067 01-07-2021 16:50:00 16.4 C 11.17 g/m*3 16.4 C 9.7 km/h
1068 01-07-2021 16:55:00 16.5 C 11.09 g/m*3 16.5 C 12.9 km/h
1069 01-07-2021 17:00:00 16.6 C 11.02 g/m*3 16.6 C 11.3 km/h
1070 01-07-2021 17:05:00 16.6 C 11.02 g/m*3 16.6 C 4.8 km/h
1071 01-07-2021 17:10:00 16.8 C 11.44 g/m*3 16.8 C 4.8 km/h
1072 01-07-2021 17:15:00 16.8 C 11.15 g/m*3 16.8 C 4.8 km/h
1073 01-07-2021 17:20:00 16.9 C 11.36 g/m*3 16.9 C 6.4 km/h
1074 01-07-2021 17:25:00 16.9 C 11.22 g/m*3 16.9 C 9.7 km/h
1075 01-07-2021 17:30:00 17 C 11.43 g/m*3 17 C 8.1 km/h
Sensor: Nr:Datum:Temp:Abs-Feuchte:Windchill:Wind:
Aussen-T/F 1076 01-07-2021 17:35:00 17 C 11.43 g/m*3 17 C 3.2 km/h
1077 01-07-2021 17:40:00 17.1 C 11.35 g/m*3 17.1 C 4.8 km/h
1078 01-07-2021 17:45:00 17 C 11.14 g/m*3 17 C 6.4 km/h
1079 01-07-2021 17:50:00 16.9 C 11.36 g/m*3 16.9 C 3.2 km/h
1080 01-07-2021 17:55:00 16.7 C 11.08 g/m*3 16.7 C 11.3 km/h
1081 01-07-2021 18:00:00 16.5 C 10.95 g/m*3 16.5 C 12.9 km/h
1082 01-07-2021 18:05:00 16.4 C 11.03 g/m*3 16.4 C 11.3 km/h
1083 01-07-2021 18:10:00 16.3 C 11.1 g/m*3 16.3 C 8.1 km/h
1084 01-07-2021 18:15:00 16.3 C 11.1 g/m*3 16.3 C 6.4 km/h
1085 01-07-2021 18:20:00 16.4 C 11.17 g/m*3 16.4 C 4.8 km/h
1086 01-07-2021 18:25:00 16.4 C 11.03 g/m*3 16.4 C 1.6 km/h
1087 01-07-2021 18:30:00 16.5 C 11.09 g/m*3 16.5 C 1.6 km/h
1088 01-07-2021 18:35:00 16.6 C 11.16 g/m*3 16.6 C 4.8 km/h
1089 01-07-2021 18:40:00 16.6 C 11.16 g/m*3 16.6 C 6.4 km/h
1090 01-07-2021 18:45:00 16.6 C 11.02 g/m*3 16.6 C 6.4 km/h
1091 01-07-2021 18:50:00 16.6 C 11.3 g/m*3 16.6 C 4.8 km/h
1092 01-07-2021 18:55:00 16.6 C 11.16 g/m*3 16.6 C 6.4 km/h
1093 01-07-2021 19:00:00 16.6 C 11.16 g/m*3 16.6 C 3.2 km/h
1094 01-07-2021 19:05:00 16.5 C 11.23 g/m*3 16.5 C 3.2 km/h
1095 01-07-2021 19:10:00 16.5 C 11.23 g/m*3 16.5 C 4.8 km/h
1096 01-07-2021 19:15:00 16.4 C 11.31 g/m*3 16.4 C 6.4 km/h
1097 01-07-2021 19:20:00 16.6 C 11.72 g/m*3 16.6 C 0 km/h
1098 01-07-2021 19:25:00 16.6 C 11.44 g/m*3 16.6 C 4.8 km/h
1099 01-07-2021 19:30:00 16.5 C 11.23 g/m*3 16.5 C 1.6 km/h
1100 01-07-2021 19:35:00 16.6 C 11.16 g/m*3 16.6 C 4.8 km/h
Sensor: Nr:Datum:Temp:Abs-Feuchte:Windchill:Wind:
Aussen-T/F 1101 01-07-2021 19:40:00 16.7 C 11.37 g/m*3 16.7 C 6.4 km/h
1102 01-07-2021 19:45:00 16.7 C 11.37 g/m*3 16.7 C 8.1 km/h
1103 01-07-2021 19:50:00 16.6 C 11.02 g/m*3 16.6 C 8.1 km/h
1104 01-07-2021 19:55:00 16.4 C 11.03 g/m*3 16.4 C 4.8 km/h
1105 01-07-2021 20:00:00 16.3 C 10.96 g/m*3 16.3 C 4.8 km/h
1106 01-07-2021 20:05:00 16.3 C 10.96 g/m*3 16.3 C 6.4 km/h
1107 01-07-2021 20:10:00 16.2 C 11.17 g/m*3 16.2 C 1.6 km/h
1108 01-07-2021 20:15:00 16.2 C 11.17 g/m*3 16.2 C 6.4 km/h
1109 01-07-2021 20:20:00 16.1 C 11.1 g/m*3 16.1 C 6.4 km/h
1110 01-07-2021 20:25:00 16.1 C 11.24 g/m*3 16.1 C 4.8 km/h
1111 01-07-2021 20:30:00 15.9 C 10.97 g/m*3 15.9 C 8.1 km/h
1112 01-07-2021 20:35:00 15.8 C 11.04 g/m*3 15.8 C 4.8 km/h
1113 01-07-2021 20:40:00 15.8 C 11.04 g/m*3 15.8 C 3.2 km/h
1114 01-07-2021 20:45:00 15.7 C 10.97 g/m*3 15.7 C 6.4 km/h
1115 01-07-2021 20:50:00 15.6 C 10.91 g/m*3 15.6 C 1.6 km/h
1116 01-07-2021 20:55:00 15.6 C 11.04 g/m*3 15.6 C 3.2 km/h
1117 01-07-2021 21:00:00 15.5 C 10.97 g/m*3 15.5 C 8.1 km/h
1118 01-07-2021 21:05:00 15.4 C 11.04 g/m*3 15.4 C 1.6 km/h
1119 01-07-2021 21:10:00 15.4 C 11.04 g/m*3 15.4 C 1.6 km/h
1120 01-07-2021 21:15:00 15.4 C 11.04 g/m*3 15.4 C 0 km/h
1121 01-07-2021 21:20:00 15.4 C 11.3 g/m*3 15.4 C 0 km/h
1122 01-07-2021 21:25:00 15.4 C 11.3 g/m*3 15.4 C 0 km/h
1123 01-07-2021 21:30:00 15.3 C 11.23 g/m*3 15.3 C 0 km/h
1124 01-07-2021 21:35:00 15.3 C 11.36 g/m*3 15.3 C 0 km/h
1125 01-07-2021 21:40:00 15.2 C 11.29 g/m*3 15.2 C 0 km/h
Sensor: Nr:Datum:Temp:Abs-Feuchte:Windchill:Wind:
Aussen-T/F 1126 01-07-2021 21:45:00 15.2 C 11.42 g/m*3 15.2 C 1.6 km/h
1127 01-07-2021 21:50:00 15.1 C 11.35 g/m*3 15.1 C 0 km/h
1128 01-07-2021 21:55:00 15 C 11.28 g/m*3 15 C 0 km/h
1129 01-07-2021 22:00:00 14.9 C 11.22 g/m*3 14.9 C 0 km/h
1130 01-07-2021 22:05:00 14.8 C 11.27 g/m*3 14.8 C 0 km/h
1131 01-07-2021 22:10:00 14.8 C 11.27 g/m*3 14.8 C 0 km/h
1132 01-07-2021 22:15:00 14.7 C 11.21 g/m*3 14.7 C 0 km/h
1133 01-07-2021 22:20:00 14.7 C 11.33 g/m*3 14.7 C 0 km/h
1134 01-07-2021 22:25:00 14.6 C 11.26 g/m*3 14.6 C 0 km/h
1135 01-07-2021 22:30:00 14.6 C 11.26 g/m*3 14.6 C 0 km/h
1136 01-07-2021 22:35:00 14.6 C 11.26 g/m*3 14.6 C 0 km/h
1137 01-07-2021 22:40:00 14.5 C 11.19 g/m*3 14.5 C 0 km/h
1138 01-07-2021 22:45:00 14.4 C 11.13 g/m*3 14.4 C 0 km/h
1139 01-07-2021 22:50:00 14.4 C 11.25 g/m*3 14.4 C 0 km/h
1140 01-07-2021 22:55:00 14.4 C 11.13 g/m*3 14.4 C 0 km/h
1141 01-07-2021 23:00:00 14.3 C 11.18 g/m*3 14.3 C 0 km/h
1142 01-07-2021 23:05:00 14.3 C 11.06 g/m*3 14.3 C 3.2 km/h
1143 01-07-2021 23:10:00 14.3 C 11.18 g/m*3 14.3 C 0 km/h
1144 01-07-2021 23:15:00 14.2 C 11.11 g/m*3 14.2 C 0 km/h
1145 01-07-2021 23:20:00 14.2 C 11.11 g/m*3 14.2 C 0 km/h
1146 01-07-2021 23:25:00 14.2 C 11.11 g/m*3 14.2 C 0 km/h
1147 01-07-2021 23:30:00 14.2 C 11.11 g/m*3 14.2 C 0 km/h
1148 01-07-2021 23:35:00 14.1 C 11.04 g/m*3 14.1 C 0 km/h
1149 01-07-2021 23:40:00 14.1 C 11.04 g/m*3 14.1 C 0 km/h
1150 01-07-2021 23:45:00 14.1 C 11.04 g/m*3 14.1 C 0 km/h
Sensor: Nr:Datum:Temp:Abs-Feuchte:Windchill:Wind:
Aussen-T/F 1151 01-07-2021 23:50:00 14.1 C 11.04 g/m*3 14.1 C 0 km/h
1152 01-07-2021 23:55:00 14.1 C 11.04 g/m*3 14.1 C 0 km/h
1153 02-07-2021 00:00:00 14 C 10.98 g/m*3 14 C 0 km/h
1154 02-07-2021 00:05:00 14 C 11.1 g/m*3 14 C 0 km/h
1155 02-07-2021 00:10:00 14 C 11.1 g/m*3 14 C 0 km/h
1156 02-07-2021 00:15:00 14 C 11.1 g/m*3 14 C 0 km/h
1157 02-07-2021 00:20:00 14 C 11.1 g/m*3 14 C 0 km/h
1158 02-07-2021 00:25:00 13.9 C 11.03 g/m*3 13.9 C 0 km/h
1159 02-07-2021 00:30:00 13.9 C 11.03 g/m*3 13.9 C 0 km/h
1160 02-07-2021 00:35:00 13.9 C 11.03 g/m*3 13.9 C 0 km/h
1161 02-07-2021 00:40:00 13.8 C 10.96 g/m*3 13.8 C 0 km/h
1162 02-07-2021 00:45:00 13.8 C 10.96 g/m*3 13.8 C 0 km/h
1163 02-07-2021 00:50:00 13.8 C 10.96 g/m*3 13.8 C 0 km/h
1164 02-07-2021 00:55:00 13.8 C 10.96 g/m*3 13.8 C 1.6 km/h
1165 02-07-2021 01:00:00 13.7 C 10.89 g/m*3 13.7 C 1.6 km/h
1166 02-07-2021 01:05:00 13.7 C 10.89 g/m*3 13.7 C 0 km/h
1167 02-07-2021 01:10:00 13.7 C 10.89 g/m*3 13.7 C 0 km/h
1168 02-07-2021 01:15:00 13.7 C 11.01 g/m*3 13.7 C 0 km/h
1169 02-07-2021 01:20:00 13.7 C 11.01 g/m*3 13.7 C 0 km/h
1170 02-07-2021 01:25:00 13.7 C 11.01 g/m*3 13.7 C 0 km/h
1171 02-07-2021 01:30:00 13.6 C 10.95 g/m*3 13.6 C 1.6 km/h
1172 02-07-2021 01:35:00 13.6 C 10.95 g/m*3 13.6 C 0 km/h
1173 02-07-2021 01:40:00 13.6 C 10.95 g/m*3 13.6 C 1.6 km/h
1174 02-07-2021 01:45:00 13.6 C 10.95 g/m*3 13.6 C 0 km/h
1175 02-07-2021 01:50:00 13.6 C 10.95 g/m*3 13.6 C 0 km/h
Sensor: Nr:Datum:Temp:Abs-Feuchte:Windchill:Wind:
Aussen-T/F 1176 02-07-2021 01:55:00 13.6 C 10.95 g/m*3 13.6 C 0 km/h
1177 02-07-2021 02:00:00 13.6 C 10.95 g/m*3 13.6 C 0 km/h
1178 02-07-2021 02:05:00 13.5 C 10.88 g/m*3 13.5 C 0 km/h
1179 02-07-2021 02:10:00 13.5 C 10.88 g/m*3 13.5 C 0 km/h
1180 02-07-2021 02:15:00 13.4 C 10.81 g/m*3 13.4 C 0 km/h
1181 02-07-2021 02:20:00 13.4 C 10.81 g/m*3 13.4 C 0 km/h
1182 02-07-2021 02:25:00 13.4 C 10.81 g/m*3 13.4 C 0 km/h
1183 02-07-2021 02:30:00 13.4 C 10.81 g/m*3 13.4 C 0 km/h
1184 02-07-2021 02:35:00 13.3 C 10.74 g/m*3 13.3 C 0 km/h
1185 02-07-2021 02:40:00 13.3 C 10.74 g/m*3 13.3 C 0 km/h
1186 02-07-2021 02:45:00 13.3 C 10.74 g/m*3 13.3 C 0 km/h
1187 02-07-2021 02:50:00 13.4 C 10.93 g/m*3 13.4 C 0 km/h
1188 02-07-2021 02:55:00 13.4 C 10.93 g/m*3 13.4 C 0 km/h
1189 02-07-2021 03:00:00 13.4 C 10.93 g/m*3 13.4 C 0 km/h
1190 02-07-2021 03:05:00 13.4 C 10.93 g/m*3 13.4 C 0 km/h
1191 02-07-2021 03:10:00 13.4 C 10.93 g/m*3 13.4 C 0 km/h
1192 02-07-2021 03:15:00 13.4 C 10.93 g/m*3 13.4 C 0 km/h
1193 02-07-2021 03:20:00 13.4 C 10.93 g/m*3 13.4 C 0 km/h
1194 02-07-2021 03:25:00 13.4 C 10.93 g/m*3 13.4 C 0 km/h
1195 02-07-2021 03:30:00 13.3 C 10.86 g/m*3 13.3 C 0 km/h
1196 02-07-2021 03:35:00 13.3 C 10.86 g/m*3 13.3 C 0 km/h
1197 02-07-2021 03:40:00 13.3 C 10.86 g/m*3 13.3 C 0 km/h
1198 02-07-2021 03:45:00 13.3 C 10.86 g/m*3 13.3 C 0 km/h
1199 02-07-2021 03:50:00 13.3 C 10.86 g/m*3 13.3 C 0 km/h
1200 02-07-2021 03:55:00 13.3 C 10.86 g/m*3 13.3 C 0 km/h
Sensor: Nr:Datum:Temp:Abs-Feuchte:Windchill:Wind:
Aussen-T/F 1201 02-07-2021 04:00:00 13.3 C 10.86 g/m*3 13.3 C 1.6 km/h
1202 02-07-2021 04:05:00 13.2 C 10.79 g/m*3 13.2 C 1.6 km/h
1203 02-07-2021 04:10:00 13.2 C 10.79 g/m*3 13.2 C 0 km/h
1204 02-07-2021 04:15:00 13.2 C 10.79 g/m*3 13.2 C 0 km/h
1205 02-07-2021 04:20:00 13.1 C 10.73 g/m*3 13.1 C 0 km/h
1206 02-07-2021 04:25:00 13.1 C 10.73 g/m*3 13.1 C 0 km/h
1207 02-07-2021 04:30:00 13.1 C 10.73 g/m*3 13.1 C 0 km/h
1208 02-07-2021 04:35:00 13 C 10.66 g/m*3 13 C 0 km/h
1209 02-07-2021 04:40:00 12.9 C 10.59 g/m*3 12.9 C 0 km/h
1210 02-07-2021 04:45:00 12.9 C 10.59 g/m*3 12.9 C 0 km/h
1211 02-07-2021 04:50:00 12.8 C 10.53 g/m*3 12.8 C 0 km/h
1212 02-07-2021 04:55:00 12.8 C 10.53 g/m*3 12.8 C 3.2 km/h
1213 02-07-2021 05:00:00 12.7 C 10.46 g/m*3 12.7 C 3.2 km/h
1214 02-07-2021 05:05:00 12.6 C 10.4 g/m*3 12.6 C 3.2 km/h
1215 02-07-2021 05:10:00 12.6 C 10.4 g/m*3 12.6 C 3.2 km/h
1216 02-07-2021 05:15:00 12.5 C 10.33 g/m*3 12.5 C 3.2 km/h
1217 02-07-2021 05:20:00 12.4 C 10.27 g/m*3 12.4 C 0 km/h
1218 02-07-2021 05:25:00 12.4 C 10.27 g/m*3 12.4 C 1.6 km/h
1219 02-07-2021 05:30:00 12.4 C 10.27 g/m*3 12.4 C 0 km/h
1220 02-07-2021 05:35:00 12.3 C 10.21 g/m*3 12.3 C 0 km/h
1221 02-07-2021 05:40:00 12.3 C 10.21 g/m*3 12.3 C 0 km/h
1222 02-07-2021 05:45:00 12.3 C 10.21 g/m*3 12.3 C 0 km/h
1223 02-07-2021 05:50:00 12.2 C 10.14 g/m*3 12.2 C 0 km/h
1224 02-07-2021 05:55:00 12.2 C 10.25 g/m*3 12.2 C 0 km/h
1225 02-07-2021 06:00:00 12.1 C 10.19 g/m*3 12.1 C 0 km/h
Sensor: Nr:Datum:Temp:Abs-Feuchte:Windchill:Wind:
Aussen-T/F 1226 02-07-2021 06:05:00 12.1 C 10.19 g/m*3 12.1 C 0 km/h
1227 02-07-2021 06:10:00 12.1 C 10.19 g/m*3 12.1 C 0 km/h
1228 02-07-2021 06:15:00 12.1 C 10.19 g/m*3 12.1 C 0 km/h
1229 02-07-2021 06:20:00 12.2 C 10.25 g/m*3 12.2 C 0 km/h
1230 02-07-2021 06:25:00 12.2 C 10.25 g/m*3 12.2 C 0 km/h
1231 02-07-2021 06:30:00 12.2 C 10.25 g/m*3 12.2 C 0 km/h
1232 02-07-2021 06:35:00 12.3 C 10.42 g/m*3 12.3 C 4.8 km/h
1233 02-07-2021 06:40:00 12.4 C 10.49 g/m*3 12.4 C 0 km/h
1234 02-07-2021 06:45:00 12.6 C 10.62 g/m*3 12.6 C 1.6 km/h
1235 02-07-2021 06:50:00 12.7 C 10.69 g/m*3 12.7 C 4.8 km/h
1236 02-07-2021 06:55:00 12.8 C 10.75 g/m*3 12.8 C 4.8 km/h
1237 02-07-2021 07:00:00 13 C 10.89 g/m*3 13 C 4.8 km/h
1238 02-07-2021 07:05:00 13.1 C 10.95 g/m*3 13.1 C 6.4 km/h
1239 02-07-2021 07:10:00 13.1 C 10.95 g/m*3 13.1 C 8.1 km/h
1240 02-07-2021 07:15:00 13.2 C 11.02 g/m*3 13.2 C 6.4 km/h
1241 02-07-2021 07:20:00 13.2 C 10.91 g/m*3 13.2 C 3.2 km/h
1242 02-07-2021 07:25:00 13.2 C 10.91 g/m*3 13.2 C 6.4 km/h
1243 02-07-2021 07:30:00 13.2 C 10.91 g/m*3 13.2 C 9.7 km/h
1244 02-07-2021 07:35:00 13.2 C 11.02 g/m*3 13.2 C 6.4 km/h
1245 02-07-2021 07:40:00 13.3 C 10.98 g/m*3 13.3 C 11.3 km/h
1246 02-07-2021 07:45:00 13.3 C 10.98 g/m*3 13.3 C 6.4 km/h
1247 02-07-2021 07:50:00 13.3 C 10.98 g/m*3 13.3 C 1.6 km/h
1248 02-07-2021 07:55:00 13.4 C 11.04 g/m*3 13.4 C 8.1 km/h
1249 02-07-2021 08:00:00 13.4 C 11.04 g/m*3 13.4 C 3.2 km/h
1250 02-07-2021 08:05:00 13.4 C 11.04 g/m*3 13.4 C 6.4 km/h
Sensor: Nr:Datum:Temp:Abs-Feuchte:Windchill:Wind:
Aussen-T/F 1251 02-07-2021 08:10:00 13.5 C 11.11 g/m*3 13.5 C 8.1 km/h
1252 02-07-2021 08:15:00 13.5 C 10.99 g/m*3 13.5 C 9.7 km/h
1253 02-07-2021 08:20:00 13.6 C 11.06 g/m*3 13.6 C 9.7 km/h
1254 02-07-2021 08:25:00 13.6 C 11.06 g/m*3 13.6 C 8.1 km/h
1255 02-07-2021 08:30:00 13.7 C 11.13 g/m*3 13.7 C 4.8 km/h
1256 02-07-2021 08:35:00 13.7 C 11.01 g/m*3 13.7 C 6.4 km/h
1257 02-07-2021 08:40:00 13.8 C 11.08 g/m*3 13.8 C 8.1 km/h
1258 02-07-2021 08:45:00 13.9 C 11.03 g/m*3 13.9 C 11.3 km/h
1259 02-07-2021 08:50:00 14 C 11.22 g/m*3 14 C 4.8 km/h
1260 02-07-2021 08:55:00 14.1 C 11.17 g/m*3 14.1 C 8.1 km/h
1261 02-07-2021 09:00:00 14.2 C 11.11 g/m*3 14.2 C 8.1 km/h
1262 02-07-2021 09:05:00 14.2 C 11.11 g/m*3 14.2 C 4.8 km/h
1263 02-07-2021 09:10:00 14.3 C 11.18 g/m*3 14.3 C 8.1 km/h
1264 02-07-2021 09:15:00 14.5 C 11.19 g/m*3 14.5 C 6.4 km/h
1265 02-07-2021 09:20:00 14.7 C 11.21 g/m*3 14.7 C 6.4 km/h
1266 02-07-2021 09:25:00 14.8 C 11.27 g/m*3 14.8 C 4.8 km/h
1267 02-07-2021 09:30:00 15 C 11.41 g/m*3 15 C 3.2 km/h
1268 02-07-2021 09:35:00 15.2 C 11.42 g/m*3 15.2 C 4.8 km/h
1269 02-07-2021 09:40:00 15.4 C 11.43 g/m*3 15.4 C 1.6 km/h
1270 02-07-2021 09:45:00 15.5 C 11.5 g/m*3 15.5 C 1.6 km/h
1271 02-07-2021 09:50:00 15.7 C 11.37 g/m*3 15.7 C 9.7 km/h
1272 02-07-2021 09:55:00 15.8 C 11.31 g/m*3 15.8 C 3.2 km/h
1273 02-07-2021 10:00:00 16 C 11.58 g/m*3 16 C 3.2 km/h
1274 02-07-2021 10:05:00 16.1 C 11.24 g/m*3 16.1 C 3.2 km/h
1275 02-07-2021 10:10:00 16.2 C 11.45 g/m*3 16.2 C 3.2 km/h
Sensor: Nr:Datum:Temp:Abs-Feuchte:Windchill:Wind:
Aussen-T/F 1276 02-07-2021 10:15:00 16.3 C 11.24 g/m*3 16.3 C 0 km/h
1277 02-07-2021 10:20:00 16.5 C 11.37 g/m*3 16.5 C 4.8 km/h
1278 02-07-2021 10:25:00 16.7 C 10.94 g/m*3 16.7 C 4.8 km/h
1279 02-07-2021 10:30:00 16.9 C 11.08 g/m*3 16.9 C 0 km/h
1280 02-07-2021 10:35:00 17.4 C 11.56 g/m*3 17.4 C 0 km/h
1281 02-07-2021 10:40:00 17.7 C 11.16 g/m*3 17.7 C 0 km/h
1282 02-07-2021 10:45:00 17.8 C 11.38 g/m*3 17.8 C 0 km/h
1283 02-07-2021 10:50:00 17.9 C 11.6 g/m*3 17.9 C 0 km/h
1284 02-07-2021 10:55:00 18 C 12.13 g/m*3 18 C 0 km/h
1285 02-07-2021 11:00:00 18.1 C 11.74 g/m*3 18.1 C 4.8 km/h
1286 02-07-2021 11:05:00 18.1 C 11.9 g/m*3 18.1 C 6.4 km/h
1287 02-07-2021 11:10:00 18.2 C 11.97 g/m*3 18.2 C 8.1 km/h
1288 02-07-2021 11:15:00 18.3 C 11.57 g/m*3 18.3 C 8.1 km/h
1289 02-07-2021 11:20:00 18.3 C 12.04 g/m*3 18.3 C 4.8 km/h
1290 02-07-2021 11:25:00 18.3 C 11.88 g/m*3 18.3 C 4.8 km/h
1291 02-07-2021 11:30:00 18.3 C 12.04 g/m*3 18.3 C 3.2 km/h
1292 02-07-2021 11:35:00 18.3 C 11.73 g/m*3 18.3 C 4.8 km/h
1293 02-07-2021 11:40:00 18.3 C 12.35 g/m*3 18.3 C 0 km/h
1294 02-07-2021 11:45:00 18.4 C 12.11 g/m*3 18.4 C 0 km/h
1295 02-07-2021 11:50:00 18.4 C 12.43 g/m*3 18.4 C 0 km/h
1296 02-07-2021 11:55:00 18.4 C 12.11 g/m*3 18.4 C 0 km/h
1297 02-07-2021 12:00:00 18.4 C 11.95 g/m*3 18.4 C 3.2 km/h
1298 02-07-2021 12:05:00 18.6 C 12.1 g/m*3 18.6 C 1.6 km/h
1299 02-07-2021 12:10:00 18.6 C 11.78 g/m*3 18.6 C 4.8 km/h
1300 02-07-2021 12:15:00 18.7 C 12.17 g/m*3 18.7 C 4.8 km/h
Sensor: Nr:Datum:Temp:Abs-Feuchte:Windchill:Wind:
Aussen-T/F 1301 02-07-2021 12:20:00 18.6 C 11.94 g/m*3 18.6 C 8.1 km/h
1302 02-07-2021 12:25:00 18.6 C 12.1 g/m*3 18.6 C 6.4 km/h
1303 02-07-2021 12:30:00 18.8 C 12.24 g/m*3 18.8 C 6.4 km/h
1304 02-07-2021 12:35:00 19.1 C 11.97 g/m*3 19.1 C 11.3 km/h
1305 02-07-2021 12:40:00 19.2 C 11.71 g/m*3 19.2 C 11.3 km/h
1306 02-07-2021 12:45:00 19.3 C 12.11 g/m*3 19.3 C 9.7 km/h
1307 02-07-2021 12:50:00 19.4 C 12.18 g/m*3 19.4 C 6.4 km/h
1308 02-07-2021 12:55:00 19.5 C 11.92 g/m*3 19.5 C 8.1 km/h
1309 02-07-2021 13:00:00 19.6 C 12.15 g/m*3 19.6 C 4.8 km/h
1310 02-07-2021 13:05:00 19.7 C 11.89 g/m*3 19.7 C 9.7 km/h
1311 02-07-2021 13:10:00 19.7 C 11.89 g/m*3 19.7 C 4.8 km/h
1312 02-07-2021 13:15:00 19.8 C 12.47 g/m*3 19.8 C 3.2 km/h
1313 02-07-2021 13:20:00 19.8 C 13.32 g/m*3 19.8 C 0 km/h
1314 02-07-2021 13:25:00 19.7 C 12.4 g/m*3 19.7 C 4.8 km/h
1315 02-07-2021 13:30:00 19.7 C 12.91 g/m*3 19.7 C 4.8 km/h
1316 02-07-2021 13:35:00 19.7 C 13.25 g/m*3 19.7 C 0 km/h
1317 02-07-2021 13:40:00 19.7 C 13.41 g/m*3 19.7 C 1.6 km/h
1318 02-07-2021 13:45:00 19.8 C 14.01 g/m*3 19.8 C 0 km/h
1319 02-07-2021 13:50:00 19.7 C 12.74 g/m*3 19.7 C 8.1 km/h
1320 02-07-2021 13:55:00 19.7 C 12.23 g/m*3 19.7 C 9.7 km/h
1321 02-07-2021 14:00:00 19.8 C 12.98 g/m*3 19.8 C 1.6 km/h
1322 02-07-2021 14:05:00 19.9 C 13.06 g/m*3 19.9 C 1.6 km/h
1323 02-07-2021 14:10:00 20 C 12.79 g/m*3 20 C 3.2 km/h
1324 02-07-2021 14:15:00 20.2 C 12.76 g/m*3 20.2 C 4.8 km/h
1325 02-07-2021 14:20:00 20.5 C 12.81 g/m*3 20.5 C 6.4 km/h
Sensor: Nr:Datum:Temp:Abs-Feuchte:Windchill:Wind:
Aussen-T/F 1326 02-07-2021 14:25:00 20.8 C 12.49 g/m*3 20.8 C 12.9 km/h
1327 02-07-2021 14:30:00 21.1 C 12.34 g/m*3 21.1 C 8.1 km/h
1328 02-07-2021 14:35:00 21.2 C 12.42 g/m*3 21.2 C 9.7 km/h
1329 02-07-2021 14:40:00 21.1 C 12.53 g/m*3 21.1 C 9.7 km/h
1330 02-07-2021 14:45:00 20.8 C 12.49 g/m*3 20.8 C 8.1 km/h
1331 02-07-2021 14:50:00 20.7 C 12.78 g/m*3 20.7 C 8.1 km/h
1332 02-07-2021 14:55:00 20.6 C 12.71 g/m*3 20.6 C 6.4 km/h
1333 02-07-2021 15:00:00 20.5 C 12.46 g/m*3 20.5 C 4.8 km/h
1334 02-07-2021 15:05:00 20.6 C 12.71 g/m*3 20.6 C 3.2 km/h
1335 02-07-2021 15:10:00 20.7 C 12.42 g/m*3 20.7 C 4.8 km/h
1336 02-07-2021 15:15:00 20.8 C 13.04 g/m*3 20.8 C 0 km/h
1337 02-07-2021 15:20:00 20.9 C 12.93 g/m*3 20.9 C 3.2 km/h
1338 02-07-2021 15:25:00 21.1 C 12.71 g/m*3 21.1 C 8.1 km/h
1339 02-07-2021 15:30:00 21.4 C 12.94 g/m*3 21.4 C 8.1 km/h
1340 02-07-2021 15:35:00 21.7 C 12.78 g/m*3 21.7 C 6.4 km/h
1341 02-07-2021 15:40:00 22 C 12.42 g/m*3 22 C 9.7 km/h
1342 02-07-2021 15:45:00 22.3 C 12.24 g/m*3 22.3 C 11.3 km/h
1343 02-07-2021 15:50:00 22.7 C 13.54 g/m*3 22.7 C 4.8 km/h
1344 02-07-2021 15:55:00 23.1 C 12.61 g/m*3 23.1 C 9.7 km/h
1345 02-07-2021 16:00:00 23.5 C 13.32 g/m*3 23.5 C 3.2 km/h
1346 02-07-2021 16:05:00 23.9 C 12.76 g/m*3 23.9 C 4.8 km/h
1347 02-07-2021 16:10:00 24.3 C 13.72 g/m*3 24.3 C 3.2 km/h
1348 02-07-2021 16:15:00 24.7 C 12.68 g/m*3 24.7 C 4.8 km/h
1349 02-07-2021 16:20:00 24.6 C 13.05 g/m*3 24.6 C 4.8 km/h
1350 02-07-2021 16:25:00 24.2 C 12.76 g/m*3 24.2 C 3.2 km/h
Sensor: Nr:Datum:Temp:Abs-Feuchte:Windchill:Wind:
Aussen-T/F 1351 02-07-2021 16:30:00 23.9 C 12.98 g/m*3 23.9 C 4.8 km/h
1352 02-07-2021 16:35:00 23.7 C 12.41 g/m*3 23.7 C 1.6 km/h
1353 02-07-2021 16:40:00 23.8 C 12.69 g/m*3 23.8 C 6.4 km/h
1354 02-07-2021 16:45:00 23.7 C 13.26 g/m*3 23.7 C 3.2 km/h
1355 02-07-2021 16:50:00 23.8 C 12.48 g/m*3 23.8 C 4.8 km/h
1356 02-07-2021 16:55:00 23.7 C 11.98 g/m*3 23.7 C 8.1 km/h
1357 02-07-2021 17:00:00 23.7 C 12.19 g/m*3 23.7 C 6.4 km/h
1358 02-07-2021 17:05:00 23.8 C 12.26 g/m*3 23.8 C 8.1 km/h
1359 02-07-2021 17:10:00 24 C 12.18 g/m*3 24 C 6.4 km/h
1360 02-07-2021 17:15:00 24.2 C 12.1 g/m*3 24.2 C 11.3 km/h
1361 02-07-2021 17:20:00 24.4 C 12.46 g/m*3 24.4 C 6.4 km/h
1362 02-07-2021 17:25:00 24.7 C 12.22 g/m*3 24.7 C 6.4 km/h
1363 02-07-2021 17:30:00 24.8 C 12.52 g/m*3 24.8 C 3.2 km/h
1364 02-07-2021 17:35:00 25 C 12.2 g/m*3 25 C 3.2 km/h
1365 02-07-2021 17:40:00 25.3 C 12.88 g/m*3 25.3 C 6.4 km/h
1366 02-07-2021 17:45:00 25.4 C 13.65 g/m*3 25.4 C 6.4 km/h
1367 02-07-2021 17:50:00 25.7 C 13.89 g/m*3 25.7 C 3.2 km/h
1368 02-07-2021 17:55:00 25.8 C 13.48 g/m*3 25.8 C 0 km/h
1369 02-07-2021 18:00:00 25.7 C 14.6 g/m*3 25.7 C 0 km/h
1370 02-07-2021 18:05:00 25.7 C 12.45 g/m*3 25.7 C 6.4 km/h
1371 02-07-2021 18:10:00 25.7 C 12.93 g/m*3 25.7 C 8.1 km/h
1372 02-07-2021 18:15:00 25.7 C 12.21 g/m*3 25.7 C 4.8 km/h
1373 02-07-2021 18:20:00 25.8 C 13 g/m*3 25.8 C 6.4 km/h
1374 02-07-2021 18:25:00 25.7 C 12.69 g/m*3 25.7 C 4.8 km/h
1375 02-07-2021 18:30:00 25.6 C 12.14 g/m*3 25.6 C 4.8 km/h
Sensor: Nr:Datum:Temp:Abs-Feuchte:Windchill:Wind:
Aussen-T/F 1376 02-07-2021 18:35:00 25.4 C 12.01 g/m*3 25.4 C 4.8 km/h
1377 02-07-2021 18:40:00 25.5 C 12.31 g/m*3 25.5 C 3.2 km/h
1378 02-07-2021 18:45:00 25.5 C 12.78 g/m*3 25.5 C 3.2 km/h
1379 02-07-2021 18:50:00 25.6 C 13.33 g/m*3 25.6 C 1.6 km/h
1380 02-07-2021 18:55:00 25.3 C 11.94 g/m*3 25.3 C 4.8 km/h
1381 02-07-2021 19:00:00 25.1 C 14.82 g/m*3 25.1 C 0 km/h
1382 02-07-2021 19:05:00 24.8 C 14.11 g/m*3 24.8 C 0 km/h
1383 02-07-2021 19:10:00 24.6 C 12.83 g/m*3 24.6 C 0 km/h
1384 02-07-2021 19:15:00 24.4 C 12.02 g/m*3 24.4 C 3.2 km/h
1385 02-07-2021 19:20:00 24.3 C 11.73 g/m*3 24.3 C 3.2 km/h
1386 02-07-2021 19:25:00 24.3 C 13.94 g/m*3 24.3 C 0 km/h
1387 02-07-2021 19:30:00 24.3 C 12.83 g/m*3 24.3 C 3.2 km/h
1388 02-07-2021 19:35:00 24.3 C 13.06 g/m*3 24.3 C 1.6 km/h
1389 02-07-2021 19:40:00 24.2 C 13.42 g/m*3 24.2 C 3.2 km/h
1390 02-07-2021 19:45:00 24.1 C 13.13 g/m*3 24.1 C 1.6 km/h
1391 02-07-2021 19:50:00 24.1 C 12.47 g/m*3 24.1 C 3.2 km/h
1392 02-07-2021 19:55:00 24.1 C 13.57 g/m*3 24.1 C 1.6 km/h
1393 02-07-2021 20:00:00 24.1 C 15.1 g/m*3 24.1 C 0 km/h
1394 02-07-2021 20:05:00 24 C 14.79 g/m*3 24 C 0 km/h
1395 02-07-2021 20:10:00 23.8 C 12.69 g/m*3 23.8 C 3.2 km/h
1396 02-07-2021 20:15:00 23.6 C 12.34 g/m*3 23.6 C 3.2 km/h
1397 02-07-2021 20:20:00 23.4 C 13.04 g/m*3 23.4 C 0 km/h
1398 02-07-2021 20:25:00 23.4 C 13.67 g/m*3 23.4 C 0 km/h
1399 02-07-2021 20:30:00 23.3 C 14.01 g/m*3 23.3 C 0 km/h
1400 02-07-2021 20:35:00 23.2 C 14.34 g/m*3 23.2 C 0 km/h
Sensor: Nr:Datum:Temp:Abs-Feuchte:Windchill:Wind:
Aussen-T/F 1401 02-07-2021 20:40:00 22.9 C 14.31 g/m*3 22.9 C 0 km/h
1402 02-07-2021 20:45:00 22.7 C 14.34 g/m*3 22.7 C 0 km/h
1403 02-07-2021 20:50:00 22.3 C 14.02 g/m*3 22.3 C 0 km/h
1404 02-07-2021 20:55:00 21.9 C 14.09 g/m*3 21.9 C 3.2 km/h
1405 02-07-2021 21:00:00 21.5 C 13.77 g/m*3 21.5 C 1.6 km/h
1406 02-07-2021 21:05:00 21.1 C 13.63 g/m*3 21.1 C 4.8 km/h
1407 02-07-2021 21:10:00 20.7 C 13.5 g/m*3 20.7 C 4.8 km/h
1408 02-07-2021 21:15:00 20.3 C 13.37 g/m*3 20.3 C 4.8 km/h
1409 02-07-2021 21:20:00 19.8 C 12.98 g/m*3 19.8 C 6.4 km/h
1410 02-07-2021 21:25:00 19.5 C 12.92 g/m*3 19.5 C 6.4 km/h
1411 02-07-2021 21:30:00 19.1 C 12.79 g/m*3 19.1 C 8.1 km/h
1412 02-07-2021 21:35:00 18.8 C 12.72 g/m*3 18.8 C 6.4 km/h
1413 02-07-2021 21:40:00 18.5 C 12.66 g/m*3 18.5 C 6.4 km/h
1414 02-07-2021 21:45:00 18.2 C 12.59 g/m*3 18.2 C 3.2 km/h
1415 02-07-2021 21:50:00 18.1 C 12.52 g/m*3 18.1 C 3.2 km/h
1416 02-07-2021 21:55:00 17.9 C 12.52 g/m*3 17.9 C 4.8 km/h
1417 02-07-2021 22:00:00 17.7 C 12.37 g/m*3 17.7 C 3.2 km/h
1418 02-07-2021 22:05:00 17.6 C 12.3 g/m*3 17.6 C 4.8 km/h
1419 02-07-2021 22:10:00 17.4 C 12.15 g/m*3 17.4 C 4.8 km/h
1420 02-07-2021 22:15:00 17.3 C 12.08 g/m*3 17.3 C 4.8 km/h
1421 02-07-2021 22:20:00 17.2 C 12.3 g/m*3 17.2 C 4.8 km/h
1422 02-07-2021 22:25:00 17.1 C 12.23 g/m*3 17.1 C 4.8 km/h
1423 02-07-2021 22:30:00 16.9 C 12.23 g/m*3 16.9 C 1.6 km/h
1424 02-07-2021 22:35:00 16.8 C 12.15 g/m*3 16.8 C 1.6 km/h
1425 02-07-2021 22:40:00 16.7 C 12.22 g/m*3 16.7 C 1.6 km/h
Sensor: Nr:Datum:Temp:Abs-Feuchte:Windchill:Wind:
Aussen-T/F 1426 02-07-2021 22:45:00 16.6 C 12.15 g/m*3 16.6 C 1.6 km/h
1427 02-07-2021 22:50:00 16.5 C 12.22 g/m*3 16.5 C 1.6 km/h
1428 02-07-2021 22:55:00 16.4 C 12.28 g/m*3 16.4 C 0 km/h
1429 02-07-2021 23:00:00 16.3 C 12.21 g/m*3 16.3 C 0 km/h
1430 02-07-2021 23:05:00 16.2 C 12.14 g/m*3 16.2 C 0 km/h
1431 02-07-2021 23:10:00 16.1 C 12.06 g/m*3 16.1 C 0 km/h
1432 02-07-2021 23:15:00 16 C 11.99 g/m*3 16 C 0 km/h
1433 02-07-2021 23:20:00 15.9 C 12.05 g/m*3 15.9 C 0 km/h
1434 02-07-2021 23:25:00 15.8 C 11.98 g/m*3 15.8 C 0 km/h
1435 02-07-2021 23:30:00 15.7 C 11.91 g/m*3 15.7 C 0 km/h
1436 02-07-2021 23:35:00 15.6 C 11.84 g/m*3 15.6 C 0 km/h
1437 02-07-2021 23:40:00 15.6 C 11.97 g/m*3 15.6 C 0 km/h
1438 02-07-2021 23:45:00 15.4 C 11.82 g/m*3 15.4 C 0 km/h
1439 02-07-2021 23:50:00 15.3 C 11.75 g/m*3 15.3 C 0 km/h
1440 02-07-2021 23:55:00 15.3 C 11.75 g/m*3 15.3 C 0 km/h
1441 03-07-2021 00:00:00 15.2 C 11.81 g/m*3 15.2 C 0 km/h
1442 03-07-2021 00:05:00 15.2 C 11.81 g/m*3 15.2 C 0 km/h
1443 03-07-2021 00:10:00 15.1 C 11.74 g/m*3 15.1 C 0 km/h
1444 03-07-2021 00:15:00 15 C 11.67 g/m*3 15 C 0 km/h
1445 03-07-2021 00:20:00 14.9 C 11.6 g/m*3 14.9 C 0 km/h
1446 03-07-2021 00:25:00 14.8 C 11.53 g/m*3 14.8 C 0 km/h
1447 03-07-2021 00:30:00 14.8 C 11.65 g/m*3 14.8 C 0 km/h
1448 03-07-2021 00:35:00 14.7 C 11.58 g/m*3 14.7 C 0 km/h
1449 03-07-2021 00:40:00 14.7 C 11.58 g/m*3 14.7 C 0 km/h
1450 03-07-2021 00:45:00 14.6 C 11.51 g/m*3 14.6 C 0 km/h
Sensor: Nr:Datum:Temp:Abs-Feuchte:Windchill:Wind:
Aussen-T/F 1451 03-07-2021 00:50:00 14.5 C 11.44 g/m*3 14.5 C 0 km/h
1452 03-07-2021 00:55:00 14.4 C 11.37 g/m*3 14.4 C 0 km/h
1453 03-07-2021 01:00:00 14.3 C 11.3 g/m*3 14.3 C 0 km/h
1454 03-07-2021 01:05:00 14.3 C 11.3 g/m*3 14.3 C 0 km/h
1455 03-07-2021 01:10:00 14.2 C 11.23 g/m*3 14.2 C 0 km/h
1456 03-07-2021 01:15:00 14.2 C 11.36 g/m*3 14.2 C 0 km/h
1457 03-07-2021 01:20:00 14.1 C 11.29 g/m*3 14.1 C 0 km/h
1458 03-07-2021 01:25:00 14.1 C 11.29 g/m*3 14.1 C 0 km/h
1459 03-07-2021 01:30:00 13.9 C 11.15 g/m*3 13.9 C 0 km/h
1460 03-07-2021 01:35:00 13.9 C 11.15 g/m*3 13.9 C 0 km/h
1461 03-07-2021 01:40:00 13.9 C 11.15 g/m*3 13.9 C 0 km/h
1462 03-07-2021 01:45:00 13.8 C 11.08 g/m*3 13.8 C 0 km/h
1463 03-07-2021 01:50:00 13.8 C 11.2 g/m*3 13.8 C 0 km/h
1464 03-07-2021 01:55:00 13.9 C 11.27 g/m*3 13.9 C 0 km/h
1465 03-07-2021 02:00:00 13.9 C 11.27 g/m*3 13.9 C 0 km/h
1466 03-07-2021 02:05:00 13.9 C 11.27 g/m*3 13.9 C 0 km/h
1467 03-07-2021 02:10:00 13.8 C 11.2 g/m*3 13.8 C 0 km/h
1468 03-07-2021 02:15:00 13.8 C 11.2 g/m*3 13.8 C 0 km/h
1469 03-07-2021 02:20:00 13.7 C 11.13 g/m*3 13.7 C 0 km/h
1470 03-07-2021 02:25:00 13.7 C 11.13 g/m*3 13.7 C 0 km/h
1471 03-07-2021 02:30:00 13.7 C 11.13 g/m*3 13.7 C 0 km/h
1472 03-07-2021 02:35:00 13.6 C 11.06 g/m*3 13.6 C 0 km/h
1473 03-07-2021 02:40:00 13.6 C 11.06 g/m*3 13.6 C 0 km/h
1474 03-07-2021 02:45:00 13.6 C 11.06 g/m*3 13.6 C 0 km/h
1475 03-07-2021 02:50:00 13.6 C 11.06 g/m*3 13.6 C 0 km/h
Sensor: Nr:Datum:Temp:Abs-Feuchte:Windchill:Wind:
Aussen-T/F 1476 03-07-2021 02:55:00 13.6 C 11.18 g/m*3 13.6 C 0 km/h
1477 03-07-2021 03:00:00 13.6 C 11.18 g/m*3 13.6 C 0 km/h
1478 03-07-2021 03:05:00 13.5 C 11.11 g/m*3 13.5 C 0 km/h
1479 03-07-2021 03:10:00 13.5 C 11.11 g/m*3 13.5 C 0 km/h
1480 03-07-2021 03:15:00 13.4 C 10.93 g/m*3 13.4 C 0 km/h
1481 03-07-2021 03:20:00 13.4 C 10.93 g/m*3 13.4 C 0 km/h
1482 03-07-2021 03:25:00 13.4 C 10.93 g/m*3 13.4 C 0 km/h
1483 03-07-2021 03:30:00 13.3 C 10.98 g/m*3 13.3 C 0 km/h
1484 03-07-2021 03:35:00 13.3 C 10.98 g/m*3 13.3 C 0 km/h
1485 03-07-2021 03:40:00 13.3 C 10.98 g/m*3 13.3 C 0 km/h
1486 03-07-2021 03:45:00 13.2 C 10.91 g/m*3 13.2 C 0 km/h
1487 03-07-2021 03:50:00 13.1 C 10.84 g/m*3 13.1 C 0 km/h
1488 03-07-2021 03:55:00 13 C 10.66 g/m*3 13 C 0 km/h
1489 03-07-2021 04:00:00 12.9 C 10.71 g/m*3 12.9 C 0 km/h
1490 03-07-2021 04:05:00 12.9 C 10.71 g/m*3 12.9 C 0 km/h
1491 03-07-2021 04:10:00 12.8 C 10.64 g/m*3 12.8 C 0 km/h
1492 03-07-2021 04:15:00 12.8 C 10.64 g/m*3 12.8 C 0 km/h
1493 03-07-2021 04:20:00 12.7 C 10.58 g/m*3 12.7 C 0 km/h
1494 03-07-2021 04:25:00 12.7 C 10.58 g/m*3 12.7 C 0 km/h
1495 03-07-2021 04:30:00 12.6 C 10.51 g/m*3 12.6 C 0 km/h
1496 03-07-2021 04:35:00 12.6 C 10.51 g/m*3 12.6 C 0 km/h
1497 03-07-2021 04:40:00 12.6 C 10.51 g/m*3 12.6 C 0 km/h
1498 03-07-2021 04:45:00 12.5 C 10.44 g/m*3 12.5 C 0 km/h
1499 03-07-2021 04:50:00 12.5 C 10.44 g/m*3 12.5 C 0 km/h
1500 03-07-2021 04:55:00 12.4 C 10.38 g/m*3 12.4 C 0 km/h
Sensor: Nr:Datum:Temp:Abs-Feuchte:Windchill:Wind:
Aussen-T/F 1501 03-07-2021 05:00:00 12.4 C 10.38 g/m*3 12.4 C 0 km/h
1502 03-07-2021 05:05:00 12.4 C 10.38 g/m*3 12.4 C 0 km/h
1503 03-07-2021 05:10:00 12.4 C 10.38 g/m*3 12.4 C 0 km/h
1504 03-07-2021 05:15:00 12.4 C 10.38 g/m*3 12.4 C 0 km/h
1505 03-07-2021 05:20:00 12.4 C 10.38 g/m*3 12.4 C 0 km/h
1506 03-07-2021 05:25:00 12.4 C 10.38 g/m*3 12.4 C 0 km/h
1507 03-07-2021 05:30:00 12.4 C 10.38 g/m*3 12.4 C 0 km/h
1508 03-07-2021 05:35:00 12.4 C 10.38 g/m*3 12.4 C 0 km/h
1509 03-07-2021 05:40:00 12.3 C 10.32 g/m*3 12.3 C 0 km/h
1510 03-07-2021 05:45:00 12.3 C 10.32 g/m*3 12.3 C 0 km/h
1511 03-07-2021 05:50:00 12.3 C 10.32 g/m*3 12.3 C 0 km/h
1512 03-07-2021 05:55:00 12.3 C 10.42 g/m*3 12.3 C 0 km/h
1513 03-07-2021 06:00:00 12.2 C 10.36 g/m*3 12.2 C 0 km/h
1514 03-07-2021 06:05:00 12.2 C 10.36 g/m*3 12.2 C 0 km/h
1515 03-07-2021 06:10:00 12.2 C 10.36 g/m*3 12.2 C 0 km/h
1516 03-07-2021 06:15:00 12.2 C 10.36 g/m*3 12.2 C 0 km/h
1517 03-07-2021 06:20:00 12.2 C 10.36 g/m*3 12.2 C 0 km/h
1518 03-07-2021 06:25:00 12.2 C 10.36 g/m*3 12.2 C 0 km/h
1519 03-07-2021 06:30:00 12.3 C 10.42 g/m*3 12.3 C 0 km/h
1520 03-07-2021 06:35:00 12.3 C 10.42 g/m*3 12.3 C 0 km/h
1521 03-07-2021 06:40:00 12.3 C 10.42 g/m*3 12.3 C 0 km/h
1522 03-07-2021 06:45:00 12.3 C 10.42 g/m*3 12.3 C 0 km/h
1523 03-07-2021 06:50:00 12.3 C 10.42 g/m*3 12.3 C 0 km/h
1524 03-07-2021 06:55:00 12.3 C 10.42 g/m*3 12.3 C 0 km/h
1525 03-07-2021 07:00:00 12.3 C 10.42 g/m*3 12.3 C 0 km/h
Sensor: Nr:Datum:Temp:Abs-Feuchte:Windchill:Wind:
Aussen-T/F 1526 03-07-2021 07:05:00 12.3 C 10.42 g/m*3 12.3 C 0 km/h
1527 03-07-2021 07:10:00 12.4 C 10.49 g/m*3 12.4 C 0 km/h
1528 03-07-2021 07:15:00 12.4 C 10.49 g/m*3 12.4 C 0 km/h
1529 03-07-2021 07:20:00 12.5 C 10.55 g/m*3 12.5 C 0 km/h
1530 03-07-2021 07:25:00 12.6 C 10.62 g/m*3 12.6 C 0 km/h
1531 03-07-2021 07:30:00 12.6 C 10.62 g/m*3 12.6 C 0 km/h
1532 03-07-2021 07:35:00 12.7 C 10.8 g/m*3 12.7 C 0 km/h
1533 03-07-2021 07:40:00 12.8 C 10.87 g/m*3 12.8 C 0 km/h
1534 03-07-2021 07:45:00 12.9 C 10.82 g/m*3 12.9 C 0 km/h
1535 03-07-2021 07:50:00 13 C 10.89 g/m*3 13 C 0 km/h
1536 03-07-2021 07:55:00 13.1 C 10.95 g/m*3 13.1 C 0 km/h
1537 03-07-2021 08:00:00 13.1 C 11.07 g/m*3 13.1 C 0 km/h
1538 03-07-2021 08:05:00 13.2 C 11.14 g/m*3 13.2 C 3.2 km/h
1539 03-07-2021 08:10:00 13.3 C 11.21 g/m*3 13.3 C 3.2 km/h
1540 03-07-2021 08:15:00 13.4 C 11.28 g/m*3 13.4 C 3.2 km/h
1541 03-07-2021 08:20:00 13.5 C 11.35 g/m*3 13.5 C 1.6 km/h
1542 03-07-2021 08:25:00 13.6 C 11.42 g/m*3 13.6 C 1.6 km/h
1543 03-07-2021 08:30:00 13.7 C 11.49 g/m*3 13.7 C 0 km/h
1544 03-07-2021 08:35:00 13.7 C 11.49 g/m*3 13.7 C 0 km/h
1545 03-07-2021 08:40:00 13.8 C 11.56 g/m*3 13.8 C 1.6 km/h
1546 03-07-2021 08:45:00 13.9 C 11.63 g/m*3 13.9 C 1.6 km/h
1547 03-07-2021 08:50:00 14.1 C 11.77 g/m*3 14.1 C 1.6 km/h
1548 03-07-2021 08:55:00 14.2 C 11.84 g/m*3 14.2 C 0 km/h
1549 03-07-2021 09:00:00 14.3 C 11.92 g/m*3 14.3 C 0 km/h
1550 03-07-2021 09:05:00 14.4 C 11.99 g/m*3 14.4 C 0 km/h
Sensor: Nr:Datum:Temp:Abs-Feuchte:Windchill:Wind:
Aussen-T/F 1551 03-07-2021 09:10:00 14.6 C 12.14 g/m*3 14.6 C 0 km/h
1552 03-07-2021 09:15:00 14.7 C 12.21 g/m*3 14.7 C 0 km/h
1553 03-07-2021 09:20:00 14.8 C 12.29 g/m*3 14.8 C 0 km/h
1554 03-07-2021 09:25:00 15 C 12.44 g/m*3 15 C 0 km/h
1555 03-07-2021 09:30:00 15.2 C 12.59 g/m*3 15.2 C 0 km/h
1556 03-07-2021 09:35:00 15.3 C 12.67 g/m*3 15.3 C 0 km/h
1557 03-07-2021 09:40:00 15.4 C 12.74 g/m*3 15.4 C 0 km/h
1558 03-07-2021 09:45:00 15.6 C 12.9 g/m*3 15.6 C 0 km/h
1559 03-07-2021 09:50:00 15.7 C 12.98 g/m*3 15.7 C 0 km/h
1560 03-07-2021 09:55:00 15.8 C 13.06 g/m*3 15.8 C 0 km/h
1561 03-07-2021 10:00:00 15.9 C 13.14 g/m*3 15.9 C 0 km/h
1562 03-07-2021 10:05:00 16.1 C 13.3 g/m*3 16.1 C 0 km/h
1563 03-07-2021 10:10:00 16.3 C 13.46 g/m*3 16.3 C 0 km/h
1564 03-07-2021 10:15:00 16.4 C 13.54 g/m*3 16.4 C 0 km/h
1565 03-07-2021 10:20:00 16.7 C 13.79 g/m*3 16.7 C 0 km/h
1566 03-07-2021 10:25:00 17 C 14.04 g/m*3 17 C 0 km/h
1567 03-07-2021 10:30:00 17.4 C 14.38 g/m*3 17.4 C 0 km/h
1568 03-07-2021 10:35:00 17.8 C 14.72 g/m*3 17.8 C 0 km/h
1569 03-07-2021 10:40:00 18.2 C 14.92 g/m*3 18.2 C 0 km/h
1570 03-07-2021 10:45:00 18.7 C 15.21 g/m*3 18.7 C 0 km/h
1571 03-07-2021 10:50:00 19 C 15.16 g/m*3 19 C 0 km/h
1572 03-07-2021 10:55:00 19.3 C 15.09 g/m*3 19.3 C 0 km/h
1573 03-07-2021 11:00:00 19.7 C 15.45 g/m*3 19.7 C 0 km/h
1574 03-07-2021 11:05:00 19.9 C 15.29 g/m*3 19.9 C 0 km/h
1575 03-07-2021 11:10:00 20.1 C 15.47 g/m*3 20.1 C 0 km/h
Sensor: Nr:Datum:Temp:Abs-Feuchte:Windchill:Wind:
Aussen-T/F 1576 03-07-2021 11:15:00 20.2 C 15.39 g/m*3 20.2 C 0 km/h
1577 03-07-2021 11:20:00 20.3 C 15.13 g/m*3 20.3 C 1.6 km/h
1578 03-07-2021 11:25:00 20.5 C 15.3 g/m*3 20.5 C 0 km/h
1579 03-07-2021 11:30:00 20.7 C 15.48 g/m*3 20.7 C 0 km/h
1580 03-07-2021 11:35:00 20.8 C 15.21 g/m*3 20.8 C 6.4 km/h
1581 03-07-2021 11:40:00 20.9 C 15.12 g/m*3 20.9 C 6.4 km/h
1582 03-07-2021 11:45:00 21.1 C 14.56 g/m*3 21.1 C 4.8 km/h
1583 03-07-2021 11:50:00 21.2 C 13.9 g/m*3 21.2 C 6.4 km/h
1584 03-07-2021 11:55:00 21.5 C 14.14 g/m*3 21.5 C 1.6 km/h
1585 03-07-2021 12:00:00 21.6 C 13.66 g/m*3 21.6 C 3.2 km/h
1586 03-07-2021 12:05:00 21.8 C 14.01 g/m*3 21.8 C 0 km/h
1587 03-07-2021 12:10:00 21.9 C 13.89 g/m*3 21.9 C 0 km/h
1588 03-07-2021 12:15:00 21.9 C 13.7 g/m*3 21.9 C 4.8 km/h
1589 03-07-2021 12:20:00 22.1 C 13.66 g/m*3 22.1 C 4.8 km/h
1590 03-07-2021 12:25:00 22.2 C 13.94 g/m*3 22.2 C 6.4 km/h
1591 03-07-2021 12:30:00 22.3 C 13.03 g/m*3 22.3 C 3.2 km/h
1592 03-07-2021 12:35:00 22.6 C 13.46 g/m*3 22.6 C 4.8 km/h
1593 03-07-2021 12:40:00 22.8 C 14.02 g/m*3 22.8 C 4.8 km/h
1594 03-07-2021 12:45:00 22.8 C 13.21 g/m*3 22.8 C 4.8 km/h
1595 03-07-2021 12:50:00 23 C 13.77 g/m*3 23 C 8.1 km/h
1596 03-07-2021 12:55:00 23 C 13.36 g/m*3 23 C 4.8 km/h
1597 03-07-2021 13:00:00 23.1 C 11.78 g/m*3 23.1 C 6.4 km/h
1598 03-07-2021 13:05:00 23.3 C 11.08 g/m*3 23.3 C 8.1 km/h
1599 03-07-2021 13:10:00 23.6 C 11.27 g/m*3 23.6 C 6.4 km/h
1600 03-07-2021 13:15:00 23.7 C 11.55 g/m*3 23.7 C 4.8 km/h
Sensor: Nr:Datum:Temp:Abs-Feuchte:Windchill:Wind:
Aussen-T/F 1601 03-07-2021 13:20:00 23.8 C 11.4 g/m*3 23.8 C 8.1 km/h
1602 03-07-2021 13:25:00 23.8 C 11.19 g/m*3 23.8 C 4.8 km/h
1603 03-07-2021 13:30:00 23.9 C 11.9 g/m*3 23.9 C 0 km/h
1604 03-07-2021 13:35:00 23.9 C 11.47 g/m*3 23.9 C 6.4 km/h
1605 03-07-2021 13:40:00 24 C 11.97 g/m*3 24 C 8.1 km/h
1606 03-07-2021 13:45:00 24.1 C 12.03 g/m*3 24.1 C 0 km/h
1607 03-07-2021 13:50:00 24.2 C 13.42 g/m*3 24.2 C 1.6 km/h
1608 03-07-2021 13:55:00 24.3 C 12.39 g/m*3 24.3 C 4.8 km/h
1609 03-07-2021 14:00:00 24.4 C 11.79 g/m*3 24.4 C 6.4 km/h
1610 03-07-2021 14:05:00 24.7 C 12.22 g/m*3 24.7 C 4.8 km/h
1611 03-07-2021 14:10:00 24.8 C 12.29 g/m*3 24.8 C 6.4 km/h
1612 03-07-2021 14:15:00 25 C 14.04 g/m*3 25 C 3.2 km/h
1613 03-07-2021 14:20:00 25.2 C 12.8 g/m*3 25.2 C 6.4 km/h
1614 03-07-2021 14:25:00 25.6 C 12.62 g/m*3 25.6 C 4.8 km/h
1615 03-07-2021 14:30:00 25.9 C 12.35 g/m*3 25.9 C 8.1 km/h
1616 03-07-2021 14:35:00 25.9 C 12.35 g/m*3 25.9 C 4.8 km/h
1617 03-07-2021 14:40:00 26.1 C 15.42 g/m*3 26.1 C 1.6 km/h
1618 03-07-2021 14:45:00 25.8 C 14.45 g/m*3 25.8 C 4.8 km/h
1619 03-07-2021 14:50:00 25.5 C 15.63 g/m*3 25.5 C 0 km/h
1620 03-07-2021 14:55:00 25.4 C 15.54 g/m*3 25.4 C 0 km/h
1621 03-07-2021 15:00:00 25.3 C 12.64 g/m*3 25.3 C 4.8 km/h
1622 03-07-2021 15:05:00 25.5 C 12.55 g/m*3 25.5 C 8.1 km/h
1623 03-07-2021 15:10:00 25.7 C 12.45 g/m*3 25.7 C 4.8 km/h
1624 03-07-2021 15:15:00 25.8 C 14.2 g/m*3 25.8 C 8.1 km/h
1625 03-07-2021 15:20:00 25.9 C 15.98 g/m*3 25.9 C 0 km/h
Sensor: Nr:Datum:Temp:Abs-Feuchte:Windchill:Wind:
Aussen-T/F 1626 03-07-2021 15:25:00 25.8 C 15.89 g/m*3 25.8 C 0 km/h
1627 03-07-2021 15:30:00 25.7 C 16.28 g/m*3 25.7 C 0 km/h
1628 03-07-2021 15:35:00 25.4 C 16.72 g/m*3 25.4 C 0 km/h
1629 03-07-2021 15:40:00 25.2 C 16.99 g/m*3 25.2 C 0 km/h
1630 03-07-2021 15:45:00 25.1 C 16.9 g/m*3 25.1 C 0 km/h
1631 03-07-2021 15:50:00 25 C 17.26 g/m*3 25 C 0 km/h
1632 03-07-2021 15:55:00 24.8 C 16.16 g/m*3 24.8 C 0 km/h
1633 03-07-2021 16:00:00 24.6 C 15.98 g/m*3 24.6 C 0 km/h
1634 03-07-2021 16:05:00 24.3 C 16.15 g/m*3 24.3 C 4.8 km/h
1635 03-07-2021 16:10:00 24.1 C 16.19 g/m*3 24.1 C 0 km/h
1636 03-07-2021 16:15:00 23.8 C 16.13 g/m*3 23.8 C 0 km/h
1637 03-07-2021 16:20:00 23.6 C 16.16 g/m*3 23.6 C 4.8 km/h
1638 03-07-2021 16:25:00 23.5 C 16.07 g/m*3 23.5 C 4.8 km/h
1639 03-07-2021 16:30:00 23.6 C 16.8 g/m*3 23.6 C 3.2 km/h
1640 03-07-2021 16:35:00 23.9 C 17.31 g/m*3 23.9 C 0 km/h
1641 03-07-2021 16:40:00 24.3 C 15.71 g/m*3 24.3 C 0 km/h
1642 03-07-2021 16:45:00 24.8 C 17.3 g/m*3 24.8 C 0 km/h
1643 03-07-2021 16:50:00 25.1 C 17.59 g/m*3 25.1 C 0 km/h
1644 03-07-2021 16:55:00 25.2 C 17.46 g/m*3 25.2 C 0 km/h
1645 03-07-2021 17:00:00 25.3 C 17.79 g/m*3 25.3 C 0 km/h
1646 03-07-2021 17:05:00 25.5 C 16.57 g/m*3 25.5 C 0 km/h
1647 03-07-2021 17:10:00 25.7 C 17.48 g/m*3 25.7 C 0 km/h
1648 03-07-2021 17:15:00 25.7 C 17.24 g/m*3 25.7 C 0 km/h
1649 03-07-2021 17:20:00 25.7 C 17.48 g/m*3 25.7 C 0 km/h
1650 03-07-2021 17:25:00 25.6 C 17.62 g/m*3 25.6 C 0 km/h
Sensor: Nr:Datum:Temp:Abs-Feuchte:Windchill:Wind:
Aussen-T/F 1651 03-07-2021 17:30:00 25.6 C 17.62 g/m*3 25.6 C 0 km/h
1652 03-07-2021 17:35:00 25.4 C 17.19 g/m*3 25.4 C 3.2 km/h
1653 03-07-2021 17:40:00 25.5 C 17.52 g/m*3 25.5 C 0 km/h
1654 03-07-2021 17:45:00 25.6 C 17.62 g/m*3 25.6 C 0 km/h
1655 03-07-2021 17:50:00 25.8 C 17.33 g/m*3 25.8 C 0 km/h
1656 03-07-2021 17:55:00 26.2 C 17.73 g/m*3 26.2 C 0 km/h
1657 03-07-2021 18:00:00 26.3 C 13.86 g/m*3 26.3 C 3.2 km/h
1658 03-07-2021 18:05:00 26.6 C 17.62 g/m*3 26.6 C 3.2 km/h
1659 03-07-2021 18:10:00 26.6 C 17.87 g/m*3 26.6 C 0 km/h
1660 03-07-2021 18:15:00 26.3 C 17.58 g/m*3 26.3 C 1.6 km/h
1661 03-07-2021 18:20:00 25.9 C 17.43 g/m*3 25.9 C 4.8 km/h
1662 03-07-2021 18:25:00 25.6 C 17.14 g/m*3 25.6 C 0 km/h
1663 03-07-2021 18:30:00 25.4 C 17.42 g/m*3 25.4 C 0 km/h
1664 03-07-2021 18:35:00 25.4 C 17.66 g/m*3 25.4 C 0 km/h
1665 03-07-2021 18:40:00 25.6 C 18.09 g/m*3 25.6 C 0 km/h
1666 03-07-2021 18:45:00 25.6 C 17.62 g/m*3 25.6 C 0 km/h
1667 03-07-2021 18:50:00 25.4 C 17.19 g/m*3 25.4 C 0 km/h
1668 03-07-2021 18:55:00 25.1 C 16.67 g/m*3 25.1 C 0 km/h
1669 03-07-2021 19:00:00 24.6 C 16.43 g/m*3 24.6 C 4.8 km/h
1670 03-07-2021 19:05:00 24.2 C 14.52 g/m*3 24.2 C 11.3 km/h
1671 03-07-2021 19:10:00 24 C 14.14 g/m*3 24 C 11.3 km/h
1672 03-07-2021 19:15:00 23.9 C 14.49 g/m*3 23.9 C 9.7 km/h
1673 03-07-2021 19:20:00 23.9 C 14.28 g/m*3 23.9 C 11.3 km/h
1674 03-07-2021 19:25:00 23.7 C 13.9 g/m*3 23.7 C 12.9 km/h
1675 03-07-2021 19:30:00 23.4 C 13.88 g/m*3 23.4 C 12.9 km/h
Sensor: Nr:Datum:Temp:Abs-Feuchte:Windchill:Wind:
Aussen-T/F 1676 03-07-2021 19:35:00 23.3 C 14.01 g/m*3 23.3 C 9.7 km/h
1677 03-07-2021 19:40:00 23.3 C 14.01 g/m*3 23.3 C 8.1 km/h
1678 03-07-2021 19:45:00 23.3 C 14.64 g/m*3 23.3 C 8.1 km/h
1679 03-07-2021 19:50:00 23.2 C 13.93 g/m*3 23.2 C 8.1 km/h
1680 03-07-2021 19:55:00 23.1 C 14.06 g/m*3 23.1 C 4.8 km/h
1681 03-07-2021 20:00:00 22.8 C 13.82 g/m*3 22.8 C 8.1 km/h
1682 03-07-2021 20:05:00 22.7 C 14.75 g/m*3 22.7 C 1.6 km/h
1683 03-07-2021 20:10:00 22.6 C 14.66 g/m*3 22.6 C 0 km/h
1684 03-07-2021 20:15:00 22.3 C 14.41 g/m*3 22.3 C 0 km/h
1685 03-07-2021 20:20:00 22.1 C 14.64 g/m*3 22.1 C 0 km/h
1686 03-07-2021 20:25:00 21.8 C 14.77 g/m*3 21.8 C 0 km/h
1687 03-07-2021 20:30:00 21.5 C 14.71 g/m*3 21.5 C 0 km/h
1688 03-07-2021 20:35:00 21.3 C 14.73 g/m*3 21.3 C 0 km/h
1689 03-07-2021 20:40:00 21.1 C 14.74 g/m*3 21.1 C 0 km/h
1690 03-07-2021 20:45:00 20.8 C 14.49 g/m*3 20.8 C 0 km/h
1691 03-07-2021 20:50:00 20.6 C 14.5 g/m*3 20.6 C 0 km/h
1692 03-07-2021 20:55:00 20.4 C 14.51 g/m*3 20.4 C 0 km/h
1693 03-07-2021 21:00:00 20.2 C 14.34 g/m*3 20.2 C 4.8 km/h
1694 03-07-2021 21:05:00 20.1 C 14.43 g/m*3 20.1 C 6.4 km/h
1695 03-07-2021 21:10:00 19.9 C 14.26 g/m*3 19.9 C 6.4 km/h
1696 03-07-2021 21:15:00 19.8 C 14.52 g/m*3 19.8 C 4.8 km/h
1697 03-07-2021 21:20:00 19.7 C 14.26 g/m*3 19.7 C 6.4 km/h
1698 03-07-2021 21:25:00 19.6 C 14.35 g/m*3 19.6 C 6.4 km/h
1699 03-07-2021 21:30:00 19.4 C 14.35 g/m*3 19.4 C 6.4 km/h
1700 03-07-2021 21:35:00 19.3 C 14.26 g/m*3 19.3 C 3.2 km/h
Sensor: Nr:Datum:Temp:Abs-Feuchte:Windchill:Wind:
Aussen-T/F 1701 03-07-2021 21:40:00 19.3 C 14.26 g/m*3 19.3 C 3.2 km/h
1702 03-07-2021 21:45:00 19.1 C 14.1 g/m*3 19.1 C 4.8 km/h
1703 03-07-2021 21:50:00 19 C 14.01 g/m*3 19 C 4.8 km/h
1704 03-07-2021 21:55:00 18.9 C 13.93 g/m*3 18.9 C 4.8 km/h
1705 03-07-2021 22:00:00 18.9 C 13.93 g/m*3 18.9 C 4.8 km/h
1706 03-07-2021 22:05:00 18.9 C 13.93 g/m*3 18.9 C 4.8 km/h
1707 03-07-2021 22:10:00 18.8 C 14.01 g/m*3 18.8 C 6.4 km/h
1708 03-07-2021 22:15:00 18.8 C 14.01 g/m*3 18.8 C 4.8 km/h
1709 03-07-2021 22:20:00 18.9 C 14.09 g/m*3 18.9 C 6.4 km/h
1710 03-07-2021 22:25:00 18.9 C 14.09 g/m*3 18.9 C 4.8 km/h
1711 03-07-2021 22:30:00 18.9 C 14.09 g/m*3 18.9 C 1.6 km/h
1712 03-07-2021 22:35:00 18.9 C 13.93 g/m*3 18.9 C 3.2 km/h
1713 03-07-2021 22:40:00 18.9 C 13.93 g/m*3 18.9 C 4.8 km/h
1714 03-07-2021 22:45:00 19 C 14.01 g/m*3 19 C 1.6 km/h
1715 03-07-2021 22:50:00 19 C 14.01 g/m*3 19 C 0 km/h
1716 03-07-2021 22:55:00 19.1 C 14.1 g/m*3 19.1 C 3.2 km/h
1717 03-07-2021 23:00:00 19.1 C 14.26 g/m*3 19.1 C 0 km/h
1718 03-07-2021 23:05:00 19.2 C 14.51 g/m*3 19.2 C 0 km/h
1719 03-07-2021 23:10:00 19.2 C 14.51 g/m*3 19.2 C 3.2 km/h
1720 03-07-2021 23:15:00 19.1 C 14.59 g/m*3 19.1 C 1.6 km/h
1721 03-07-2021 23:20:00 18.9 C 14.42 g/m*3 18.9 C 1.6 km/h
1722 03-07-2021 23:25:00 18.8 C 14.33 g/m*3 18.8 C 0 km/h
1723 03-07-2021 23:30:00 18.7 C 14.25 g/m*3 18.7 C 1.6 km/h
1724 03-07-2021 23:35:00 18.6 C 14.32 g/m*3 18.6 C 3.2 km/h
1725 03-07-2021 23:40:00 18.4 C 14.16 g/m*3 18.4 C 0 km/h
Sensor: Nr:Datum:Temp:Abs-Feuchte:Windchill:Wind:
Aussen-T/F 1726 03-07-2021 23:45:00 18.4 C 14.31 g/m*3 18.4 C 3.2 km/h
1727 03-07-2021 23:50:00 18.3 C 14.23 g/m*3 18.3 C 0 km/h
1728 03-07-2021 23:55:00 18.2 C 14.14 g/m*3 18.2 C 1.6 km/h
1729 04-07-2021 00:00:00 18.1 C 14.06 g/m*3 18.1 C 3.2 km/h
1730 04-07-2021 00:05:00 18.1 C 14.06 g/m*3 18.1 C 3.2 km/h
1731 04-07-2021 00:10:00 18 C 14.13 g/m*3 18 C 4.8 km/h
1732 04-07-2021 00:15:00 17.9 C 14.05 g/m*3 17.9 C 3.2 km/h
1733 04-07-2021 00:20:00 17.9 C 14.05 g/m*3 17.9 C 4.8 km/h
1734 04-07-2021 00:25:00 17.8 C 13.96 g/m*3 17.8 C 3.2 km/h
1735 04-07-2021 00:30:00 17.8 C 13.96 g/m*3 17.8 C 4.8 km/h
1736 04-07-2021 00:35:00 17.8 C 14.12 g/m*3 17.8 C 4.8 km/h
1737 04-07-2021 00:40:00 17.8 C 14.12 g/m*3 17.8 C 0 km/h
1738 04-07-2021 00:45:00 17.7 C 14.03 g/m*3 17.7 C 3.2 km/h
1739 04-07-2021 00:50:00 17.7 C 14.03 g/m*3 17.7 C 3.2 km/h
1740 04-07-2021 00:55:00 17.7 C 14.03 g/m*3 17.7 C 3.2 km/h
1741 04-07-2021 01:00:00 17.7 C 14.03 g/m*3 17.7 C 1.6 km/h
1742 04-07-2021 01:05:00 17.6 C 13.95 g/m*3 17.6 C 1.6 km/h
1743 04-07-2021 01:10:00 17.6 C 13.95 g/m*3 17.6 C 1.6 km/h
1744 04-07-2021 01:15:00 17.6 C 13.95 g/m*3 17.6 C 0 km/h
1745 04-07-2021 01:20:00 17.6 C 13.95 g/m*3 17.6 C 0 km/h
1746 04-07-2021 01:25:00 17.6 C 13.95 g/m*3 17.6 C 0 km/h
1747 04-07-2021 01:30:00 17.5 C 13.87 g/m*3 17.5 C 0 km/h
1748 04-07-2021 01:35:00 17.4 C 13.78 g/m*3 17.4 C 0 km/h
1749 04-07-2021 01:40:00 17.4 C 13.78 g/m*3 17.4 C 3.2 km/h
1750 04-07-2021 01:45:00 17.3 C 13.85 g/m*3 17.3 C 0 km/h
Sensor: Nr:Datum:Temp:Abs-Feuchte:Windchill:Wind:
Aussen-T/F 1751 04-07-2021 01:50:00 17.3 C 13.7 g/m*3 17.3 C 1.6 km/h
1752 04-07-2021 01:55:00 17.2 C 13.62 g/m*3 17.2 C 0 km/h
1753 04-07-2021 02:00:00 17.2 C 13.62 g/m*3 17.2 C 0 km/h
1754 04-07-2021 02:05:00 17.1 C 13.68 g/m*3 17.1 C 0 km/h
1755 04-07-2021 02:10:00 17.1 C 13.68 g/m*3 17.1 C 1.6 km/h
1756 04-07-2021 02:15:00 17.1 C 13.68 g/m*3 17.1 C 0 km/h
1757 04-07-2021 02:20:00 17.1 C 13.68 g/m*3 17.1 C 1.6 km/h
1758 04-07-2021 02:25:00 17 C 13.6 g/m*3 17 C 1.6 km/h
1759 04-07-2021 02:30:00 17 C 13.6 g/m*3 17 C 1.6 km/h
1760 04-07-2021 02:35:00 16.9 C 13.52 g/m*3 16.9 C 0 km/h
1761 04-07-2021 02:40:00 16.9 C 13.52 g/m*3 16.9 C 0 km/h
1762 04-07-2021 02:45:00 16.9 C 13.52 g/m*3 16.9 C 0 km/h
1763 04-07-2021 02:50:00 16.9 C 13.52 g/m*3 16.9 C 0 km/h
1764 04-07-2021 02:55:00 16.8 C 13.44 g/m*3 16.8 C 0 km/h
1765 04-07-2021 03:00:00 16.8 C 13.44 g/m*3 16.8 C 0 km/h
1766 04-07-2021 03:05:00 16.7 C 13.36 g/m*3 16.7 C 0 km/h
1767 04-07-2021 03:10:00 16.7 C 13.36 g/m*3 16.7 C 1.6 km/h
1768 04-07-2021 03:15:00 16.7 C 13.36 g/m*3 16.7 C 3.2 km/h
1769 04-07-2021 03:20:00 16.7 C 13.5 g/m*3 16.7 C 1.6 km/h
1770 04-07-2021 03:25:00 16.7 C 13.5 g/m*3 16.7 C 1.6 km/h
1771 04-07-2021 03:30:00 16.7 C 13.5 g/m*3 16.7 C 0 km/h
1772 04-07-2021 03:35:00 16.7 C 13.5 g/m*3 16.7 C 0 km/h
1773 04-07-2021 03:40:00 16.7 C 13.5 g/m*3 16.7 C 0 km/h
1774 04-07-2021 03:45:00 16.7 C 13.5 g/m*3 16.7 C 0 km/h
1775 04-07-2021 03:50:00 16.7 C 13.5 g/m*3 16.7 C 0 km/h
Sensor: Nr:Datum:Temp:Abs-Feuchte:Windchill:Wind:
Aussen-T/F 1776 04-07-2021 03:55:00 16.7 C 13.5 g/m*3 16.7 C 0 km/h
1777 04-07-2021 04:00:00 16.8 C 13.58 g/m*3 16.8 C 0 km/h
1778 04-07-2021 04:05:00 16.7 C 13.5 g/m*3 16.7 C 0 km/h
1779 04-07-2021 04:10:00 16.7 C 13.5 g/m*3 16.7 C 0 km/h
1780 04-07-2021 04:15:00 16.7 C 13.5 g/m*3 16.7 C 0 km/h
1781 04-07-2021 04:20:00 16.7 C 13.5 g/m*3 16.7 C 0 km/h
1782 04-07-2021 04:25:00 16.7 C 13.5 g/m*3 16.7 C 0 km/h
1783 04-07-2021 04:30:00 16.7 C 13.5 g/m*3 16.7 C 0 km/h
1784 04-07-2021 04:35:00 16.6 C 13.42 g/m*3 16.6 C 0 km/h
1785 04-07-2021 04:40:00 16.6 C 13.42 g/m*3 16.6 C 0 km/h
1786 04-07-2021 04:45:00 16.6 C 13.42 g/m*3 16.6 C 0 km/h
1787 04-07-2021 04:50:00 16.6 C 13.42 g/m*3 16.6 C 0 km/h
1788 04-07-2021 04:55:00 16.6 C 13.42 g/m*3 16.6 C 0 km/h
1789 04-07-2021 05:00:00 16.6 C 13.42 g/m*3 16.6 C 0 km/h
1790 04-07-2021 05:05:00 16.6 C 13.56 g/m*3 16.6 C 0 km/h
1791 04-07-2021 05:10:00 16.6 C 13.56 g/m*3 16.6 C 0 km/h
1792 04-07-2021 05:15:00 16.6 C 13.56 g/m*3 16.6 C 0 km/h
1793 04-07-2021 05:20:00 16.6 C 13.56 g/m*3 16.6 C 0 km/h
1794 04-07-2021 05:25:00 16.6 C 13.56 g/m*3 16.6 C 0 km/h
1795 04-07-2021 05:30:00 16.5 C 13.48 g/m*3 16.5 C 0 km/h
1796 04-07-2021 05:35:00 16.5 C 13.48 g/m*3 16.5 C 0 km/h
1797 04-07-2021 05:40:00 16.5 C 13.48 g/m*3 16.5 C 0 km/h
1798 04-07-2021 05:45:00 16.6 C 13.56 g/m*3 16.6 C 0 km/h
1799 04-07-2021 05:50:00 16.6 C 13.56 g/m*3 16.6 C 0 km/h
1800 04-07-2021 05:55:00 16.6 C 13.56 g/m*3 16.6 C 0 km/h
Sensor: Nr:Datum:Temp:Abs-Feuchte:Windchill:Wind:
Aussen-T/F 1801 04-07-2021 06:00:00 16.6 C 13.56 g/m*3 16.6 C 0 km/h
1802 04-07-2021 06:05:00 16.6 C 13.56 g/m*3 16.6 C 0 km/h
1803 04-07-2021 06:10:00 16.6 C 13.56 g/m*3 16.6 C 0 km/h
1804 04-07-2021 06:15:00 16.6 C 13.56 g/m*3 16.6 C 0 km/h
1805 04-07-2021 06:20:00 16.6 C 13.56 g/m*3 16.6 C 0 km/h
1806 04-07-2021 06:25:00 16.6 C 13.56 g/m*3 16.6 C 0 km/h
1807 04-07-2021 06:30:00 16.6 C 13.56 g/m*3 16.6 C 0 km/h
1808 04-07-2021 06:35:00 16.7 C 13.64 g/m*3 16.7 C 0 km/h
1809 04-07-2021 06:40:00 16.7 C 13.64 g/m*3 16.7 C 0 km/h
1810 04-07-2021 06:45:00 16.7 C 13.64 g/m*3 16.7 C 0 km/h
1811 04-07-2021 06:50:00 16.8 C 13.73 g/m*3 16.8 C 0 km/h
1812 04-07-2021 06:55:00 16.8 C 13.73 g/m*3 16.8 C 0 km/h
1813 04-07-2021 07:00:00 16.8 C 13.73 g/m*3 16.8 C 0 km/h
1814 04-07-2021 07:05:00 16.9 C 13.81 g/m*3 16.9 C 0 km/h
1815 04-07-2021 07:10:00 16.9 C 13.81 g/m*3 16.9 C 0 km/h
1816 04-07-2021 07:15:00 17 C 13.89 g/m*3 17 C 0 km/h
1817 04-07-2021 07:20:00 17.1 C 13.97 g/m*3 17.1 C 0 km/h
1818 04-07-2021 07:25:00 17.1 C 13.97 g/m*3 17.1 C 0 km/h
1819 04-07-2021 07:30:00 17.1 C 13.97 g/m*3 17.1 C 0 km/h
1820 04-07-2021 07:35:00 17.2 C 14.06 g/m*3 17.2 C 0 km/h
1821 04-07-2021 07:40:00 17.2 C 14.06 g/m*3 17.2 C 0 km/h
1822 04-07-2021 07:45:00 17.3 C 14.14 g/m*3 17.3 C 0 km/h
1823 04-07-2021 07:50:00 17.3 C 14.14 g/m*3 17.3 C 0 km/h
1824 04-07-2021 07:55:00 17.3 C 14.14 g/m*3 17.3 C 0 km/h
1825 04-07-2021 08:00:00 17.4 C 14.23 g/m*3 17.4 C 0 km/h
Sensor: Nr:Datum:Temp:Abs-Feuchte:Windchill:Wind:
Aussen-T/F 1826 04-07-2021 08:05:00 17.4 C 14.23 g/m*3 17.4 C 0 km/h
1827 04-07-2021 08:10:00 17.4 C 14.23 g/m*3 17.4 C 0 km/h
1828 04-07-2021 08:15:00 17.4 C 14.23 g/m*3 17.4 C 0 km/h
1829 04-07-2021 08:20:00 17.4 C 14.23 g/m*3 17.4 C 0 km/h
1830 04-07-2021 08:25:00 17.4 C 14.23 g/m*3 17.4 C 0 km/h
1831 04-07-2021 08:30:00 17.4 C 14.23 g/m*3 17.4 C 0 km/h
1832 04-07-2021 08:35:00 17.4 C 14.23 g/m*3 17.4 C 0 km/h
1833 04-07-2021 08:40:00 17.4 C 14.23 g/m*3 17.4 C 0 km/h
1834 04-07-2021 08:45:00 17.6 C 14.4 g/m*3 17.6 C 0 km/h
1835 04-07-2021 08:50:00 17.7 C 14.48 g/m*3 17.7 C 0 km/h
1836 04-07-2021 08:55:00 17.8 C 14.57 g/m*3 17.8 C 0 km/h
1837 04-07-2021 09:00:00 17.9 C 14.66 g/m*3 17.9 C 6.4 km/h
1838 04-07-2021 09:05:00 18 C 14.75 g/m*3 18 C 4.8 km/h
1839 04-07-2021 09:10:00 18.2 C 14.92 g/m*3 18.2 C 4.8 km/h
1840 04-07-2021 09:15:00 18.3 C 14.85 g/m*3 18.3 C 6.4 km/h
1841 04-07-2021 09:20:00 18.6 C 14.96 g/m*3 18.6 C 8.1 km/h
1842 04-07-2021 09:25:00 18.9 C 15.07 g/m*3 18.9 C 8.1 km/h
1843 04-07-2021 09:30:00 19.3 C 15.26 g/m*3 19.3 C 6.4 km/h
1844 04-07-2021 09:35:00 19.6 C 15.19 g/m*3 19.6 C 4.8 km/h
1845 04-07-2021 09:40:00 19.9 C 15.46 g/m*3 19.9 C 1.6 km/h
1846 04-07-2021 09:45:00 20.1 C 15.47 g/m*3 20.1 C 0 km/h
1847 04-07-2021 09:50:00 20.2 C 15.56 g/m*3 20.2 C 0 km/h
1848 04-07-2021 09:55:00 20.3 C 15.65 g/m*3 20.3 C 0 km/h
1849 04-07-2021 10:00:00 20.3 C 15.3 g/m*3 20.3 C 4.8 km/h
1850 04-07-2021 10:05:00 20.4 C 15.39 g/m*3 20.4 C 3.2 km/h
Sensor: Nr:Datum:Temp:Abs-Feuchte:Windchill:Wind:
Aussen-T/F 1851 04-07-2021 10:10:00 20.6 C 15.03 g/m*3 20.6 C 6.4 km/h
1852 04-07-2021 10:15:00 20.7 C 15.3 g/m*3 20.7 C 0 km/h
1853 04-07-2021 10:20:00 20.9 C 15.66 g/m*3 20.9 C 1.6 km/h
1854 04-07-2021 10:25:00 21.1 C 15.48 g/m*3 21.1 C 3.2 km/h
1855 04-07-2021 10:30:00 21.3 C 15.1 g/m*3 21.3 C 4.8 km/h
1856 04-07-2021 10:35:00 21.8 C 15.54 g/m*3 21.8 C 1.6 km/h
1857 04-07-2021 10:40:00 22.2 C 15.51 g/m*3 22.2 C 4.8 km/h
1858 04-07-2021 10:45:00 22.6 C 15.67 g/m*3 22.6 C 1.6 km/h
1859 04-07-2021 10:50:00 22.8 C 15.24 g/m*3 22.8 C 4.8 km/h
1860 04-07-2021 10:55:00 22.9 C 15.33 g/m*3 22.9 C 1.6 km/h
1861 04-07-2021 11:00:00 22.9 C 15.74 g/m*3 22.9 C 0 km/h
1862 04-07-2021 11:05:00 23.1 C 15.92 g/m*3 23.1 C 1.6 km/h
1863 04-07-2021 11:10:00 23 C 15.42 g/m*3 23 C 3.2 km/h
1864 04-07-2021 11:15:00 23 C 15.62 g/m*3 23 C 3.2 km/h
1865 04-07-2021 11:20:00 23.1 C 15.92 g/m*3 23.1 C 1.6 km/h
1866 04-07-2021 11:25:00 23.1 C 15.71 g/m*3 23.1 C 3.2 km/h
1867 04-07-2021 11:30:00 23.1 C 15.3 g/m*3 23.1 C 3.2 km/h
1868 04-07-2021 11:35:00 23.2 C 15.8 g/m*3 23.2 C 1.6 km/h
1869 04-07-2021 11:40:00 23.2 C 16.01 g/m*3 23.2 C 0 km/h
1870 04-07-2021 11:45:00 23.2 C 17.05 g/m*3 23.2 C 0 km/h
1871 04-07-2021 11:50:00 23.2 C 17.26 g/m*3 23.2 C 0 km/h
1872 04-07-2021 11:55:00 22.9 C 17.37 g/m*3 22.9 C 1.6 km/h
1873 04-07-2021 12:00:00 22.4 C 16.88 g/m*3 22.4 C 0 km/h
1874 04-07-2021 12:05:00 21.7 C 16.21 g/m*3 21.7 C 9.7 km/h
1875 04-07-2021 12:10:00 21 C 15.94 g/m*3 21 C 9.7 km/h
Sensor: Nr:Datum:Temp:Abs-Feuchte:Windchill:Wind:
Aussen-T/F 1876 04-07-2021 12:15:00 20 C 15.04 g/m*3 20 C 12.9 km/h
1877 04-07-2021 12:20:00 19.3 C 14.6 g/m*3 19.3 C 9.7 km/h
1878 04-07-2021 12:25:00 18.8 C 14.33 g/m*3 18.8 C 8.1 km/h
1879 04-07-2021 12:30:00 18.4 C 14.16 g/m*3 18.4 C 8.1 km/h
1880 04-07-2021 12:35:00 18.2 C 14.14 g/m*3 18.2 C 4.8 km/h
1881 04-07-2021 12:40:00 18.1 C 14.21 g/m*3 18.1 C 6.4 km/h
1882 04-07-2021 12:45:00 17.9 C 14.05 g/m*3 17.9 C 8.1 km/h
1883 04-07-2021 12:50:00 17.8 C 13.96 g/m*3 17.8 C 0 km/h
1884 04-07-2021 12:55:00 17.7 C 14.03 g/m*3 17.7 C 1.6 km/h
1885 04-07-2021 13:00:00 17.7 C 14.03 g/m*3 17.7 C 1.6 km/h
1886 04-07-2021 13:05:00 17.7 C 14.03 g/m*3 17.7 C 6.4 km/h
1887 04-07-2021 13:10:00 17.8 C 14.27 g/m*3 17.8 C 1.6 km/h
1888 04-07-2021 13:15:00 17.9 C 14.5 g/m*3 17.9 C 0 km/h
1889 04-07-2021 13:20:00 18.1 C 14.68 g/m*3 18.1 C 1.6 km/h
1890 04-07-2021 13:25:00 18.2 C 14.77 g/m*3 18.2 C 3.2 km/h
1891 04-07-2021 13:30:00 18.3 C 14.85 g/m*3 18.3 C 1.6 km/h
1892 04-07-2021 13:35:00 18.4 C 14.94 g/m*3 18.4 C 0 km/h
1893 04-07-2021 13:40:00 18.4 C 14.94 g/m*3 18.4 C 1.6 km/h
1894 04-07-2021 13:45:00 18.6 C 15.12 g/m*3 18.6 C 0 km/h
1895 04-07-2021 13:50:00 18.7 C 15.21 g/m*3 18.7 C 1.6 km/h
1896 04-07-2021 13:55:00 18.7 C 15.21 g/m*3 18.7 C 1.6 km/h
1897 04-07-2021 14:00:00 18.7 C 15.21 g/m*3 18.7 C 0 km/h
1898 04-07-2021 14:05:00 18.8 C 15.3 g/m*3 18.8 C 0 km/h
1899 04-07-2021 14:10:00 18.9 C 15.39 g/m*3 18.9 C 0 km/h
1900 04-07-2021 14:15:00 19.1 C 15.57 g/m*3 19.1 C 0 km/h
Sensor: Nr:Datum:Temp:Abs-Feuchte:Windchill:Wind:
Aussen-T/F 1901 04-07-2021 14:20:00 19.2 C 15.66 g/m*3 19.2 C 0 km/h
1902 04-07-2021 14:25:00 19.1 C 15.57 g/m*3 19.1 C 3.2 km/h
1903 04-07-2021 14:30:00 19.1 C 15.57 g/m*3 19.1 C 1.6 km/h
1904 04-07-2021 14:35:00 19 C 15.48 g/m*3 19 C 1.6 km/h
1905 04-07-2021 14:40:00 18.8 C 15.14 g/m*3 18.8 C 1.6 km/h
1906 04-07-2021 14:45:00 18.6 C 14.96 g/m*3 18.6 C 3.2 km/h
1907 04-07-2021 14:50:00 18.3 C 14.54 g/m*3 18.3 C 3.2 km/h
1908 04-07-2021 14:55:00 18.2 C 14.61 g/m*3 18.2 C 1.6 km/h
1909 04-07-2021 15:00:00 18.2 C 14.61 g/m*3 18.2 C 1.6 km/h
1910 04-07-2021 15:05:00 18.2 C 14.61 g/m*3 18.2 C 1.6 km/h
1911 04-07-2021 15:10:00 18.2 C 14.77 g/m*3 18.2 C 0 km/h
1912 04-07-2021 15:15:00 18.2 C 14.77 g/m*3 18.2 C 0 km/h
1913 04-07-2021 15:20:00 18.3 C 14.85 g/m*3 18.3 C 3.2 km/h
1914 04-07-2021 15:25:00 18.3 C 14.85 g/m*3 18.3 C 1.6 km/h
1915 04-07-2021 15:30:00 18.4 C 14.94 g/m*3 18.4 C 3.2 km/h
1916 04-07-2021 15:35:00 18.4 C 14.94 g/m*3 18.4 C 3.2 km/h
1917 04-07-2021 15:40:00 18.6 C 15.28 g/m*3 18.6 C 3.2 km/h
1918 04-07-2021 15:45:00 18.7 C 15.37 g/m*3 18.7 C 3.2 km/h
1919 04-07-2021 15:50:00 18.8 C 15.46 g/m*3 18.8 C 4.8 km/h
1920 04-07-2021 15:55:00 18.8 C 15.3 g/m*3 18.8 C 0 km/h
1921 04-07-2021 16:00:00 19 C 15.64 g/m*3 19 C 3.2 km/h
1922 04-07-2021 16:05:00 19.2 C 15.83 g/m*3 19.2 C 3.2 km/h
1923 04-07-2021 16:10:00 19.3 C 15.92 g/m*3 19.3 C 0 km/h
1924 04-07-2021 16:15:00 19.4 C 16.02 g/m*3 19.4 C 0 km/h
1925 04-07-2021 16:20:00 19.7 C 16.3 g/m*3 19.7 C 4.8 km/h
Sensor: Nr:Datum:Temp:Abs-Feuchte:Windchill:Wind:
Aussen-T/F 1926 04-07-2021 16:25:00 19.8 C 16.4 g/m*3 19.8 C 6.4 km/h
1927 04-07-2021 16:30:00 19.7 C 16.13 g/m*3 19.7 C 6.4 km/h
1928 04-07-2021 16:35:00 19.7 C 16.13 g/m*3 19.7 C 6.4 km/h
1929 04-07-2021 16:40:00 19.8 C 16.23 g/m*3 19.8 C 1.6 km/h
1930 04-07-2021 16:45:00 19.9 C 16.32 g/m*3 19.9 C 3.2 km/h
1931 04-07-2021 16:50:00 20.2 C 16.61 g/m*3 20.2 C 4.8 km/h
1932 04-07-2021 16:55:00 20.3 C 16.53 g/m*3 20.3 C 8.1 km/h
1933 04-07-2021 17:00:00 20.2 C 16.26 g/m*3 20.2 C 3.2 km/h
1934 04-07-2021 17:05:00 20.3 C 16.53 g/m*3 20.3 C 0 km/h
1935 04-07-2021 17:10:00 20.3 C 16.18 g/m*3 20.3 C 4.8 km/h
1936 04-07-2021 17:15:00 20.3 C 16.36 g/m*3 20.3 C 3.2 km/h
1937 04-07-2021 17:20:00 20.3 C 16.36 g/m*3 20.3 C 3.2 km/h
1938 04-07-2021 17:25:00 19.5 C 14.43 g/m*3 19.5 C 17.7 km/h
1939 04-07-2021 17:30:00 18.6 C 13.85 g/m*3 18.6 C 17.7 km/h
1940 04-07-2021 17:35:00 18 C 13.52 g/m*3 18 C 9.7 km/h
1941 04-07-2021 17:40:00 17.6 C 13.35 g/m*3 17.6 C 12.9 km/h
1942 04-07-2021 17:45:00 17.3 C 13.26 g/m*3 17.3 C 6.4 km/h
1943 04-07-2021 17:50:00 17.3 C 13.55 g/m*3 17.3 C 8.1 km/h
1944 04-07-2021 17:55:00 17.3 C 13.55 g/m*3 17.3 C 4.8 km/h
1945 04-07-2021 18:00:00 17.2 C 13.47 g/m*3 17.2 C 4.8 km/h
1946 04-07-2021 18:05:00 17.2 C 13.47 g/m*3 17.2 C 4.8 km/h
1947 04-07-2021 18:10:00 17.2 C 13.47 g/m*3 17.2 C 4.8 km/h
1948 04-07-2021 18:15:00 17.1 C 13.54 g/m*3 17.1 C 4.8 km/h
1949 04-07-2021 18:20:00 17.1 C 13.54 g/m*3 17.1 C 1.6 km/h
1950 04-07-2021 18:25:00 17.1 C 13.54 g/m*3 17.1 C 4.8 km/h
Sensor: Nr:Datum:Temp:Abs-Feuchte:Windchill:Wind:
Aussen-T/F 1951 04-07-2021 18:30:00 17.1 C 13.54 g/m*3 17.1 C 8.1 km/h
1952 04-07-2021 18:35:00 17.2 C 13.62 g/m*3 17.2 C 1.6 km/h
1953 04-07-2021 18:40:00 17.5 C 14.01 g/m*3 17.5 C 4.8 km/h
1954 04-07-2021 18:45:00 17.6 C 13.8 g/m*3 17.6 C 6.4 km/h
1955 04-07-2021 18:50:00 17.6 C 13.8 g/m*3 17.6 C 6.4 km/h
1956 04-07-2021 18:55:00 17.7 C 13.88 g/m*3 17.7 C 3.2 km/h
1957 04-07-2021 19:00:00 17.8 C 13.96 g/m*3 17.8 C 1.6 km/h
1958 04-07-2021 19:05:00 17.8 C 13.96 g/m*3 17.8 C 0 km/h
1959 04-07-2021 19:10:00 18.1 C 14.37 g/m*3 18.1 C 3.2 km/h
1960 04-07-2021 19:15:00 18.1 C 14.21 g/m*3 18.1 C 3.2 km/h
1961 04-07-2021 19:20:00 18.1 C 14.06 g/m*3 18.1 C 3.2 km/h
1962 04-07-2021 19:25:00 18.2 C 14.14 g/m*3 18.2 C 1.6 km/h
1963 04-07-2021 19:30:00 18.2 C 13.99 g/m*3 18.2 C 0 km/h
1964 04-07-2021 19:35:00 18.3 C 14.07 g/m*3 18.3 C 0 km/h
1965 04-07-2021 19:40:00 18.3 C 14.07 g/m*3 18.3 C 0 km/h
1966 04-07-2021 19:45:00 18.3 C 13.92 g/m*3 18.3 C 4.8 km/h
1967 04-07-2021 19:50:00 18.3 C 13.92 g/m*3 18.3 C 3.2 km/h
1968 04-07-2021 19:55:00 18.3 C 13.76 g/m*3 18.3 C 0 km/h
1969 04-07-2021 20:00:00 18.4 C 14 g/m*3 18.4 C 0 km/h
1970 04-07-2021 20:05:00 18.4 C 14 g/m*3 18.4 C 0 km/h
1971 04-07-2021 20:10:00 18.5 C 14.08 g/m*3 18.5 C 4.8 km/h
1972 04-07-2021 20:15:00 18.5 C 13.92 g/m*3 18.5 C 0 km/h
1973 04-07-2021 20:20:00 18.5 C 13.92 g/m*3 18.5 C 0 km/h
1974 04-07-2021 20:25:00 18.5 C 13.92 g/m*3 18.5 C 0 km/h
1975 04-07-2021 20:30:00 18.6 C 14.17 g/m*3 18.6 C 0 km/h
Sensor: Nr:Datum:Temp:Abs-Feuchte:Windchill:Wind:
Aussen-T/F 1976 04-07-2021 20:35:00 18.6 C 14.01 g/m*3 18.6 C 0 km/h
1977 04-07-2021 20:40:00 18.4 C 13.84 g/m*3 18.4 C 0 km/h
1978 04-07-2021 20:45:00 18.3 C 13.76 g/m*3 18.3 C 0 km/h
1979 04-07-2021 20:50:00 18.3 C 13.92 g/m*3 18.3 C 0 km/h
1980 04-07-2021 20:55:00 18.3 C 14.07 g/m*3 18.3 C 0 km/h
1981 04-07-2021 21:00:00 18.4 C 14.16 g/m*3 18.4 C 0 km/h
1982 04-07-2021 21:05:00 18.4 C 14.31 g/m*3 18.4 C 0 km/h
1983 04-07-2021 21:10:00 18.4 C 14.16 g/m*3 18.4 C 0 km/h
1984 04-07-2021 21:15:00 18.2 C 13.99 g/m*3 18.2 C 0 km/h
1985 04-07-2021 21:20:00 18.1 C 13.91 g/m*3 18.1 C 3.2 km/h
1986 04-07-2021 21:25:00 17.8 C 13.66 g/m*3 17.8 C 4.8 km/h
1987 04-07-2021 21:30:00 17.6 C 13.5 g/m*3 17.6 C 4.8 km/h
1988 04-07-2021 21:35:00 17.3 C 13.26 g/m*3 17.3 C 4.8 km/h
1989 04-07-2021 21:40:00 17.2 C 13.33 g/m*3 17.2 C 3.2 km/h
1990 04-07-2021 21:45:00 17 C 13.17 g/m*3 17 C 3.2 km/h
1991 04-07-2021 21:50:00 16.8 C 13.01 g/m*3 16.8 C 3.2 km/h
1992 04-07-2021 21:55:00 16.7 C 13.07 g/m*3 16.7 C 1.6 km/h
1993 04-07-2021 22:00:00 16.6 C 13 g/m*3 16.6 C 0 km/h
1994 04-07-2021 22:05:00 16.4 C 12.84 g/m*3 16.4 C 3.2 km/h
1995 04-07-2021 22:10:00 16.3 C 12.76 g/m*3 16.3 C 3.2 km/h
1996 04-07-2021 22:15:00 16.2 C 12.82 g/m*3 16.2 C 3.2 km/h
1997 04-07-2021 22:20:00 16.1 C 12.75 g/m*3 16.1 C 3.2 km/h
1998 04-07-2021 22:25:00 15.9 C 12.59 g/m*3 15.9 C 3.2 km/h
1999 04-07-2021 22:30:00 15.8 C 12.52 g/m*3 15.8 C 6.4 km/h
2000 04-07-2021 22:35:00 15.8 C 12.52 g/m*3 15.8 C 4.8 km/h
Sensor: Nr:Datum:Temp:Abs-Feuchte:Windchill:Wind:
Aussen-T/F 2001 04-07-2021 22:40:00 15.7 C 12.58 g/m*3 15.7 C 3.2 km/h
2002 04-07-2021 22:45:00 15.7 C 12.58 g/m*3 15.7 C 0 km/h
2003 04-07-2021 22:50:00 15.6 C 12.5 g/m*3 15.6 C 0 km/h
2004 04-07-2021 22:55:00 15.6 C 12.5 g/m*3 15.6 C 0 km/h
2005 04-07-2021 23:00:00 15.4 C 12.35 g/m*3 15.4 C 0 km/h
2006 04-07-2021 23:05:00 15.4 C 12.35 g/m*3 15.4 C 0 km/h
2007 04-07-2021 23:10:00 15.3 C 12.28 g/m*3 15.3 C 1.6 km/h
2008 04-07-2021 23:15:00 15.2 C 12.2 g/m*3 15.2 C 1.6 km/h
2009 04-07-2021 23:20:00 15.2 C 12.2 g/m*3 15.2 C 1.6 km/h
2010 04-07-2021 23:25:00 15.1 C 12.13 g/m*3 15.1 C 0 km/h
2011 04-07-2021 23:30:00 15 C 12.18 g/m*3 15 C 0 km/h
2012 04-07-2021 23:35:00 14.9 C 12.11 g/m*3 14.9 C 0 km/h
2013 04-07-2021 23:40:00 14.9 C 12.11 g/m*3 14.9 C 0 km/h
2014 04-07-2021 23:45:00 14.8 C 12.03 g/m*3 14.8 C 0 km/h
2015 04-07-2021 23:50:00 14.8 C 12.03 g/m*3 14.8 C 0 km/h
2016 04-07-2021 23:55:00 14.7 C 11.96 g/m*3 14.7 C 0 km/h

Legende:
   Min
   Max


Maximal/Minimal-Werte vom 28.06.2021 - 04.07.2021

Sensor Min Max Avg
Temp
(Aussen-T/F)
12.1 °C
02-07-2021  06:00:00
27.7 °C
28-06-2021  14:30:00
17.79 °C
Abs-Feuchte
(Aussen-T/F)
10.14 g/m*3
02-07-2021  05:50:00
20.14 g/m*3
28-06-2021  16:50:00
13.32 g/m*3
Windchill
(Aussen-T/F)
12.1 C
02-07-2021  06:00:00
27.7 C
28-06-2021  14:30:00
17.78 C

Die Daten stammen von einer Davis Vantage Pro 2 Wetter-Station und werden unter Linux mit der Software wview2wettercgi und aufbereitet. Alle Angaben erfolgen ohne Gewähr für ihre Vollständigkeit oder Richtigkeit.
Kontakt: Rainer Krienke krienke@uni-koblenz.de . Meine Webseiten an der Uni Koblenz oder privat.
Version: $Revision: 0.78 $